<?xml version="1.0" encoding="UTF-8" standalone="no" ?>
<gpx xmlns="http://www.topografix.com/GPX/1/1" xmlns:xsi="http://www.w3.org/2001/XMLSchema-instance" xsi:schemaLocation="http://www.topografix.com/GPX/1/1 http://www.topografix.com/GPX/1/1/gpx.xsd" version="1.1" creator="VisuGPX - https://www.visugpx.com">
  <metadata>
    <name>VTT - mont saint odile - 14-8-11 30km</name>
    <desc><![CDATA[un très bon single de 5km au départ du haut du mon saint odile
une montée sympa !]]></desc>
  </metadata>
  <trk>
    <name><![CDATA[2011-08-14T08:02:33Z]]></name>
    <trkseg>
      <trkpt lat="48.46309" lon="7.47898">
        <ele>189</ele>
        <time>2011-08-14T08:02:34Z</time>
      </trkpt>
      <trkpt lat="48.46316" lon="7.47908">
        <ele>189</ele>
        <time>2011-08-14T08:02:56Z</time>
      </trkpt>
      <trkpt lat="48.46319" lon="7.47909">
        <ele>189</ele>
        <time>2011-08-14T08:03:04Z</time>
      </trkpt>
      <trkpt lat="48.4632" lon="7.4791">
        <ele>188</ele>
        <time>2011-08-14T08:03:06Z</time>
      </trkpt>
      <trkpt lat="48.46313" lon="7.4791">
        <ele>189</ele>
        <time>2011-08-14T08:03:10Z</time>
      </trkpt>
      <trkpt lat="48.46309" lon="7.47899">
        <ele>189</ele>
        <time>2011-08-14T08:03:13Z</time>
      </trkpt>
      <trkpt lat="48.46296" lon="7.47875">
        <ele>189</ele>
        <time>2011-08-14T08:03:19Z</time>
      </trkpt>
      <trkpt lat="48.46284" lon="7.47863">
        <ele>189</ele>
        <time>2011-08-14T08:03:24Z</time>
      </trkpt>
      <trkpt lat="48.4627" lon="7.47861">
        <ele>189</ele>
        <time>2011-08-14T08:03:28Z</time>
      </trkpt>
      <trkpt lat="48.46251" lon="7.47865">
        <ele>190</ele>
        <time>2011-08-14T08:03:33Z</time>
      </trkpt>
      <trkpt lat="48.46236" lon="7.47874">
        <ele>190</ele>
        <time>2011-08-14T08:03:37Z</time>
      </trkpt>
      <trkpt lat="48.46214" lon="7.47887">
        <ele>191</ele>
        <time>2011-08-14T08:03:41Z</time>
      </trkpt>
      <trkpt lat="48.46197" lon="7.47894">
        <ele>190</ele>
        <time>2011-08-14T08:03:45Z</time>
      </trkpt>
      <trkpt lat="48.46189" lon="7.47876">
        <ele>190</ele>
        <time>2011-08-14T08:03:49Z</time>
      </trkpt>
      <trkpt lat="48.46186" lon="7.4785">
        <ele>191</ele>
        <time>2011-08-14T08:03:53Z</time>
      </trkpt>
      <trkpt lat="48.46177" lon="7.47809">
        <ele>191</ele>
        <time>2011-08-14T08:04:00Z</time>
      </trkpt>
      <trkpt lat="48.46165" lon="7.47776">
        <ele>192</ele>
        <time>2011-08-14T08:04:06Z</time>
      </trkpt>
      <trkpt lat="48.46163" lon="7.47751">
        <ele>192</ele>
        <time>2011-08-14T08:04:11Z</time>
      </trkpt>
      <trkpt lat="48.46162" lon="7.47715">
        <ele>194</ele>
        <time>2011-08-14T08:04:17Z</time>
      </trkpt>
      <trkpt lat="48.46164" lon="7.47684">
        <ele>195</ele>
        <time>2011-08-14T08:04:22Z</time>
      </trkpt>
      <trkpt lat="48.46169" lon="7.47647">
        <ele>195</ele>
        <time>2011-08-14T08:04:28Z</time>
      </trkpt>
      <trkpt lat="48.46171" lon="7.47614">
        <ele>195</ele>
        <time>2011-08-14T08:04:34Z</time>
      </trkpt>
      <trkpt lat="48.46176" lon="7.4757">
        <ele>196</ele>
        <time>2011-08-14T08:04:42Z</time>
      </trkpt>
      <trkpt lat="48.46179" lon="7.47533">
        <ele>197</ele>
        <time>2011-08-14T08:04:49Z</time>
      </trkpt>
      <trkpt lat="48.46182" lon="7.4749">
        <ele>198</ele>
        <time>2011-08-14T08:04:58Z</time>
      </trkpt>
      <trkpt lat="48.46187" lon="7.4746">
        <ele>198</ele>
        <time>2011-08-14T08:05:04Z</time>
      </trkpt>
      <trkpt lat="48.46191" lon="7.47431">
        <ele>199</ele>
        <time>2011-08-14T08:05:10Z</time>
      </trkpt>
      <trkpt lat="48.46201" lon="7.47404">
        <ele>199</ele>
        <time>2011-08-14T08:05:16Z</time>
      </trkpt>
      <trkpt lat="48.46216" lon="7.47397">
        <ele>199</ele>
        <time>2011-08-14T08:05:21Z</time>
      </trkpt>
      <trkpt lat="48.46219" lon="7.47394">
        <ele>199</ele>
        <time>2011-08-14T08:05:22Z</time>
      </trkpt>
      <trkpt lat="48.46217" lon="7.47374">
        <ele>199</ele>
        <time>2011-08-14T08:05:26Z</time>
      </trkpt>
      <trkpt lat="48.46212" lon="7.47363">
        <ele>199</ele>
        <time>2011-08-14T08:05:28Z</time>
      </trkpt>
      <trkpt lat="48.4621" lon="7.47333">
        <ele>200</ele>
        <time>2011-08-14T08:05:33Z</time>
      </trkpt>
      <trkpt lat="48.46217" lon="7.47304">
        <ele>200</ele>
        <time>2011-08-14T08:05:38Z</time>
      </trkpt>
      <trkpt lat="48.46231" lon="7.47252">
        <ele>200</ele>
        <time>2011-08-14T08:05:47Z</time>
      </trkpt>
      <trkpt lat="48.4625" lon="7.47203">
        <ele>201</ele>
        <time>2011-08-14T08:05:56Z</time>
      </trkpt>
      <trkpt lat="48.46252" lon="7.47197">
        <ele>200</ele>
        <time>2011-08-14T08:05:57Z</time>
      </trkpt>
      <trkpt lat="48.46256" lon="7.47186">
        <ele>200</ele>
        <time>2011-08-14T08:05:59Z</time>
      </trkpt>
      <trkpt lat="48.46277" lon="7.47139">
        <ele>201</ele>
        <time>2011-08-14T08:06:07Z</time>
      </trkpt>
      <trkpt lat="48.46296" lon="7.47083">
        <ele>203</ele>
        <time>2011-08-14T08:06:15Z</time>
      </trkpt>
      <trkpt lat="48.463" lon="7.4706">
        <ele>203</ele>
        <time>2011-08-14T08:06:18Z</time>
      </trkpt>
      <trkpt lat="48.46304" lon="7.47022">
        <ele>203</ele>
        <time>2011-08-14T08:06:23Z</time>
      </trkpt>
      <trkpt lat="48.46306" lon="7.4697">
        <ele>204</ele>
        <time>2011-08-14T08:06:30Z</time>
      </trkpt>
      <trkpt lat="48.4631" lon="7.46894">
        <ele>205</ele>
        <time>2011-08-14T08:06:40Z</time>
      </trkpt>
      <trkpt lat="48.46314" lon="7.46846">
        <ele>205</ele>
        <time>2011-08-14T08:06:47Z</time>
      </trkpt>
      <trkpt lat="48.46316" lon="7.4682">
        <ele>205</ele>
        <time>2011-08-14T08:06:51Z</time>
      </trkpt>
      <trkpt lat="48.46322" lon="7.46782">
        <ele>205</ele>
        <time>2011-08-14T08:06:57Z</time>
      </trkpt>
      <trkpt lat="48.46322" lon="7.46747">
        <ele>204</ele>
        <time>2011-08-14T08:07:03Z</time>
      </trkpt>
      <trkpt lat="48.46321" lon="7.46732">
        <ele>205</ele>
        <time>2011-08-14T08:07:08Z</time>
      </trkpt>
      <trkpt lat="48.46328" lon="7.46713">
        <ele>205</ele>
        <time>2011-08-14T08:07:12Z</time>
      </trkpt>
      <trkpt lat="48.46329" lon="7.46708">
        <ele>205</ele>
        <time>2011-08-14T08:07:13Z</time>
      </trkpt>
      <trkpt lat="48.46333" lon="7.46676">
        <ele>205</ele>
        <time>2011-08-14T08:07:18Z</time>
      </trkpt>
      <trkpt lat="48.46335" lon="7.46616">
        <ele>207</ele>
        <time>2011-08-14T08:07:27Z</time>
      </trkpt>
      <trkpt lat="48.46335" lon="7.46573">
        <ele>208</ele>
        <time>2011-08-14T08:07:34Z</time>
      </trkpt>
      <trkpt lat="48.46334" lon="7.46519">
        <ele>208</ele>
        <time>2011-08-14T08:07:42Z</time>
      </trkpt>
      <trkpt lat="48.46332" lon="7.46443">
        <ele>208</ele>
        <time>2011-08-14T08:07:53Z</time>
      </trkpt>
      <trkpt lat="48.46336" lon="7.46381">
        <ele>210</ele>
        <time>2011-08-14T08:08:02Z</time>
      </trkpt>
      <trkpt lat="48.46342" lon="7.46311">
        <ele>211</ele>
        <time>2011-08-14T08:08:12Z</time>
      </trkpt>
      <trkpt lat="48.46347" lon="7.46262">
        <ele>211</ele>
        <time>2011-08-14T08:08:19Z</time>
      </trkpt>
      <trkpt lat="48.46349" lon="7.46225">
        <ele>211</ele>
        <time>2011-08-14T08:08:26Z</time>
      </trkpt>
      <trkpt lat="48.46348" lon="7.46191">
        <ele>212</ele>
        <time>2011-08-14T08:08:32Z</time>
      </trkpt>
      <trkpt lat="48.46341" lon="7.46169">
        <ele>212</ele>
        <time>2011-08-14T08:08:36Z</time>
      </trkpt>
      <trkpt lat="48.46337" lon="7.46167">
        <ele>212</ele>
        <time>2011-08-14T08:08:37Z</time>
      </trkpt>
      <trkpt lat="48.4631" lon="7.46154">
        <ele>211</ele>
        <time>2011-08-14T08:08:44Z</time>
      </trkpt>
      <trkpt lat="48.46281" lon="7.46143">
        <ele>211</ele>
        <time>2011-08-14T08:08:52Z</time>
      </trkpt>
      <trkpt lat="48.46258" lon="7.46129">
        <ele>211</ele>
        <time>2011-08-14T08:08:59Z</time>
      </trkpt>
      <trkpt lat="48.46242" lon="7.46118">
        <ele>212</ele>
        <time>2011-08-14T08:09:04Z</time>
      </trkpt>
      <trkpt lat="48.46221" lon="7.46097">
        <ele>212</ele>
        <time>2011-08-14T08:09:11Z</time>
      </trkpt>
      <trkpt lat="48.46199" lon="7.46074">
        <ele>213</ele>
        <time>2011-08-14T08:09:19Z</time>
      </trkpt>
      <trkpt lat="48.46178" lon="7.46059">
        <ele>213</ele>
        <time>2011-08-14T08:09:26Z</time>
      </trkpt>
      <trkpt lat="48.46156" lon="7.46046">
        <ele>215</ele>
        <time>2011-08-14T08:09:34Z</time>
      </trkpt>
      <trkpt lat="48.46153" lon="7.46043">
        <ele>215</ele>
        <time>2011-08-14T08:09:38Z</time>
      </trkpt>
      <trkpt lat="48.4615" lon="7.46042">
        <ele>215</ele>
        <time>2011-08-14T08:09:58Z</time>
      </trkpt>
      <trkpt lat="48.46145" lon="7.4604">
        <ele>215</ele>
        <time>2011-08-14T08:10:09Z</time>
      </trkpt>
      <trkpt lat="48.46134" lon="7.4603">
        <ele>215</ele>
        <time>2011-08-14T08:10:15Z</time>
      </trkpt>
      <trkpt lat="48.46126" lon="7.46009">
        <ele>216</ele>
        <time>2011-08-14T08:10:20Z</time>
      </trkpt>
      <trkpt lat="48.46122" lon="7.45979">
        <ele>217</ele>
        <time>2011-08-14T08:10:27Z</time>
      </trkpt>
      <trkpt lat="48.46118" lon="7.45973">
        <ele>217</ele>
        <time>2011-08-14T08:10:30Z</time>
      </trkpt>
      <trkpt lat="48.46098" lon="7.45972">
        <ele>218</ele>
        <time>2011-08-14T08:10:37Z</time>
      </trkpt>
      <trkpt lat="48.46076" lon="7.45973">
        <ele>220</ele>
        <time>2011-08-14T08:10:44Z</time>
      </trkpt>
      <trkpt lat="48.46062" lon="7.45972">
        <ele>220</ele>
        <time>2011-08-14T08:10:49Z</time>
      </trkpt>
      <trkpt lat="48.46033" lon="7.4597">
        <ele>221</ele>
        <time>2011-08-14T08:10:59Z</time>
      </trkpt>
      <trkpt lat="48.46013" lon="7.45968">
        <ele>221</ele>
        <time>2011-08-14T08:11:06Z</time>
      </trkpt>
      <trkpt lat="48.45987" lon="7.45969">
        <ele>224</ele>
        <time>2011-08-14T08:11:15Z</time>
      </trkpt>
      <trkpt lat="48.45962" lon="7.45974">
        <ele>225</ele>
        <time>2011-08-14T08:11:24Z</time>
      </trkpt>
      <trkpt lat="48.45937" lon="7.45979">
        <ele>226</ele>
        <time>2011-08-14T08:11:33Z</time>
      </trkpt>
      <trkpt lat="48.45911" lon="7.4598">
        <ele>231</ele>
        <time>2011-08-14T08:11:42Z</time>
      </trkpt>
      <trkpt lat="48.45884" lon="7.45982">
        <ele>232</ele>
        <time>2011-08-14T08:11:52Z</time>
      </trkpt>
      <trkpt lat="48.45879" lon="7.45969">
        <ele>232</ele>
        <time>2011-08-14T08:11:56Z</time>
      </trkpt>
      <trkpt lat="48.45877" lon="7.45922">
        <ele>232</ele>
        <time>2011-08-14T08:12:06Z</time>
      </trkpt>
      <trkpt lat="48.45871" lon="7.45891">
        <ele>230</ele>
        <time>2011-08-14T08:12:12Z</time>
      </trkpt>
      <trkpt lat="48.45857" lon="7.45869">
        <ele>231</ele>
        <time>2011-08-14T08:12:18Z</time>
      </trkpt>
      <trkpt lat="48.45835" lon="7.45846">
        <ele>231</ele>
        <time>2011-08-14T08:12:27Z</time>
      </trkpt>
      <trkpt lat="48.4582" lon="7.4582">
        <ele>233</ele>
        <time>2011-08-14T08:12:35Z</time>
      </trkpt>
      <trkpt lat="48.45812" lon="7.45794">
        <ele>233</ele>
        <time>2011-08-14T08:12:40Z</time>
      </trkpt>
      <trkpt lat="48.45804" lon="7.45762">
        <ele>233</ele>
        <time>2011-08-14T08:12:44Z</time>
      </trkpt>
      <trkpt lat="48.4579" lon="7.45727">
        <ele>230</ele>
        <time>2011-08-14T08:12:48Z</time>
      </trkpt>
      <trkpt lat="48.45768" lon="7.45687">
        <ele>230</ele>
        <time>2011-08-14T08:12:53Z</time>
      </trkpt>
      <trkpt lat="48.4575" lon="7.45642">
        <ele>227</ele>
        <time>2011-08-14T08:12:58Z</time>
      </trkpt>
      <trkpt lat="48.45729" lon="7.45615">
        <ele>228</ele>
        <time>2011-08-14T08:13:02Z</time>
      </trkpt>
      <trkpt lat="48.45719" lon="7.45608">
        <ele>228</ele>
        <time>2011-08-14T08:13:04Z</time>
      </trkpt>
      <trkpt lat="48.4571" lon="7.45582">
        <ele>228</ele>
        <time>2011-08-14T08:13:09Z</time>
      </trkpt>
      <trkpt lat="48.45705" lon="7.45547">
        <ele>228</ele>
        <time>2011-08-14T08:13:19Z</time>
      </trkpt>
      <trkpt lat="48.45701" lon="7.45507">
        <ele>229</ele>
        <time>2011-08-14T08:13:30Z</time>
      </trkpt>
      <trkpt lat="48.45698" lon="7.45482">
        <ele>232</ele>
        <time>2011-08-14T08:13:38Z</time>
      </trkpt>
      <trkpt lat="48.45696" lon="7.45457">
        <ele>232</ele>
        <time>2011-08-14T08:13:46Z</time>
      </trkpt>
      <trkpt lat="48.45695" lon="7.45428">
        <ele>233</ele>
        <time>2011-08-14T08:13:55Z</time>
      </trkpt>
      <trkpt lat="48.45694" lon="7.45417">
        <ele>233</ele>
        <time>2011-08-14T08:14:01Z</time>
      </trkpt>
      <trkpt lat="48.45692" lon="7.4539">
        <ele>236</ele>
        <time>2011-08-14T08:14:10Z</time>
      </trkpt>
      <trkpt lat="48.45689" lon="7.45366">
        <ele>237</ele>
        <time>2011-08-14T08:14:18Z</time>
      </trkpt>
      <trkpt lat="48.45683" lon="7.45344">
        <ele>238</ele>
        <time>2011-08-14T08:14:25Z</time>
      </trkpt>
      <trkpt lat="48.45678" lon="7.45322">
        <ele>240</ele>
        <time>2011-08-14T08:14:33Z</time>
      </trkpt>
      <trkpt lat="48.45675" lon="7.45307">
        <ele>240</ele>
        <time>2011-08-14T08:14:39Z</time>
      </trkpt>
      <trkpt lat="48.45668" lon="7.45276">
        <ele>241</ele>
        <time>2011-08-14T08:14:50Z</time>
      </trkpt>
      <trkpt lat="48.4566" lon="7.45249">
        <ele>243</ele>
        <time>2011-08-14T08:14:59Z</time>
      </trkpt>
      <trkpt lat="48.45652" lon="7.45222">
        <ele>244</ele>
        <time>2011-08-14T08:15:08Z</time>
      </trkpt>
      <trkpt lat="48.45642" lon="7.45191">
        <ele>245</ele>
        <time>2011-08-14T08:15:18Z</time>
      </trkpt>
      <trkpt lat="48.45634" lon="7.45164">
        <ele>246</ele>
        <time>2011-08-14T08:15:27Z</time>
      </trkpt>
      <trkpt lat="48.45627" lon="7.45133">
        <ele>246</ele>
        <time>2011-08-14T08:15:36Z</time>
      </trkpt>
      <trkpt lat="48.45623" lon="7.45102">
        <ele>246</ele>
        <time>2011-08-14T08:15:42Z</time>
      </trkpt>
      <trkpt lat="48.45618" lon="7.45052">
        <ele>246</ele>
        <time>2011-08-14T08:15:49Z</time>
      </trkpt>
      <trkpt lat="48.45615" lon="7.44988">
        <ele>244</ele>
        <time>2011-08-14T08:15:58Z</time>
      </trkpt>
      <trkpt lat="48.45608" lon="7.44925">
        <ele>243</ele>
        <time>2011-08-14T08:16:06Z</time>
      </trkpt>
      <trkpt lat="48.45597" lon="7.44864">
        <ele>242</ele>
        <time>2011-08-14T08:16:14Z</time>
      </trkpt>
      <trkpt lat="48.45592" lon="7.44838">
        <ele>242</ele>
        <time>2011-08-14T08:16:18Z</time>
      </trkpt>
      <trkpt lat="48.45587" lon="7.44803">
        <ele>242</ele>
        <time>2011-08-14T08:16:24Z</time>
      </trkpt>
      <trkpt lat="48.45578" lon="7.44743">
        <ele>243</ele>
        <time>2011-08-14T08:16:34Z</time>
      </trkpt>
      <trkpt lat="48.45572" lon="7.44698">
        <ele>244</ele>
        <time>2011-08-14T08:16:42Z</time>
      </trkpt>
      <trkpt lat="48.45567" lon="7.44661">
        <ele>244</ele>
        <time>2011-08-14T08:16:49Z</time>
      </trkpt>
      <trkpt lat="48.45558" lon="7.44603">
        <ele>246</ele>
        <time>2011-08-14T08:16:59Z</time>
      </trkpt>
      <trkpt lat="48.45546" lon="7.44549">
        <ele>248</ele>
        <time>2011-08-14T08:17:08Z</time>
      </trkpt>
      <trkpt lat="48.45533" lon="7.44493">
        <ele>248</ele>
        <time>2011-08-14T08:17:18Z</time>
      </trkpt>
      <trkpt lat="48.45525" lon="7.44456">
        <ele>248</ele>
        <time>2011-08-14T08:17:25Z</time>
      </trkpt>
      <trkpt lat="48.45516" lon="7.4443">
        <ele>249</ele>
        <time>2011-08-14T08:17:31Z</time>
      </trkpt>
      <trkpt lat="48.45499" lon="7.44399">
        <ele>252</ele>
        <time>2011-08-14T08:17:41Z</time>
      </trkpt>
      <trkpt lat="48.45486" lon="7.44384">
        <ele>253</ele>
        <time>2011-08-14T08:17:49Z</time>
      </trkpt>
      <trkpt lat="48.45471" lon="7.44369">
        <ele>254</ele>
        <time>2011-08-14T08:17:58Z</time>
      </trkpt>
      <trkpt lat="48.45454" lon="7.44354">
        <ele>254</ele>
        <time>2011-08-14T08:18:08Z</time>
      </trkpt>
      <trkpt lat="48.45438" lon="7.44338">
        <ele>255</ele>
        <time>2011-08-14T08:18:16Z</time>
      </trkpt>
      <trkpt lat="48.45421" lon="7.44313">
        <ele>256</ele>
        <time>2011-08-14T08:18:24Z</time>
      </trkpt>
      <trkpt lat="48.45417" lon="7.44305">
        <ele>256</ele>
        <time>2011-08-14T08:18:28Z</time>
      </trkpt>
      <trkpt lat="48.45417" lon="7.44306">
        <ele>256</ele>
        <time>2011-08-14T08:18:47Z</time>
      </trkpt>
      <trkpt lat="48.45413" lon="7.443">
        <ele>257</ele>
        <time>2011-08-14T08:19:30Z</time>
      </trkpt>
      <trkpt lat="48.45408" lon="7.44285">
        <ele>257</ele>
        <time>2011-08-14T08:19:36Z</time>
      </trkpt>
      <trkpt lat="48.45397" lon="7.44252">
        <ele>257</ele>
        <time>2011-08-14T08:19:43Z</time>
      </trkpt>
      <trkpt lat="48.45374" lon="7.44196">
        <ele>256</ele>
        <time>2011-08-14T08:19:53Z</time>
      </trkpt>
      <trkpt lat="48.4535" lon="7.44144">
        <ele>256</ele>
        <time>2011-08-14T08:20:01Z</time>
      </trkpt>
      <trkpt lat="48.45342" lon="7.44127">
        <ele>256</ele>
        <time>2011-08-14T08:20:04Z</time>
      </trkpt>
      <trkpt lat="48.45337" lon="7.441">
        <ele>256</ele>
        <time>2011-08-14T08:20:09Z</time>
      </trkpt>
      <trkpt lat="48.45341" lon="7.44061">
        <ele>257</ele>
        <time>2011-08-14T08:20:16Z</time>
      </trkpt>
      <trkpt lat="48.45343" lon="7.44014">
        <ele>259</ele>
        <time>2011-08-14T08:20:25Z</time>
      </trkpt>
      <trkpt lat="48.45343" lon="7.43959">
        <ele>259</ele>
        <time>2011-08-14T08:20:36Z</time>
      </trkpt>
      <trkpt lat="48.45343" lon="7.4393">
        <ele>260</ele>
        <time>2011-08-14T08:20:43Z</time>
      </trkpt>
      <trkpt lat="48.45344" lon="7.43897">
        <ele>260</ele>
        <time>2011-08-14T08:20:51Z</time>
      </trkpt>
      <trkpt lat="48.45344" lon="7.43871">
        <ele>261</ele>
        <time>2011-08-14T08:20:58Z</time>
      </trkpt>
      <trkpt lat="48.45344" lon="7.4384">
        <ele>261</ele>
        <time>2011-08-14T08:21:06Z</time>
      </trkpt>
      <trkpt lat="48.45344" lon="7.43807">
        <ele>263</ele>
        <time>2011-08-14T08:21:14Z</time>
      </trkpt>
      <trkpt lat="48.45343" lon="7.43771">
        <ele>264</ele>
        <time>2011-08-14T08:21:22Z</time>
      </trkpt>
      <trkpt lat="48.45344" lon="7.43728">
        <ele>266</ele>
        <time>2011-08-14T08:21:32Z</time>
      </trkpt>
      <trkpt lat="48.45343" lon="7.43689">
        <ele>266</ele>
        <time>2011-08-14T08:21:41Z</time>
      </trkpt>
      <trkpt lat="48.45345" lon="7.43648">
        <ele>267</ele>
        <time>2011-08-14T08:21:51Z</time>
      </trkpt>
      <trkpt lat="48.45349" lon="7.43612">
        <ele>267</ele>
        <time>2011-08-14T08:22:00Z</time>
      </trkpt>
      <trkpt lat="48.45355" lon="7.43575">
        <ele>269</ele>
        <time>2011-08-14T08:22:09Z</time>
      </trkpt>
      <trkpt lat="48.45357" lon="7.43529">
        <ele>270</ele>
        <time>2011-08-14T08:22:20Z</time>
      </trkpt>
      <trkpt lat="48.4536" lon="7.4349">
        <ele>271</ele>
        <time>2011-08-14T08:22:29Z</time>
      </trkpt>
      <trkpt lat="48.45369" lon="7.43443">
        <ele>271</ele>
        <time>2011-08-14T08:22:40Z</time>
      </trkpt>
      <trkpt lat="48.45378" lon="7.43408">
        <ele>273</ele>
        <time>2011-08-14T08:22:49Z</time>
      </trkpt>
      <trkpt lat="48.45391" lon="7.43367">
        <ele>273</ele>
        <time>2011-08-14T08:22:59Z</time>
      </trkpt>
      <trkpt lat="48.45403" lon="7.43326">
        <ele>273</ele>
        <time>2011-08-14T08:23:08Z</time>
      </trkpt>
      <trkpt lat="48.4542" lon="7.43271">
        <ele>272</ele>
        <time>2011-08-14T08:23:20Z</time>
      </trkpt>
      <trkpt lat="48.45436" lon="7.43232">
        <ele>274</ele>
        <time>2011-08-14T08:23:29Z</time>
      </trkpt>
      <trkpt lat="48.45454" lon="7.43192">
        <ele>274</ele>
        <time>2011-08-14T08:23:38Z</time>
      </trkpt>
      <trkpt lat="48.45471" lon="7.4315">
        <ele>275</ele>
        <time>2011-08-14T08:23:46Z</time>
      </trkpt>
      <trkpt lat="48.45479" lon="7.43125">
        <ele>274</ele>
        <time>2011-08-14T08:23:50Z</time>
      </trkpt>
      <trkpt lat="48.45492" lon="7.43052">
        <ele>273</ele>
        <time>2011-08-14T08:24:01Z</time>
      </trkpt>
      <trkpt lat="48.455" lon="7.43011">
        <ele>273</ele>
        <time>2011-08-14T08:24:07Z</time>
      </trkpt>
      <trkpt lat="48.45508" lon="7.42984">
        <ele>273</ele>
        <time>2011-08-14T08:24:11Z</time>
      </trkpt>
      <trkpt lat="48.45526" lon="7.42929">
        <ele>274</ele>
        <time>2011-08-14T08:24:19Z</time>
      </trkpt>
      <trkpt lat="48.4555" lon="7.42853">
        <ele>275</ele>
        <time>2011-08-14T08:24:30Z</time>
      </trkpt>
      <trkpt lat="48.45566" lon="7.42799">
        <ele>276</ele>
        <time>2011-08-14T08:24:38Z</time>
      </trkpt>
      <trkpt lat="48.45581" lon="7.42746">
        <ele>276</ele>
        <time>2011-08-14T08:24:46Z</time>
      </trkpt>
      <trkpt lat="48.45588" lon="7.42715">
        <ele>277</ele>
        <time>2011-08-14T08:24:51Z</time>
      </trkpt>
      <trkpt lat="48.45601" lon="7.42656">
        <ele>279</ele>
        <time>2011-08-14T08:25:01Z</time>
      </trkpt>
      <trkpt lat="48.45605" lon="7.42604">
        <ele>280</ele>
        <time>2011-08-14T08:25:10Z</time>
      </trkpt>
      <trkpt lat="48.45608" lon="7.42561">
        <ele>283</ele>
        <time>2011-08-14T08:25:18Z</time>
      </trkpt>
      <trkpt lat="48.45621" lon="7.42556">
        <ele>283</ele>
        <time>2011-08-14T08:25:22Z</time>
      </trkpt>
      <trkpt lat="48.45638" lon="7.42553">
        <ele>283</ele>
        <time>2011-08-14T08:25:27Z</time>
      </trkpt>
      <trkpt lat="48.45652" lon="7.42544">
        <ele>283</ele>
        <time>2011-08-14T08:25:32Z</time>
      </trkpt>
      <trkpt lat="48.45671" lon="7.42522">
        <ele>284</ele>
        <time>2011-08-14T08:25:39Z</time>
      </trkpt>
      <trkpt lat="48.4569" lon="7.425">
        <ele>284</ele>
        <time>2011-08-14T08:25:46Z</time>
      </trkpt>
      <trkpt lat="48.45704" lon="7.42482">
        <ele>289</ele>
        <time>2011-08-14T08:25:53Z</time>
      </trkpt>
      <trkpt lat="48.45705" lon="7.42479">
        <ele>289</ele>
        <time>2011-08-14T08:26:03Z</time>
      </trkpt>
      <trkpt lat="48.45707" lon="7.42475">
        <ele>289</ele>
        <time>2011-08-14T08:26:05Z</time>
      </trkpt>
      <trkpt lat="48.45702" lon="7.42463">
        <ele>290</ele>
        <time>2011-08-14T08:26:10Z</time>
      </trkpt>
      <trkpt lat="48.45692" lon="7.42452">
        <ele>290</ele>
        <time>2011-08-14T08:26:15Z</time>
      </trkpt>
      <trkpt lat="48.45685" lon="7.42435">
        <ele>291</ele>
        <time>2011-08-14T08:26:20Z</time>
      </trkpt>
      <trkpt lat="48.4568" lon="7.42423">
        <ele>292</ele>
        <time>2011-08-14T08:26:26Z</time>
      </trkpt>
      <trkpt lat="48.45678" lon="7.42416">
        <ele>295</ele>
        <time>2011-08-14T08:26:30Z</time>
      </trkpt>
      <trkpt lat="48.45669" lon="7.42399">
        <ele>295</ele>
        <time>2011-08-14T08:26:37Z</time>
      </trkpt>
      <trkpt lat="48.45664" lon="7.42377">
        <ele>295</ele>
        <time>2011-08-14T08:26:43Z</time>
      </trkpt>
      <trkpt lat="48.45663" lon="7.4235">
        <ele>296</ele>
        <time>2011-08-14T08:26:50Z</time>
      </trkpt>
      <trkpt lat="48.45666" lon="7.4232">
        <ele>299</ele>
        <time>2011-08-14T08:26:57Z</time>
      </trkpt>
      <trkpt lat="48.45674" lon="7.42304">
        <ele>300</ele>
        <time>2011-08-14T08:27:02Z</time>
      </trkpt>
      <trkpt lat="48.45675" lon="7.42301">
        <ele>300</ele>
        <time>2011-08-14T08:27:03Z</time>
      </trkpt>
      <trkpt lat="48.45672" lon="7.4229">
        <ele>301</ele>
        <time>2011-08-14T08:27:07Z</time>
      </trkpt>
      <trkpt lat="48.45668" lon="7.4228">
        <ele>301</ele>
        <time>2011-08-14T08:27:13Z</time>
      </trkpt>
      <trkpt lat="48.45664" lon="7.42265">
        <ele>301</ele>
        <time>2011-08-14T08:27:19Z</time>
      </trkpt>
      <trkpt lat="48.45668" lon="7.42245">
        <ele>303</ele>
        <time>2011-08-14T08:27:25Z</time>
      </trkpt>
      <trkpt lat="48.45669" lon="7.42242">
        <ele>304</ele>
        <time>2011-08-14T08:27:26Z</time>
      </trkpt>
      <trkpt lat="48.4567" lon="7.42233">
        <ele>304</ele>
        <time>2011-08-14T08:27:29Z</time>
      </trkpt>
      <trkpt lat="48.45672" lon="7.422">
        <ele>306</ele>
        <time>2011-08-14T08:27:38Z</time>
      </trkpt>
      <trkpt lat="48.45676" lon="7.42196">
        <ele>306</ele>
        <time>2011-08-14T08:27:40Z</time>
      </trkpt>
      <trkpt lat="48.45689" lon="7.42176">
        <ele>306</ele>
        <time>2011-08-14T08:27:49Z</time>
      </trkpt>
      <trkpt lat="48.45702" lon="7.42164">
        <ele>309</ele>
        <time>2011-08-14T08:27:56Z</time>
      </trkpt>
      <trkpt lat="48.45708" lon="7.42141">
        <ele>309</ele>
        <time>2011-08-14T08:28:05Z</time>
      </trkpt>
      <trkpt lat="48.45713" lon="7.42128">
        <ele>310</ele>
        <time>2011-08-14T08:28:10Z</time>
      </trkpt>
      <trkpt lat="48.45717" lon="7.42109">
        <ele>310</ele>
        <time>2011-08-14T08:28:17Z</time>
      </trkpt>
      <trkpt lat="48.4572" lon="7.42097">
        <ele>310</ele>
        <time>2011-08-14T08:28:22Z</time>
      </trkpt>
      <trkpt lat="48.45719" lon="7.42076">
        <ele>314</ele>
        <time>2011-08-14T08:28:30Z</time>
      </trkpt>
      <trkpt lat="48.45715" lon="7.42057">
        <ele>315</ele>
        <time>2011-08-14T08:28:37Z</time>
      </trkpt>
      <trkpt lat="48.45711" lon="7.42039">
        <ele>315</ele>
        <time>2011-08-14T08:28:43Z</time>
      </trkpt>
      <trkpt lat="48.4571" lon="7.42026">
        <ele>316</ele>
        <time>2011-08-14T08:28:49Z</time>
      </trkpt>
      <trkpt lat="48.45708" lon="7.42014">
        <ele>316</ele>
        <time>2011-08-14T08:28:55Z</time>
      </trkpt>
      <trkpt lat="48.45707" lon="7.42007">
        <ele>316</ele>
        <time>2011-08-14T08:28:59Z</time>
      </trkpt>
      <trkpt lat="48.45705" lon="7.4199">
        <ele>322</ele>
        <time>2011-08-14T08:29:06Z</time>
      </trkpt>
      <trkpt lat="48.45702" lon="7.41977">
        <ele>322</ele>
        <time>2011-08-14T08:29:12Z</time>
      </trkpt>
      <trkpt lat="48.45699" lon="7.41955">
        <ele>323</ele>
        <time>2011-08-14T08:29:20Z</time>
      </trkpt>
      <trkpt lat="48.45695" lon="7.41937">
        <ele>324</ele>
        <time>2011-08-14T08:29:28Z</time>
      </trkpt>
      <trkpt lat="48.4569" lon="7.41924">
        <ele>325</ele>
        <time>2011-08-14T08:29:35Z</time>
      </trkpt>
      <trkpt lat="48.45688" lon="7.41917">
        <ele>325</ele>
        <time>2011-08-14T08:29:39Z</time>
      </trkpt>
      <trkpt lat="48.45682" lon="7.41902">
        <ele>330</ele>
        <time>2011-08-14T08:29:44Z</time>
      </trkpt>
      <trkpt lat="48.45678" lon="7.41891">
        <ele>331</ele>
        <time>2011-08-14T08:29:48Z</time>
      </trkpt>
      <trkpt lat="48.45676" lon="7.41881">
        <ele>332</ele>
        <time>2011-08-14T08:29:54Z</time>
      </trkpt>
      <trkpt lat="48.45673" lon="7.41872">
        <ele>332</ele>
        <time>2011-08-14T08:29:59Z</time>
      </trkpt>
      <trkpt lat="48.45671" lon="7.41866">
        <ele>333</ele>
        <time>2011-08-14T08:30:05Z</time>
      </trkpt>
      <trkpt lat="48.45667" lon="7.41855">
        <ele>338</ele>
        <time>2011-08-14T08:30:12Z</time>
      </trkpt>
      <trkpt lat="48.45664" lon="7.4185">
        <ele>338</ele>
        <time>2011-08-14T08:30:17Z</time>
      </trkpt>
      <trkpt lat="48.45659" lon="7.41832">
        <ele>339</ele>
        <time>2011-08-14T08:31:11Z</time>
      </trkpt>
      <trkpt lat="48.45654" lon="7.41821">
        <ele>341</ele>
        <time>2011-08-14T08:31:17Z</time>
      </trkpt>
      <trkpt lat="48.45652" lon="7.41818">
        <ele>342</ele>
        <time>2011-08-14T08:31:19Z</time>
      </trkpt>
      <trkpt lat="48.45647" lon="7.41803">
        <ele>344</ele>
        <time>2011-08-14T08:31:26Z</time>
      </trkpt>
      <trkpt lat="48.45645" lon="7.41798">
        <ele>344</ele>
        <time>2011-08-14T08:31:30Z</time>
      </trkpt>
      <trkpt lat="48.45638" lon="7.41786">
        <ele>345</ele>
        <time>2011-08-14T08:31:35Z</time>
      </trkpt>
      <trkpt lat="48.45632" lon="7.41773">
        <ele>345</ele>
        <time>2011-08-14T08:31:40Z</time>
      </trkpt>
      <trkpt lat="48.45625" lon="7.41756">
        <ele>346</ele>
        <time>2011-08-14T08:31:47Z</time>
      </trkpt>
      <trkpt lat="48.45622" lon="7.41745">
        <ele>348</ele>
        <time>2011-08-14T08:31:52Z</time>
      </trkpt>
      <trkpt lat="48.4562" lon="7.41737">
        <ele>349</ele>
        <time>2011-08-14T08:32:11Z</time>
      </trkpt>
      <trkpt lat="48.45622" lon="7.4174">
        <ele>348</ele>
        <time>2011-08-14T08:32:15Z</time>
      </trkpt>
      <trkpt lat="48.45624" lon="7.41742">
        <ele>348</ele>
        <time>2011-08-14T08:32:18Z</time>
      </trkpt>
      <trkpt lat="48.45631" lon="7.41755">
        <ele>345</ele>
        <time>2011-08-14T08:32:23Z</time>
      </trkpt>
      <trkpt lat="48.45643" lon="7.41778">
        <ele>345</ele>
        <time>2011-08-14T08:32:28Z</time>
      </trkpt>
      <trkpt lat="48.45651" lon="7.41797">
        <ele>344</ele>
        <time>2011-08-14T08:32:32Z</time>
      </trkpt>
      <trkpt lat="48.45659" lon="7.41819">
        <ele>341</ele>
        <time>2011-08-14T08:32:37Z</time>
      </trkpt>
      <trkpt lat="48.4567" lon="7.41841">
        <ele>336</ele>
        <time>2011-08-14T08:32:42Z</time>
      </trkpt>
      <trkpt lat="48.45678" lon="7.41858">
        <ele>333</ele>
        <time>2011-08-14T08:32:46Z</time>
      </trkpt>
      <trkpt lat="48.45681" lon="7.41874">
        <ele>332</ele>
        <time>2011-08-14T08:32:49Z</time>
      </trkpt>
      <trkpt lat="48.45677" lon="7.41892">
        <ele>331</ele>
        <time>2011-08-14T08:32:55Z</time>
      </trkpt>
      <trkpt lat="48.4567" lon="7.41891">
        <ele>331</ele>
        <time>2011-08-14T08:33:03Z</time>
      </trkpt>
      <trkpt lat="48.45665" lon="7.41889">
        <ele>336</ele>
        <time>2011-08-14T08:33:10Z</time>
      </trkpt>
      <trkpt lat="48.45662" lon="7.41883">
        <ele>337</ele>
        <time>2011-08-14T08:33:52Z</time>
      </trkpt>
      <trkpt lat="48.45659" lon="7.41884">
        <ele>337</ele>
        <time>2011-08-14T08:34:03Z</time>
      </trkpt>
      <trkpt lat="48.45659" lon="7.41885">
        <ele>337</ele>
        <time>2011-08-14T08:34:12Z</time>
      </trkpt>
      <trkpt lat="48.45662" lon="7.41888">
        <ele>336</ele>
        <time>2011-08-14T08:34:18Z</time>
      </trkpt>
      <trkpt lat="48.45661" lon="7.41888">
        <ele>336</ele>
        <time>2011-08-14T08:34:23Z</time>
      </trkpt>
      <trkpt lat="48.45654" lon="7.41888">
        <ele>336</ele>
        <time>2011-08-14T08:34:30Z</time>
      </trkpt>
      <trkpt lat="48.45647" lon="7.41889">
        <ele>337</ele>
        <time>2011-08-14T08:34:36Z</time>
      </trkpt>
      <trkpt lat="48.4564" lon="7.41883">
        <ele>338</ele>
        <time>2011-08-14T08:34:43Z</time>
      </trkpt>
      <trkpt lat="48.45634" lon="7.41877">
        <ele>339</ele>
        <time>2011-08-14T08:34:48Z</time>
      </trkpt>
      <trkpt lat="48.45629" lon="7.41872">
        <ele>340</ele>
        <time>2011-08-14T08:34:53Z</time>
      </trkpt>
      <trkpt lat="48.45622" lon="7.41865">
        <ele>341</ele>
        <time>2011-08-14T08:35:04Z</time>
      </trkpt>
      <trkpt lat="48.4563" lon="7.41869">
        <ele>340</ele>
        <time>2011-08-14T08:35:21Z</time>
      </trkpt>
      <trkpt lat="48.45621" lon="7.41869">
        <ele>341</ele>
        <time>2011-08-14T08:36:01Z</time>
      </trkpt>
      <trkpt lat="48.45614" lon="7.41863">
        <ele>342</ele>
        <time>2011-08-14T08:36:16Z</time>
      </trkpt>
      <trkpt lat="48.45615" lon="7.41863">
        <ele>342</ele>
        <time>2011-08-14T08:36:17Z</time>
      </trkpt>
      <trkpt lat="48.45614" lon="7.41855">
        <ele>342</ele>
        <time>2011-08-14T08:36:24Z</time>
      </trkpt>
      <trkpt lat="48.45612" lon="7.4185">
        <ele>343</ele>
        <time>2011-08-14T08:36:28Z</time>
      </trkpt>
      <trkpt lat="48.45609" lon="7.41842">
        <ele>344</ele>
        <time>2011-08-14T08:36:33Z</time>
      </trkpt>
      <trkpt lat="48.45606" lon="7.41828">
        <ele>347</ele>
        <time>2011-08-14T08:36:41Z</time>
      </trkpt>
      <trkpt lat="48.45602" lon="7.41814">
        <ele>347</ele>
        <time>2011-08-14T08:36:48Z</time>
      </trkpt>
      <trkpt lat="48.45599" lon="7.418">
        <ele>347</ele>
        <time>2011-08-14T08:36:55Z</time>
      </trkpt>
      <trkpt lat="48.45593" lon="7.41786">
        <ele>348</ele>
        <time>2011-08-14T08:37:01Z</time>
      </trkpt>
      <trkpt lat="48.45585" lon="7.41776">
        <ele>348</ele>
        <time>2011-08-14T08:37:07Z</time>
      </trkpt>
      <trkpt lat="48.45578" lon="7.41766">
        <ele>355</ele>
        <time>2011-08-14T08:37:13Z</time>
      </trkpt>
      <trkpt lat="48.45573" lon="7.41757">
        <ele>355</ele>
        <time>2011-08-14T08:37:18Z</time>
      </trkpt>
      <trkpt lat="48.45566" lon="7.41747">
        <ele>355</ele>
        <time>2011-08-14T08:37:24Z</time>
      </trkpt>
      <trkpt lat="48.45559" lon="7.41736">
        <ele>356</ele>
        <time>2011-08-14T08:37:31Z</time>
      </trkpt>
      <trkpt lat="48.45554" lon="7.41726">
        <ele>357</ele>
        <time>2011-08-14T08:37:37Z</time>
      </trkpt>
      <trkpt lat="48.45551" lon="7.41718">
        <ele>357</ele>
        <time>2011-08-14T08:37:43Z</time>
      </trkpt>
      <trkpt lat="48.45544" lon="7.4171">
        <ele>358</ele>
        <time>2011-08-14T08:37:49Z</time>
      </trkpt>
      <trkpt lat="48.4554" lon="7.41699">
        <ele>358</ele>
        <time>2011-08-14T08:37:55Z</time>
      </trkpt>
      <trkpt lat="48.45541" lon="7.41693">
        <ele>358</ele>
        <time>2011-08-14T08:38:02Z</time>
      </trkpt>
      <trkpt lat="48.45547" lon="7.41696">
        <ele>357</ele>
        <time>2011-08-14T08:38:12Z</time>
      </trkpt>
      <trkpt lat="48.45548" lon="7.41702">
        <ele>357</ele>
        <time>2011-08-14T08:38:22Z</time>
      </trkpt>
      <trkpt lat="48.45542" lon="7.41696">
        <ele>358</ele>
        <time>2011-08-14T08:38:32Z</time>
      </trkpt>
      <trkpt lat="48.45541" lon="7.41694">
        <ele>358</ele>
        <time>2011-08-14T08:38:41Z</time>
      </trkpt>
      <trkpt lat="48.45534" lon="7.41691">
        <ele>358</ele>
        <time>2011-08-14T08:38:45Z</time>
      </trkpt>
      <trkpt lat="48.45521" lon="7.41691">
        <ele>359</ele>
        <time>2011-08-14T08:38:51Z</time>
      </trkpt>
      <trkpt lat="48.45508" lon="7.41687">
        <ele>360</ele>
        <time>2011-08-14T08:38:57Z</time>
      </trkpt>
      <trkpt lat="48.45505" lon="7.41685">
        <ele>360</ele>
        <time>2011-08-14T08:38:59Z</time>
      </trkpt>
      <trkpt lat="48.45491" lon="7.41682">
        <ele>365</ele>
        <time>2011-08-14T08:39:05Z</time>
      </trkpt>
      <trkpt lat="48.45484" lon="7.41681">
        <ele>365</ele>
        <time>2011-08-14T08:39:07Z</time>
      </trkpt>
      <trkpt lat="48.45467" lon="7.4168">
        <ele>367</ele>
        <time>2011-08-14T08:39:16Z</time>
      </trkpt>
      <trkpt lat="48.45461" lon="7.41678">
        <ele>367</ele>
        <time>2011-08-14T08:39:20Z</time>
      </trkpt>
      <trkpt lat="48.45453" lon="7.41674">
        <ele>368</ele>
        <time>2011-08-14T08:39:24Z</time>
      </trkpt>
      <trkpt lat="48.45443" lon="7.41665">
        <ele>371</ele>
        <time>2011-08-14T08:39:30Z</time>
      </trkpt>
      <trkpt lat="48.4544" lon="7.41663">
        <ele>371</ele>
        <time>2011-08-14T08:39:31Z</time>
      </trkpt>
      <trkpt lat="48.4543" lon="7.41658">
        <ele>372</ele>
        <time>2011-08-14T08:39:38Z</time>
      </trkpt>
      <trkpt lat="48.45425" lon="7.41659">
        <ele>372</ele>
        <time>2011-08-14T08:39:44Z</time>
      </trkpt>
      <trkpt lat="48.45415" lon="7.41661">
        <ele>376</ele>
        <time>2011-08-14T08:39:51Z</time>
      </trkpt>
      <trkpt lat="48.45406" lon="7.4166">
        <ele>378</ele>
        <time>2011-08-14T08:39:57Z</time>
      </trkpt>
      <trkpt lat="48.45394" lon="7.4166">
        <ele>380</ele>
        <time>2011-08-14T08:40:04Z</time>
      </trkpt>
      <trkpt lat="48.45388" lon="7.41661">
        <ele>382</ele>
        <time>2011-08-14T08:40:10Z</time>
      </trkpt>
      <trkpt lat="48.45377" lon="7.41658">
        <ele>383</ele>
        <time>2011-08-14T08:40:18Z</time>
      </trkpt>
      <trkpt lat="48.45367" lon="7.41659">
        <ele>384</ele>
        <time>2011-08-14T08:40:26Z</time>
      </trkpt>
      <trkpt lat="48.45361" lon="7.41659">
        <ele>385</ele>
        <time>2011-08-14T08:40:31Z</time>
      </trkpt>
      <trkpt lat="48.45349" lon="7.41656">
        <ele>386</ele>
        <time>2011-08-14T08:40:38Z</time>
      </trkpt>
      <trkpt lat="48.45338" lon="7.41654">
        <ele>386</ele>
        <time>2011-08-14T08:40:46Z</time>
      </trkpt>
      <trkpt lat="48.45334" lon="7.41656">
        <ele>387</ele>
        <time>2011-08-14T08:40:52Z</time>
      </trkpt>
      <trkpt lat="48.45326" lon="7.41659">
        <ele>392</ele>
        <time>2011-08-14T08:40:59Z</time>
      </trkpt>
      <trkpt lat="48.4532" lon="7.41662">
        <ele>393</ele>
        <time>2011-08-14T08:41:03Z</time>
      </trkpt>
      <trkpt lat="48.45312" lon="7.41668">
        <ele>390</ele>
        <time>2011-08-14T08:41:11Z</time>
      </trkpt>
      <trkpt lat="48.45301" lon="7.41673">
        <ele>392</ele>
        <time>2011-08-14T08:41:18Z</time>
      </trkpt>
      <trkpt lat="48.45288" lon="7.41676">
        <ele>393</ele>
        <time>2011-08-14T08:41:25Z</time>
      </trkpt>
      <trkpt lat="48.45278" lon="7.41678">
        <ele>395</ele>
        <time>2011-08-14T08:41:31Z</time>
      </trkpt>
      <trkpt lat="48.45267" lon="7.41681">
        <ele>396</ele>
        <time>2011-08-14T08:41:38Z</time>
      </trkpt>
      <trkpt lat="48.45258" lon="7.41682">
        <ele>397</ele>
        <time>2011-08-14T08:41:43Z</time>
      </trkpt>
      <trkpt lat="48.45247" lon="7.41679">
        <ele>401</ele>
        <time>2011-08-14T08:41:49Z</time>
      </trkpt>
      <trkpt lat="48.45239" lon="7.41677">
        <ele>401</ele>
        <time>2011-08-14T08:41:55Z</time>
      </trkpt>
      <trkpt lat="48.45231" lon="7.41675">
        <ele>401</ele>
        <time>2011-08-14T08:42:01Z</time>
      </trkpt>
      <trkpt lat="48.45226" lon="7.41671">
        <ele>401</ele>
        <time>2011-08-14T08:42:06Z</time>
      </trkpt>
      <trkpt lat="48.45221" lon="7.41667">
        <ele>401</ele>
        <time>2011-08-14T08:42:10Z</time>
      </trkpt>
      <trkpt lat="48.45219" lon="7.41666">
        <ele>411</ele>
        <time>2011-08-14T08:42:13Z</time>
      </trkpt>
      <trkpt lat="48.45214" lon="7.41667">
        <ele>401</ele>
        <time>2011-08-14T08:42:19Z</time>
      </trkpt>
      <trkpt lat="48.45208" lon="7.41665">
        <ele>412</ele>
        <time>2011-08-14T08:42:25Z</time>
      </trkpt>
      <trkpt lat="48.45195" lon="7.41659">
        <ele>412</ele>
        <time>2011-08-14T08:42:33Z</time>
      </trkpt>
      <trkpt lat="48.45188" lon="7.41657">
        <ele>412</ele>
        <time>2011-08-14T08:42:38Z</time>
      </trkpt>
      <trkpt lat="48.45185" lon="7.41657">
        <ele>412</ele>
        <time>2011-08-14T08:42:40Z</time>
      </trkpt>
      <trkpt lat="48.45179" lon="7.41653">
        <ele>412</ele>
        <time>2011-08-14T08:42:45Z</time>
      </trkpt>
      <trkpt lat="48.45173" lon="7.41651">
        <ele>412</ele>
        <time>2011-08-14T08:42:51Z</time>
      </trkpt>
      <trkpt lat="48.45167" lon="7.41647">
        <ele>412</ele>
        <time>2011-08-14T08:42:57Z</time>
      </trkpt>
      <trkpt lat="48.45159" lon="7.41643">
        <ele>420</ele>
        <time>2011-08-14T08:43:04Z</time>
      </trkpt>
      <trkpt lat="48.45151" lon="7.41641">
        <ele>422</ele>
        <time>2011-08-14T08:43:09Z</time>
      </trkpt>
      <trkpt lat="48.45145" lon="7.41638">
        <ele>423</ele>
        <time>2011-08-14T08:43:14Z</time>
      </trkpt>
      <trkpt lat="48.45141" lon="7.41635">
        <ele>425</ele>
        <time>2011-08-14T08:43:18Z</time>
      </trkpt>
      <trkpt lat="48.45129" lon="7.41632">
        <ele>426</ele>
        <time>2011-08-14T08:43:26Z</time>
      </trkpt>
      <trkpt lat="48.4512" lon="7.41632">
        <ele>427</ele>
        <time>2011-08-14T08:43:32Z</time>
      </trkpt>
      <trkpt lat="48.45116" lon="7.41633">
        <ele>428</ele>
        <time>2011-08-14T08:43:36Z</time>
      </trkpt>
      <trkpt lat="48.4511" lon="7.41633">
        <ele>428</ele>
        <time>2011-08-14T08:43:40Z</time>
      </trkpt>
      <trkpt lat="48.45101" lon="7.41632">
        <ele>429</ele>
        <time>2011-08-14T08:43:46Z</time>
      </trkpt>
      <trkpt lat="48.45093" lon="7.41632">
        <ele>429</ele>
        <time>2011-08-14T08:43:52Z</time>
      </trkpt>
      <trkpt lat="48.45083" lon="7.41636">
        <ele>439</ele>
        <time>2011-08-14T08:44:00Z</time>
      </trkpt>
      <trkpt lat="48.45077" lon="7.41638">
        <ele>438</ele>
        <time>2011-08-14T08:44:05Z</time>
      </trkpt>
      <trkpt lat="48.45072" lon="7.4164">
        <ele>438</ele>
        <time>2011-08-14T08:44:10Z</time>
      </trkpt>
      <trkpt lat="48.45064" lon="7.41649">
        <ele>438</ele>
        <time>2011-08-14T08:44:16Z</time>
      </trkpt>
      <trkpt lat="48.45063" lon="7.4165">
        <ele>438</ele>
        <time>2011-08-14T08:44:17Z</time>
      </trkpt>
      <trkpt lat="48.45051" lon="7.41659">
        <ele>439</ele>
        <time>2011-08-14T08:44:24Z</time>
      </trkpt>
      <trkpt lat="48.45045" lon="7.41667">
        <ele>431</ele>
        <time>2011-08-14T08:44:29Z</time>
      </trkpt>
      <trkpt lat="48.45036" lon="7.41674">
        <ele>432</ele>
        <time>2011-08-14T08:44:35Z</time>
      </trkpt>
      <trkpt lat="48.45027" lon="7.41678">
        <ele>434</ele>
        <time>2011-08-14T08:44:39Z</time>
      </trkpt>
      <trkpt lat="48.45019" lon="7.41682">
        <ele>435</ele>
        <time>2011-08-14T08:44:45Z</time>
      </trkpt>
      <trkpt lat="48.45017" lon="7.41687">
        <ele>435</ele>
        <time>2011-08-14T08:44:56Z</time>
      </trkpt>
      <trkpt lat="48.45014" lon="7.4169">
        <ele>435</ele>
        <time>2011-08-14T08:45:30Z</time>
      </trkpt>
      <trkpt lat="48.45014" lon="7.41692">
        <ele>435</ele>
        <time>2011-08-14T08:45:46Z</time>
      </trkpt>
      <trkpt lat="48.45013" lon="7.41693">
        <ele>435</ele>
        <time>2011-08-14T08:45:49Z</time>
      </trkpt>
      <trkpt lat="48.45002" lon="7.41698">
        <ele>435</ele>
        <time>2011-08-14T08:45:57Z</time>
      </trkpt>
      <trkpt lat="48.44991" lon="7.41695">
        <ele>440</ele>
        <time>2011-08-14T08:46:06Z</time>
      </trkpt>
      <trkpt lat="48.44987" lon="7.41693">
        <ele>440</ele>
        <time>2011-08-14T08:46:09Z</time>
      </trkpt>
      <trkpt lat="48.44978" lon="7.41688">
        <ele>440</ele>
        <time>2011-08-14T08:46:16Z</time>
      </trkpt>
      <trkpt lat="48.44973" lon="7.41685">
        <ele>440</ele>
        <time>2011-08-14T08:46:19Z</time>
      </trkpt>
      <trkpt lat="48.44965" lon="7.41679">
        <ele>440</ele>
        <time>2011-08-14T08:46:25Z</time>
      </trkpt>
      <trkpt lat="48.44959" lon="7.41675">
        <ele>441</ele>
        <time>2011-08-14T08:46:29Z</time>
      </trkpt>
      <trkpt lat="48.4495" lon="7.4167">
        <ele>441</ele>
        <time>2011-08-14T08:46:36Z</time>
      </trkpt>
      <trkpt lat="48.4494" lon="7.41662">
        <ele>451</ele>
        <time>2011-08-14T08:46:43Z</time>
      </trkpt>
      <trkpt lat="48.4493" lon="7.41653">
        <ele>451</ele>
        <time>2011-08-14T08:46:50Z</time>
      </trkpt>
      <trkpt lat="48.44922" lon="7.41645">
        <ele>452</ele>
        <time>2011-08-14T08:46:57Z</time>
      </trkpt>
      <trkpt lat="48.44916" lon="7.41637">
        <ele>449</ele>
        <time>2011-08-14T08:47:03Z</time>
      </trkpt>
      <trkpt lat="48.44912" lon="7.4163">
        <ele>450</ele>
        <time>2011-08-14T08:47:08Z</time>
      </trkpt>
      <trkpt lat="48.44907" lon="7.41625">
        <ele>451</ele>
        <time>2011-08-14T08:47:13Z</time>
      </trkpt>
      <trkpt lat="48.44896" lon="7.41616">
        <ele>451</ele>
        <time>2011-08-14T08:47:21Z</time>
      </trkpt>
      <trkpt lat="48.4489" lon="7.41608">
        <ele>452</ele>
        <time>2011-08-14T08:47:28Z</time>
      </trkpt>
      <trkpt lat="48.44882" lon="7.41597">
        <ele>452</ele>
        <time>2011-08-14T08:47:36Z</time>
      </trkpt>
      <trkpt lat="48.4488" lon="7.41593">
        <ele>452</ele>
        <time>2011-08-14T08:47:39Z</time>
      </trkpt>
      <trkpt lat="48.44876" lon="7.41582">
        <ele>463</ele>
        <time>2011-08-14T08:47:44Z</time>
      </trkpt>
      <trkpt lat="48.44868" lon="7.41569">
        <ele>463</ele>
        <time>2011-08-14T08:47:50Z</time>
      </trkpt>
      <trkpt lat="48.44868" lon="7.41567">
        <ele>463</ele>
        <time>2011-08-14T08:47:51Z</time>
      </trkpt>
      <trkpt lat="48.4486" lon="7.41547">
        <ele>464</ele>
        <time>2011-08-14T08:47:58Z</time>
      </trkpt>
      <trkpt lat="48.44853" lon="7.41529">
        <ele>465</ele>
        <time>2011-08-14T08:48:05Z</time>
      </trkpt>
      <trkpt lat="48.44851" lon="7.41517">
        <ele>466</ele>
        <time>2011-08-14T08:48:11Z</time>
      </trkpt>
      <trkpt lat="48.44848" lon="7.41506">
        <ele>466</ele>
        <time>2011-08-14T08:48:17Z</time>
      </trkpt>
      <trkpt lat="48.44846" lon="7.41497">
        <ele>472</ele>
        <time>2011-08-14T08:48:24Z</time>
      </trkpt>
      <trkpt lat="48.44843" lon="7.41493">
        <ele>472</ele>
        <time>2011-08-14T08:48:34Z</time>
      </trkpt>
      <trkpt lat="48.4484" lon="7.41483">
        <ele>474</ele>
        <time>2011-08-14T08:48:57Z</time>
      </trkpt>
      <trkpt lat="48.44838" lon="7.4147">
        <ele>477</ele>
        <time>2011-08-14T08:49:03Z</time>
      </trkpt>
      <trkpt lat="48.44836" lon="7.41459">
        <ele>478</ele>
        <time>2011-08-14T08:49:08Z</time>
      </trkpt>
      <trkpt lat="48.44831" lon="7.41446">
        <ele>465</ele>
        <time>2011-08-14T08:49:15Z</time>
      </trkpt>
      <trkpt lat="48.44829" lon="7.41437">
        <ele>467</ele>
        <time>2011-08-14T08:49:21Z</time>
      </trkpt>
      <trkpt lat="48.44825" lon="7.41427">
        <ele>470</ele>
        <time>2011-08-14T08:49:27Z</time>
      </trkpt>
      <trkpt lat="48.44823" lon="7.41419">
        <ele>471</ele>
        <time>2011-08-14T08:49:32Z</time>
      </trkpt>
      <trkpt lat="48.44819" lon="7.41409">
        <ele>476</ele>
        <time>2011-08-14T08:49:39Z</time>
      </trkpt>
      <trkpt lat="48.44814" lon="7.41401">
        <ele>475</ele>
        <time>2011-08-14T08:49:45Z</time>
      </trkpt>
      <trkpt lat="48.44813" lon="7.41397">
        <ele>475</ele>
        <time>2011-08-14T08:49:47Z</time>
      </trkpt>
      <trkpt lat="48.44806" lon="7.4138">
        <ele>475</ele>
        <time>2011-08-14T08:49:56Z</time>
      </trkpt>
      <trkpt lat="48.44804" lon="7.41367">
        <ele>476</ele>
        <time>2011-08-14T08:50:03Z</time>
      </trkpt>
      <trkpt lat="48.448" lon="7.41352">
        <ele>477</ele>
        <time>2011-08-14T08:50:09Z</time>
      </trkpt>
      <trkpt lat="48.44799" lon="7.41344">
        <ele>477</ele>
        <time>2011-08-14T08:50:13Z</time>
      </trkpt>
      <trkpt lat="48.44795" lon="7.41321">
        <ele>483</ele>
        <time>2011-08-14T08:50:21Z</time>
      </trkpt>
      <trkpt lat="48.4479" lon="7.413">
        <ele>482</ele>
        <time>2011-08-14T08:50:29Z</time>
      </trkpt>
      <trkpt lat="48.4479" lon="7.41295">
        <ele>483</ele>
        <time>2011-08-14T08:50:32Z</time>
      </trkpt>
      <trkpt lat="48.44789" lon="7.41289">
        <ele>483</ele>
        <time>2011-08-14T08:50:35Z</time>
      </trkpt>
      <trkpt lat="48.44791" lon="7.41272">
        <ele>484</ele>
        <time>2011-08-14T08:50:44Z</time>
      </trkpt>
      <trkpt lat="48.44789" lon="7.41263">
        <ele>483</ele>
        <time>2011-08-14T08:50:49Z</time>
      </trkpt>
      <trkpt lat="48.44788" lon="7.41258">
        <ele>483</ele>
        <time>2011-08-14T08:50:51Z</time>
      </trkpt>
      <trkpt lat="48.44782" lon="7.41236">
        <ele>489</ele>
        <time>2011-08-14T08:51:00Z</time>
      </trkpt>
      <trkpt lat="48.44782" lon="7.41232">
        <ele>489</ele>
        <time>2011-08-14T08:51:02Z</time>
      </trkpt>
      <trkpt lat="48.44785" lon="7.41224">
        <ele>491</ele>
        <time>2011-08-14T08:51:06Z</time>
      </trkpt>
      <trkpt lat="48.44785" lon="7.41214">
        <ele>492</ele>
        <time>2011-08-14T08:51:12Z</time>
      </trkpt>
      <trkpt lat="48.44779" lon="7.41207">
        <ele>491</ele>
        <time>2011-08-14T08:51:19Z</time>
      </trkpt>
      <trkpt lat="48.44776" lon="7.41201">
        <ele>491</ele>
        <time>2011-08-14T08:51:32Z</time>
      </trkpt>
      <trkpt lat="48.44772" lon="7.41204">
        <ele>490</ele>
        <time>2011-08-14T08:51:55Z</time>
      </trkpt>
      <trkpt lat="48.44772" lon="7.41201">
        <ele>490</ele>
        <time>2011-08-14T08:52:02Z</time>
      </trkpt>
      <trkpt lat="48.44771" lon="7.41192">
        <ele>491</ele>
        <time>2011-08-14T08:52:08Z</time>
      </trkpt>
      <trkpt lat="48.44768" lon="7.41178">
        <ele>489</ele>
        <time>2011-08-14T08:52:16Z</time>
      </trkpt>
      <trkpt lat="48.44768" lon="7.4117">
        <ele>489</ele>
        <time>2011-08-14T08:52:22Z</time>
      </trkpt>
      <trkpt lat="48.44766" lon="7.41159">
        <ele>496</ele>
        <time>2011-08-14T08:52:27Z</time>
      </trkpt>
      <trkpt lat="48.44762" lon="7.41141">
        <ele>501</ele>
        <time>2011-08-14T08:52:34Z</time>
      </trkpt>
      <trkpt lat="48.44761" lon="7.41136">
        <ele>502</ele>
        <time>2011-08-14T08:52:36Z</time>
      </trkpt>
      <trkpt lat="48.4476" lon="7.41121">
        <ele>505</ele>
        <time>2011-08-14T08:52:43Z</time>
      </trkpt>
      <trkpt lat="48.4476" lon="7.41115">
        <ele>505</ele>
        <time>2011-08-14T08:52:46Z</time>
      </trkpt>
      <trkpt lat="48.44757" lon="7.41106">
        <ele>505</ele>
        <time>2011-08-14T08:52:50Z</time>
      </trkpt>
      <trkpt lat="48.44755" lon="7.41094">
        <ele>504</ele>
        <time>2011-08-14T08:52:55Z</time>
      </trkpt>
      <trkpt lat="48.44755" lon="7.41088">
        <ele>503</ele>
        <time>2011-08-14T08:52:59Z</time>
      </trkpt>
      <trkpt lat="48.44753" lon="7.41076">
        <ele>508</ele>
        <time>2011-08-14T08:53:04Z</time>
      </trkpt>
      <trkpt lat="48.4475" lon="7.41064">
        <ele>498</ele>
        <time>2011-08-14T08:53:10Z</time>
      </trkpt>
      <trkpt lat="48.44748" lon="7.41054">
        <ele>498</ele>
        <time>2011-08-14T08:53:16Z</time>
      </trkpt>
      <trkpt lat="48.44745" lon="7.41048">
        <ele>498</ele>
        <time>2011-08-14T08:53:21Z</time>
      </trkpt>
      <trkpt lat="48.44743" lon="7.41037">
        <ele>499</ele>
        <time>2011-08-14T08:53:26Z</time>
      </trkpt>
      <trkpt lat="48.44738" lon="7.41024">
        <ele>501</ele>
        <time>2011-08-14T08:53:33Z</time>
      </trkpt>
      <trkpt lat="48.44734" lon="7.41011">
        <ele>503</ele>
        <time>2011-08-14T08:53:38Z</time>
      </trkpt>
      <trkpt lat="48.44732" lon="7.41">
        <ele>504</ele>
        <time>2011-08-14T08:53:44Z</time>
      </trkpt>
      <trkpt lat="48.44729" lon="7.40988">
        <ele>511</ele>
        <time>2011-08-14T08:53:51Z</time>
      </trkpt>
      <trkpt lat="48.44727" lon="7.40976">
        <ele>511</ele>
        <time>2011-08-14T08:53:58Z</time>
      </trkpt>
      <trkpt lat="48.44724" lon="7.40966">
        <ele>511</ele>
        <time>2011-08-14T08:54:03Z</time>
      </trkpt>
      <trkpt lat="48.44719" lon="7.40949">
        <ele>512</ele>
        <time>2011-08-14T08:54:10Z</time>
      </trkpt>
      <trkpt lat="48.44718" lon="7.40942">
        <ele>513</ele>
        <time>2011-08-14T08:54:14Z</time>
      </trkpt>
      <trkpt lat="48.44715" lon="7.40929">
        <ele>513</ele>
        <time>2011-08-14T08:54:22Z</time>
      </trkpt>
      <trkpt lat="48.44712" lon="7.40922">
        <ele>513</ele>
        <time>2011-08-14T08:54:27Z</time>
      </trkpt>
      <trkpt lat="48.44707" lon="7.4091">
        <ele>524</ele>
        <time>2011-08-14T08:54:34Z</time>
      </trkpt>
      <trkpt lat="48.44704" lon="7.40902">
        <ele>524</ele>
        <time>2011-08-14T08:54:38Z</time>
      </trkpt>
      <trkpt lat="48.44702" lon="7.40896">
        <ele>524</ele>
        <time>2011-08-14T08:54:42Z</time>
      </trkpt>
      <trkpt lat="48.44697" lon="7.40888">
        <ele>524</ele>
        <time>2011-08-14T08:54:47Z</time>
      </trkpt>
      <trkpt lat="48.4469" lon="7.40876">
        <ele>524</ele>
        <time>2011-08-14T08:54:54Z</time>
      </trkpt>
      <trkpt lat="48.44689" lon="7.40868">
        <ele>525</ele>
        <time>2011-08-14T08:54:57Z</time>
      </trkpt>
      <trkpt lat="48.44686" lon="7.40862">
        <ele>525</ele>
        <time>2011-08-14T08:55:01Z</time>
      </trkpt>
      <trkpt lat="48.4468" lon="7.40846">
        <ele>525</ele>
        <time>2011-08-14T08:55:07Z</time>
      </trkpt>
      <trkpt lat="48.44675" lon="7.40833">
        <ele>531</ele>
        <time>2011-08-14T08:55:14Z</time>
      </trkpt>
      <trkpt lat="48.44673" lon="7.4083">
        <ele>529</ele>
        <time>2011-08-14T08:55:16Z</time>
      </trkpt>
      <trkpt lat="48.4467" lon="7.40816">
        <ele>537</ele>
        <time>2011-08-14T08:55:23Z</time>
      </trkpt>
      <trkpt lat="48.44665" lon="7.40801">
        <ele>520</ele>
        <time>2011-08-14T08:55:29Z</time>
      </trkpt>
      <trkpt lat="48.4466" lon="7.40786">
        <ele>522</ele>
        <time>2011-08-14T08:55:35Z</time>
      </trkpt>
      <trkpt lat="48.44657" lon="7.40776">
        <ele>525</ele>
        <time>2011-08-14T08:55:39Z</time>
      </trkpt>
      <trkpt lat="48.44655" lon="7.40773">
        <ele>525</ele>
        <time>2011-08-14T08:55:41Z</time>
      </trkpt>
      <trkpt lat="48.44651" lon="7.40762">
        <ele>529</ele>
        <time>2011-08-14T08:55:47Z</time>
      </trkpt>
      <trkpt lat="48.44648" lon="7.40755">
        <ele>528</ele>
        <time>2011-08-14T08:55:52Z</time>
      </trkpt>
      <trkpt lat="48.44642" lon="7.40743">
        <ele>538</ele>
        <time>2011-08-14T08:55:59Z</time>
      </trkpt>
      <trkpt lat="48.44639" lon="7.4074">
        <ele>537</ele>
        <time>2011-08-14T08:56:03Z</time>
      </trkpt>
      <trkpt lat="48.44635" lon="7.40732">
        <ele>536</ele>
        <time>2011-08-14T08:56:09Z</time>
      </trkpt>
      <trkpt lat="48.44632" lon="7.40724">
        <ele>535</ele>
        <time>2011-08-14T08:56:14Z</time>
      </trkpt>
      <trkpt lat="48.44631" lon="7.40718">
        <ele>536</ele>
        <time>2011-08-14T08:56:18Z</time>
      </trkpt>
      <trkpt lat="48.44626" lon="7.4071">
        <ele>535</ele>
        <time>2011-08-14T08:56:24Z</time>
      </trkpt>
      <trkpt lat="48.44621" lon="7.40697">
        <ele>536</ele>
        <time>2011-08-14T08:56:31Z</time>
      </trkpt>
      <trkpt lat="48.44617" lon="7.40688">
        <ele>535</ele>
        <time>2011-08-14T08:56:36Z</time>
      </trkpt>
      <trkpt lat="48.44617" lon="7.40684">
        <ele>535</ele>
        <time>2011-08-14T08:56:38Z</time>
      </trkpt>
      <trkpt lat="48.44613" lon="7.40671">
        <ele>535</ele>
        <time>2011-08-14T08:56:44Z</time>
      </trkpt>
      <trkpt lat="48.4461" lon="7.4066">
        <ele>547</ele>
        <time>2011-08-14T08:56:48Z</time>
      </trkpt>
      <trkpt lat="48.4461" lon="7.40653">
        <ele>548</ele>
        <time>2011-08-14T08:56:51Z</time>
      </trkpt>
      <trkpt lat="48.44608" lon="7.40645">
        <ele>549</ele>
        <time>2011-08-14T08:56:56Z</time>
      </trkpt>
      <trkpt lat="48.44603" lon="7.40632">
        <ele>551</ele>
        <time>2011-08-14T08:57:03Z</time>
      </trkpt>
      <trkpt lat="48.446" lon="7.40622">
        <ele>552</ele>
        <time>2011-08-14T08:57:09Z</time>
      </trkpt>
      <trkpt lat="48.44598" lon="7.40613">
        <ele>553</ele>
        <time>2011-08-14T08:57:15Z</time>
      </trkpt>
      <trkpt lat="48.44597" lon="7.40609">
        <ele>553</ele>
        <time>2011-08-14T08:57:17Z</time>
      </trkpt>
      <trkpt lat="48.44592" lon="7.40594">
        <ele>551</ele>
        <time>2011-08-14T08:57:23Z</time>
      </trkpt>
      <trkpt lat="48.44591" lon="7.40589">
        <ele>550</ele>
        <time>2011-08-14T08:57:25Z</time>
      </trkpt>
      <trkpt lat="48.44589" lon="7.40586">
        <ele>550</ele>
        <time>2011-08-14T08:57:27Z</time>
      </trkpt>
      <trkpt lat="48.44586" lon="7.40577">
        <ele>554</ele>
        <time>2011-08-14T08:57:31Z</time>
      </trkpt>
      <trkpt lat="48.44585" lon="7.40566">
        <ele>561</ele>
        <time>2011-08-14T08:57:37Z</time>
      </trkpt>
      <trkpt lat="48.44581" lon="7.40556">
        <ele>539</ele>
        <time>2011-08-14T08:57:44Z</time>
      </trkpt>
      <trkpt lat="48.4458" lon="7.40547">
        <ele>539</ele>
        <time>2011-08-14T08:57:49Z</time>
      </trkpt>
      <trkpt lat="48.44577" lon="7.40535">
        <ele>540</ele>
        <time>2011-08-14T08:57:56Z</time>
      </trkpt>
      <trkpt lat="48.44574" lon="7.40526">
        <ele>542</ele>
        <time>2011-08-14T08:58:00Z</time>
      </trkpt>
      <trkpt lat="48.44572" lon="7.4052">
        <ele>544</ele>
        <time>2011-08-14T08:58:03Z</time>
      </trkpt>
      <trkpt lat="48.4457" lon="7.40509">
        <ele>546</ele>
        <time>2011-08-14T08:58:10Z</time>
      </trkpt>
      <trkpt lat="48.44566" lon="7.40496">
        <ele>555</ele>
        <time>2011-08-14T08:58:16Z</time>
      </trkpt>
      <trkpt lat="48.44566" lon="7.40494">
        <ele>555</ele>
        <time>2011-08-14T08:58:17Z</time>
      </trkpt>
      <trkpt lat="48.44563" lon="7.40484">
        <ele>554</ele>
        <time>2011-08-14T08:58:24Z</time>
      </trkpt>
      <trkpt lat="48.44559" lon="7.40472">
        <ele>554</ele>
        <time>2011-08-14T08:58:31Z</time>
      </trkpt>
      <trkpt lat="48.44554" lon="7.40454">
        <ele>555</ele>
        <time>2011-08-14T08:58:40Z</time>
      </trkpt>
      <trkpt lat="48.44553" lon="7.40447">
        <ele>556</ele>
        <time>2011-08-14T08:58:43Z</time>
      </trkpt>
      <trkpt lat="48.44546" lon="7.40431">
        <ele>556</ele>
        <time>2011-08-14T08:58:52Z</time>
      </trkpt>
      <trkpt lat="48.44541" lon="7.40418">
        <ele>556</ele>
        <time>2011-08-14T08:58:58Z</time>
      </trkpt>
      <trkpt lat="48.44538" lon="7.40411">
        <ele>570</ele>
        <time>2011-08-14T08:59:03Z</time>
      </trkpt>
      <trkpt lat="48.44535" lon="7.40403">
        <ele>569</ele>
        <time>2011-08-14T08:59:09Z</time>
      </trkpt>
      <trkpt lat="48.44534" lon="7.40401">
        <ele>569</ele>
        <time>2011-08-14T08:59:14Z</time>
      </trkpt>
      <trkpt lat="48.44528" lon="7.404">
        <ele>567</ele>
        <time>2011-08-14T09:00:14Z</time>
      </trkpt>
      <trkpt lat="48.44528" lon="7.40407">
        <ele>566</ele>
        <time>2011-08-14T09:00:33Z</time>
      </trkpt>
      <trkpt lat="48.44528" lon="7.40411">
        <ele>565</ele>
        <time>2011-08-14T09:00:57Z</time>
      </trkpt>
      <trkpt lat="48.44531" lon="7.40412">
        <ele>567</ele>
        <time>2011-08-14T09:01:19Z</time>
      </trkpt>
      <trkpt lat="48.44533" lon="7.40411">
        <ele>567</ele>
        <time>2011-08-14T09:01:41Z</time>
      </trkpt>
      <trkpt lat="48.44534" lon="7.40411">
        <ele>568</ele>
        <time>2011-08-14T09:01:56Z</time>
      </trkpt>
      <trkpt lat="48.44527" lon="7.40396">
        <ele>567</ele>
        <time>2011-08-14T09:02:23Z</time>
      </trkpt>
      <trkpt lat="48.44526" lon="7.40394">
        <ele>567</ele>
        <time>2011-08-14T09:02:25Z</time>
      </trkpt>
      <trkpt lat="48.44521" lon="7.40378">
        <ele>569</ele>
        <time>2011-08-14T09:02:32Z</time>
      </trkpt>
      <trkpt lat="48.44517" lon="7.40366">
        <ele>570</ele>
        <time>2011-08-14T09:02:39Z</time>
      </trkpt>
      <trkpt lat="48.44514" lon="7.40354">
        <ele>570</ele>
        <time>2011-08-14T09:02:45Z</time>
      </trkpt>
      <trkpt lat="48.44511" lon="7.40345">
        <ele>568</ele>
        <time>2011-08-14T09:02:50Z</time>
      </trkpt>
      <trkpt lat="48.44508" lon="7.40337">
        <ele>565</ele>
        <time>2011-08-14T09:02:57Z</time>
      </trkpt>
      <trkpt lat="48.44504" lon="7.40326">
        <ele>572</ele>
        <time>2011-08-14T09:03:04Z</time>
      </trkpt>
      <trkpt lat="48.44502" lon="7.40317">
        <ele>579</ele>
        <time>2011-08-14T09:03:10Z</time>
      </trkpt>
      <trkpt lat="48.44501" lon="7.40311">
        <ele>583</ele>
        <time>2011-08-14T09:03:14Z</time>
      </trkpt>
      <trkpt lat="48.44499" lon="7.403">
        <ele>558</ele>
        <time>2011-08-14T09:03:22Z</time>
      </trkpt>
      <trkpt lat="48.44495" lon="7.40288">
        <ele>561</ele>
        <time>2011-08-14T09:03:28Z</time>
      </trkpt>
      <trkpt lat="48.44492" lon="7.40274">
        <ele>565</ele>
        <time>2011-08-14T09:03:33Z</time>
      </trkpt>
      <trkpt lat="48.44487" lon="7.40262">
        <ele>569</ele>
        <time>2011-08-14T09:03:39Z</time>
      </trkpt>
      <trkpt lat="48.44481" lon="7.40243">
        <ele>580</ele>
        <time>2011-08-14T09:03:49Z</time>
      </trkpt>
      <trkpt lat="48.44481" lon="7.40242">
        <ele>579</ele>
        <time>2011-08-14T09:03:50Z</time>
      </trkpt>
      <trkpt lat="48.44477" lon="7.40231">
        <ele>578</ele>
        <time>2011-08-14T09:03:58Z</time>
      </trkpt>
      <trkpt lat="48.44472" lon="7.40221">
        <ele>577</ele>
        <time>2011-08-14T09:04:05Z</time>
      </trkpt>
      <trkpt lat="48.44467" lon="7.40214">
        <ele>576</ele>
        <time>2011-08-14T09:04:12Z</time>
      </trkpt>
      <trkpt lat="48.44463" lon="7.40209">
        <ele>576</ele>
        <time>2011-08-14T09:04:18Z</time>
      </trkpt>
      <trkpt lat="48.4446" lon="7.40203">
        <ele>576</ele>
        <time>2011-08-14T09:04:23Z</time>
      </trkpt>
      <trkpt lat="48.44458" lon="7.40198">
        <ele>576</ele>
        <time>2011-08-14T09:04:27Z</time>
      </trkpt>
      <trkpt lat="48.44457" lon="7.40191">
        <ele>576</ele>
        <time>2011-08-14T09:04:32Z</time>
      </trkpt>
      <trkpt lat="48.44453" lon="7.40177">
        <ele>576</ele>
        <time>2011-08-14T09:04:38Z</time>
      </trkpt>
      <trkpt lat="48.44452" lon="7.40169">
        <ele>576</ele>
        <time>2011-08-14T09:04:41Z</time>
      </trkpt>
      <trkpt lat="48.44449" lon="7.40153">
        <ele>591</ele>
        <time>2011-08-14T09:04:48Z</time>
      </trkpt>
      <trkpt lat="48.44445" lon="7.40141">
        <ele>591</ele>
        <time>2011-08-14T09:04:54Z</time>
      </trkpt>
      <trkpt lat="48.4444" lon="7.40127">
        <ele>592</ele>
        <time>2011-08-14T09:05:01Z</time>
      </trkpt>
      <trkpt lat="48.4444" lon="7.40125">
        <ele>593</ele>
        <time>2011-08-14T09:05:02Z</time>
      </trkpt>
      <trkpt lat="48.44436" lon="7.40109">
        <ele>593</ele>
        <time>2011-08-14T09:05:09Z</time>
      </trkpt>
      <trkpt lat="48.44432" lon="7.40096">
        <ele>592</ele>
        <time>2011-08-14T09:05:16Z</time>
      </trkpt>
      <trkpt lat="48.44432" lon="7.40094">
        <ele>592</ele>
        <time>2011-08-14T09:05:17Z</time>
      </trkpt>
      <trkpt lat="48.44428" lon="7.40092">
        <ele>590</ele>
        <time>2011-08-14T09:05:20Z</time>
      </trkpt>
      <trkpt lat="48.44425" lon="7.40085">
        <ele>588</ele>
        <time>2011-08-14T09:05:24Z</time>
      </trkpt>
      <trkpt lat="48.44418" lon="7.4007">
        <ele>600</ele>
        <time>2011-08-14T09:05:34Z</time>
      </trkpt>
      <trkpt lat="48.44414" lon="7.40061">
        <ele>587</ele>
        <time>2011-08-14T09:05:40Z</time>
      </trkpt>
      <trkpt lat="48.44407" lon="7.40047">
        <ele>589</ele>
        <time>2011-08-14T09:05:49Z</time>
      </trkpt>
      <trkpt lat="48.44404" lon="7.4004">
        <ele>591</ele>
        <time>2011-08-14T09:05:54Z</time>
      </trkpt>
      <trkpt lat="48.44399" lon="7.40033">
        <ele>592</ele>
        <time>2011-08-14T09:05:59Z</time>
      </trkpt>
      <trkpt lat="48.44392" lon="7.4002">
        <ele>594</ele>
        <time>2011-08-14T09:06:06Z</time>
      </trkpt>
      <trkpt lat="48.44392" lon="7.40018">
        <ele>595</ele>
        <time>2011-08-14T09:06:07Z</time>
      </trkpt>
      <trkpt lat="48.44388" lon="7.40006">
        <ele>596</ele>
        <time>2011-08-14T09:06:15Z</time>
      </trkpt>
      <trkpt lat="48.44377" lon="7.39997">
        <ele>613</ele>
        <time>2011-08-14T09:06:25Z</time>
      </trkpt>
      <trkpt lat="48.44369" lon="7.39993">
        <ele>611</ele>
        <time>2011-08-14T09:06:33Z</time>
      </trkpt>
      <trkpt lat="48.44356" lon="7.39983">
        <ele>608</ele>
        <time>2011-08-14T09:06:43Z</time>
      </trkpt>
      <trkpt lat="48.44348" lon="7.39976">
        <ele>608</ele>
        <time>2011-08-14T09:06:49Z</time>
      </trkpt>
      <trkpt lat="48.44341" lon="7.3997">
        <ele>609</ele>
        <time>2011-08-14T09:06:55Z</time>
      </trkpt>
      <trkpt lat="48.44332" lon="7.39963">
        <ele>599</ele>
        <time>2011-08-14T09:07:01Z</time>
      </trkpt>
      <trkpt lat="48.44319" lon="7.39952">
        <ele>601</ele>
        <time>2011-08-14T09:07:10Z</time>
      </trkpt>
      <trkpt lat="48.44306" lon="7.39941">
        <ele>602</ele>
        <time>2011-08-14T09:07:18Z</time>
      </trkpt>
      <trkpt lat="48.44296" lon="7.39934">
        <ele>602</ele>
        <time>2011-08-14T09:07:24Z</time>
      </trkpt>
      <trkpt lat="48.44283" lon="7.39925">
        <ele>602</ele>
        <time>2011-08-14T09:07:32Z</time>
      </trkpt>
      <trkpt lat="48.44272" lon="7.39918">
        <ele>603</ele>
        <time>2011-08-14T09:07:39Z</time>
      </trkpt>
      <trkpt lat="48.4427" lon="7.39917">
        <ele>619</ele>
        <time>2011-08-14T09:07:44Z</time>
      </trkpt>
      <trkpt lat="48.44267" lon="7.39919">
        <ele>603</ele>
        <time>2011-08-14T09:08:11Z</time>
      </trkpt>
      <trkpt lat="48.44263" lon="7.39918">
        <ele>604</ele>
        <time>2011-08-14T09:08:17Z</time>
      </trkpt>
      <trkpt lat="48.44263" lon="7.39918">
        <ele>604</ele>
        <time>2011-08-14T09:08:23Z</time>
      </trkpt>
      <trkpt lat="48.44276" lon="7.39919">
        <ele>603</ele>
        <time>2011-08-14T09:08:29Z</time>
      </trkpt>
      <trkpt lat="48.44285" lon="7.39924">
        <ele>603</ele>
        <time>2011-08-14T09:08:33Z</time>
      </trkpt>
      <trkpt lat="48.44294" lon="7.39931">
        <ele>603</ele>
        <time>2011-08-14T09:08:37Z</time>
      </trkpt>
      <trkpt lat="48.4431" lon="7.39941">
        <ele>603</ele>
        <time>2011-08-14T09:08:43Z</time>
      </trkpt>
      <trkpt lat="48.44323" lon="7.3995">
        <ele>602</ele>
        <time>2011-08-14T09:08:48Z</time>
      </trkpt>
      <trkpt lat="48.44335" lon="7.39958">
        <ele>613</ele>
        <time>2011-08-14T09:08:53Z</time>
      </trkpt>
      <trkpt lat="48.44349" lon="7.39973">
        <ele>610</ele>
        <time>2011-08-14T09:08:59Z</time>
      </trkpt>
      <trkpt lat="48.44361" lon="7.39982">
        <ele>610</ele>
        <time>2011-08-14T09:09:04Z</time>
      </trkpt>
      <trkpt lat="48.44372" lon="7.39992">
        <ele>612</ele>
        <time>2011-08-14T09:09:10Z</time>
      </trkpt>
      <trkpt lat="48.44373" lon="7.39992">
        <ele>612</ele>
        <time>2011-08-14T09:09:11Z</time>
      </trkpt>
      <trkpt lat="48.44378" lon="7.39992">
        <ele>613</ele>
        <time>2011-08-14T09:09:14Z</time>
      </trkpt>
      <trkpt lat="48.44374" lon="7.39982">
        <ele>614</ele>
        <time>2011-08-14T09:09:21Z</time>
      </trkpt>
      <trkpt lat="48.44371" lon="7.39978">
        <ele>614</ele>
        <time>2011-08-14T09:09:24Z</time>
      </trkpt>
      <trkpt lat="48.44363" lon="7.39973">
        <ele>613</ele>
        <time>2011-08-14T09:09:29Z</time>
      </trkpt>
      <trkpt lat="48.44359" lon="7.39971">
        <ele>612</ele>
        <time>2011-08-14T09:09:32Z</time>
      </trkpt>
      <trkpt lat="48.44351" lon="7.39967">
        <ele>612</ele>
        <time>2011-08-14T09:09:39Z</time>
      </trkpt>
      <trkpt lat="48.44349" lon="7.39961">
        <ele>613</ele>
        <time>2011-08-14T09:09:41Z</time>
      </trkpt>
      <trkpt lat="48.44347" lon="7.39952">
        <ele>615</ele>
        <time>2011-08-14T09:09:48Z</time>
      </trkpt>
      <trkpt lat="48.44339" lon="7.3995">
        <ele>615</ele>
        <time>2011-08-14T09:10:08Z</time>
      </trkpt>
      <trkpt lat="48.4434" lon="7.39948">
        <ele>615</ele>
        <time>2011-08-14T09:10:25Z</time>
      </trkpt>
      <trkpt lat="48.44337" lon="7.39949">
        <ele>615</ele>
        <time>2011-08-14T09:11:05Z</time>
      </trkpt>
      <trkpt lat="48.44334" lon="7.39943">
        <ele>616</ele>
        <time>2011-08-14T09:11:11Z</time>
      </trkpt>
      <trkpt lat="48.44328" lon="7.39936">
        <ele>607</ele>
        <time>2011-08-14T09:11:17Z</time>
      </trkpt>
      <trkpt lat="48.44327" lon="7.39935">
        <ele>608</ele>
        <time>2011-08-14T09:11:18Z</time>
      </trkpt>
      <trkpt lat="48.44319" lon="7.39928">
        <ele>609</ele>
        <time>2011-08-14T09:11:24Z</time>
      </trkpt>
      <trkpt lat="48.44312" lon="7.39922">
        <ele>607</ele>
        <time>2011-08-14T09:11:31Z</time>
      </trkpt>
      <trkpt lat="48.44306" lon="7.39914">
        <ele>625</ele>
        <time>2011-08-14T09:11:37Z</time>
      </trkpt>
      <trkpt lat="48.44301" lon="7.39908">
        <ele>625</ele>
        <time>2011-08-14T09:11:43Z</time>
      </trkpt>
      <trkpt lat="48.44293" lon="7.39902">
        <ele>625</ele>
        <time>2011-08-14T09:11:49Z</time>
      </trkpt>
      <trkpt lat="48.44283" lon="7.39893">
        <ele>626</ele>
        <time>2011-08-14T09:11:57Z</time>
      </trkpt>
      <trkpt lat="48.44274" lon="7.39886">
        <ele>626</ele>
        <time>2011-08-14T09:12:04Z</time>
      </trkpt>
      <trkpt lat="48.44268" lon="7.3988">
        <ele>626</ele>
        <time>2011-08-14T09:12:10Z</time>
      </trkpt>
      <trkpt lat="48.44265" lon="7.39877">
        <ele>627</ele>
        <time>2011-08-14T09:12:13Z</time>
      </trkpt>
      <trkpt lat="48.44258" lon="7.39867">
        <ele>629</ele>
        <time>2011-08-14T09:12:20Z</time>
      </trkpt>
      <trkpt lat="48.44254" lon="7.39862">
        <ele>630</ele>
        <time>2011-08-14T09:12:25Z</time>
      </trkpt>
      <trkpt lat="48.44246" lon="7.3985">
        <ele>625</ele>
        <time>2011-08-14T09:12:32Z</time>
      </trkpt>
      <trkpt lat="48.4424" lon="7.39843">
        <ele>627</ele>
        <time>2011-08-14T09:12:39Z</time>
      </trkpt>
      <trkpt lat="48.44233" lon="7.39839">
        <ele>626</ele>
        <time>2011-08-14T09:12:46Z</time>
      </trkpt>
      <trkpt lat="48.44227" lon="7.39831">
        <ele>639</ele>
        <time>2011-08-14T09:12:53Z</time>
      </trkpt>
      <trkpt lat="48.44221" lon="7.39825">
        <ele>640</ele>
        <time>2011-08-14T09:13:00Z</time>
      </trkpt>
      <trkpt lat="48.44214" lon="7.39817">
        <ele>640</ele>
        <time>2011-08-14T09:13:07Z</time>
      </trkpt>
      <trkpt lat="48.44209" lon="7.39811">
        <ele>641</ele>
        <time>2011-08-14T09:13:13Z</time>
      </trkpt>
      <trkpt lat="48.44201" lon="7.39804">
        <ele>641</ele>
        <time>2011-08-14T09:13:21Z</time>
      </trkpt>
      <trkpt lat="48.44195" lon="7.39801">
        <ele>641</ele>
        <time>2011-08-14T09:13:27Z</time>
      </trkpt>
      <trkpt lat="48.4419" lon="7.39796">
        <ele>642</ele>
        <time>2011-08-14T09:13:33Z</time>
      </trkpt>
      <trkpt lat="48.44183" lon="7.39793">
        <ele>642</ele>
        <time>2011-08-14T09:13:39Z</time>
      </trkpt>
      <trkpt lat="48.44172" lon="7.39782">
        <ele>644</ele>
        <time>2011-08-14T09:13:46Z</time>
      </trkpt>
      <trkpt lat="48.44168" lon="7.39778">
        <ele>646</ele>
        <time>2011-08-14T09:13:50Z</time>
      </trkpt>
      <trkpt lat="48.44157" lon="7.39773">
        <ele>643</ele>
        <time>2011-08-14T09:13:57Z</time>
      </trkpt>
      <trkpt lat="48.44147" lon="7.3977">
        <ele>643</ele>
        <time>2011-08-14T09:14:05Z</time>
      </trkpt>
      <trkpt lat="48.44135" lon="7.39764">
        <ele>643</ele>
        <time>2011-08-14T09:14:14Z</time>
      </trkpt>
      <trkpt lat="48.4413" lon="7.39761">
        <ele>643</ele>
        <time>2011-08-14T09:14:19Z</time>
      </trkpt>
      <trkpt lat="48.44119" lon="7.39756">
        <ele>643</ele>
        <time>2011-08-14T09:14:27Z</time>
      </trkpt>
      <trkpt lat="48.44113" lon="7.39753">
        <ele>644</ele>
        <time>2011-08-14T09:14:33Z</time>
      </trkpt>
      <trkpt lat="48.44104" lon="7.39748">
        <ele>656</ele>
        <time>2011-08-14T09:14:40Z</time>
      </trkpt>
      <trkpt lat="48.44098" lon="7.39747">
        <ele>655</ele>
        <time>2011-08-14T09:14:46Z</time>
      </trkpt>
      <trkpt lat="48.44089" lon="7.39744">
        <ele>654</ele>
        <time>2011-08-14T09:14:52Z</time>
      </trkpt>
      <trkpt lat="48.44077" lon="7.39741">
        <ele>655</ele>
        <time>2011-08-14T09:15:00Z</time>
      </trkpt>
      <trkpt lat="48.44072" lon="7.39739">
        <ele>656</ele>
        <time>2011-08-14T09:15:04Z</time>
      </trkpt>
      <trkpt lat="48.44062" lon="7.39731">
        <ele>658</ele>
        <time>2011-08-14T09:15:12Z</time>
      </trkpt>
      <trkpt lat="48.44054" lon="7.39728">
        <ele>659</ele>
        <time>2011-08-14T09:15:18Z</time>
      </trkpt>
      <trkpt lat="48.44045" lon="7.39723">
        <ele>659</ele>
        <time>2011-08-14T09:15:25Z</time>
      </trkpt>
      <trkpt lat="48.44039" lon="7.39721">
        <ele>660</ele>
        <time>2011-08-14T09:15:30Z</time>
      </trkpt>
      <trkpt lat="48.44028" lon="7.39715">
        <ele>660</ele>
        <time>2011-08-14T09:15:38Z</time>
      </trkpt>
      <trkpt lat="48.44023" lon="7.39712">
        <ele>661</ele>
        <time>2011-08-14T09:15:42Z</time>
      </trkpt>
      <trkpt lat="48.44014" lon="7.39708">
        <ele>661</ele>
        <time>2011-08-14T09:15:50Z</time>
      </trkpt>
      <trkpt lat="48.44005" lon="7.39704">
        <ele>662</ele>
        <time>2011-08-14T09:15:57Z</time>
      </trkpt>
      <trkpt lat="48.43998" lon="7.397">
        <ele>666</ele>
        <time>2011-08-14T09:16:04Z</time>
      </trkpt>
      <trkpt lat="48.43989" lon="7.39701">
        <ele>666</ele>
        <time>2011-08-14T09:16:11Z</time>
      </trkpt>
      <trkpt lat="48.43979" lon="7.39706">
        <ele>666</ele>
        <time>2011-08-14T09:16:19Z</time>
      </trkpt>
      <trkpt lat="48.43974" lon="7.39712">
        <ele>666</ele>
        <time>2011-08-14T09:16:25Z</time>
      </trkpt>
      <trkpt lat="48.4397" lon="7.39718">
        <ele>665</ele>
        <time>2011-08-14T09:16:28Z</time>
      </trkpt>
      <trkpt lat="48.43961" lon="7.39723">
        <ele>666</ele>
        <time>2011-08-14T09:16:35Z</time>
      </trkpt>
      <trkpt lat="48.4395" lon="7.39727">
        <ele>667</ele>
        <time>2011-08-14T09:16:42Z</time>
      </trkpt>
      <trkpt lat="48.43944" lon="7.39728">
        <ele>667</ele>
        <time>2011-08-14T09:16:48Z</time>
      </trkpt>
      <trkpt lat="48.43937" lon="7.3973">
        <ele>667</ele>
        <time>2011-08-14T09:16:53Z</time>
      </trkpt>
      <trkpt lat="48.43927" lon="7.39733">
        <ele>668</ele>
        <time>2011-08-14T09:17:01Z</time>
      </trkpt>
      <trkpt lat="48.43919" lon="7.39734">
        <ele>668</ele>
        <time>2011-08-14T09:17:08Z</time>
      </trkpt>
      <trkpt lat="48.43908" lon="7.39734">
        <ele>675</ele>
        <time>2011-08-14T09:17:15Z</time>
      </trkpt>
      <trkpt lat="48.439" lon="7.39736">
        <ele>676</ele>
        <time>2011-08-14T09:17:21Z</time>
      </trkpt>
      <trkpt lat="48.43893" lon="7.39744">
        <ele>677</ele>
        <time>2011-08-14T09:17:28Z</time>
      </trkpt>
      <trkpt lat="48.43886" lon="7.39751">
        <ele>675</ele>
        <time>2011-08-14T09:17:35Z</time>
      </trkpt>
      <trkpt lat="48.43881" lon="7.39762">
        <ele>676</ele>
        <time>2011-08-14T09:17:43Z</time>
      </trkpt>
      <trkpt lat="48.4388" lon="7.39765">
        <ele>676</ele>
        <time>2011-08-14T09:17:45Z</time>
      </trkpt>
      <trkpt lat="48.43875" lon="7.39775">
        <ele>676</ele>
        <time>2011-08-14T09:17:52Z</time>
      </trkpt>
      <trkpt lat="48.4387" lon="7.39784">
        <ele>677</ele>
        <time>2011-08-14T09:17:57Z</time>
      </trkpt>
      <trkpt lat="48.43866" lon="7.39801">
        <ele>677</ele>
        <time>2011-08-14T09:18:04Z</time>
      </trkpt>
      <trkpt lat="48.43863" lon="7.39812">
        <ele>677</ele>
        <time>2011-08-14T09:18:10Z</time>
      </trkpt>
      <trkpt lat="48.4386" lon="7.39821">
        <ele>678</ele>
        <time>2011-08-14T09:18:14Z</time>
      </trkpt>
      <trkpt lat="48.43852" lon="7.39832">
        <ele>680</ele>
        <time>2011-08-14T09:18:22Z</time>
      </trkpt>
      <trkpt lat="48.43845" lon="7.39837">
        <ele>679</ele>
        <time>2011-08-14T09:18:28Z</time>
      </trkpt>
      <trkpt lat="48.43841" lon="7.39839">
        <ele>680</ele>
        <time>2011-08-14T09:18:35Z</time>
      </trkpt>
      <trkpt lat="48.43836" lon="7.39842">
        <ele>681</ele>
        <time>2011-08-14T09:18:44Z</time>
      </trkpt>
      <trkpt lat="48.43826" lon="7.39843">
        <ele>687</ele>
        <time>2011-08-14T09:18:52Z</time>
      </trkpt>
      <trkpt lat="48.43819" lon="7.39849">
        <ele>688</ele>
        <time>2011-08-14T09:18:59Z</time>
      </trkpt>
      <trkpt lat="48.43816" lon="7.3985">
        <ele>689</ele>
        <time>2011-08-14T09:19:02Z</time>
      </trkpt>
      <trkpt lat="48.43812" lon="7.3985">
        <ele>689</ele>
        <time>2011-08-14T09:19:05Z</time>
      </trkpt>
      <trkpt lat="48.43807" lon="7.39854">
        <ele>690</ele>
        <time>2011-08-14T09:19:11Z</time>
      </trkpt>
      <trkpt lat="48.43805" lon="7.39852">
        <ele>690</ele>
        <time>2011-08-14T09:19:28Z</time>
      </trkpt>
      <trkpt lat="48.43804" lon="7.39854">
        <ele>690</ele>
        <time>2011-08-14T09:19:44Z</time>
      </trkpt>
      <trkpt lat="48.43803" lon="7.39854">
        <ele>690</ele>
        <time>2011-08-14T09:19:46Z</time>
      </trkpt>
      <trkpt lat="48.438" lon="7.39853">
        <ele>690</ele>
        <time>2011-08-14T09:19:49Z</time>
      </trkpt>
      <trkpt lat="48.43795" lon="7.39851">
        <ele>691</ele>
        <time>2011-08-14T09:19:53Z</time>
      </trkpt>
      <trkpt lat="48.43788" lon="7.3985">
        <ele>691</ele>
        <time>2011-08-14T09:19:59Z</time>
      </trkpt>
      <trkpt lat="48.43777" lon="7.39848">
        <ele>692</ele>
        <time>2011-08-14T09:20:06Z</time>
      </trkpt>
      <trkpt lat="48.43771" lon="7.39847">
        <ele>693</ele>
        <time>2011-08-14T09:20:11Z</time>
      </trkpt>
      <trkpt lat="48.43764" lon="7.39841">
        <ele>694</ele>
        <time>2011-08-14T09:20:17Z</time>
      </trkpt>
      <trkpt lat="48.4376" lon="7.39839">
        <ele>695</ele>
        <time>2011-08-14T09:20:24Z</time>
      </trkpt>
      <trkpt lat="48.43756" lon="7.39836">
        <ele>696</ele>
        <time>2011-08-14T09:20:29Z</time>
      </trkpt>
      <trkpt lat="48.4375" lon="7.39833">
        <ele>697</ele>
        <time>2011-08-14T09:20:34Z</time>
      </trkpt>
      <trkpt lat="48.43747" lon="7.39832">
        <ele>697</ele>
        <time>2011-08-14T09:20:36Z</time>
      </trkpt>
      <trkpt lat="48.43742" lon="7.39829">
        <ele>698</ele>
        <time>2011-08-14T09:20:40Z</time>
      </trkpt>
      <trkpt lat="48.43737" lon="7.39828">
        <ele>698</ele>
        <time>2011-08-14T09:20:43Z</time>
      </trkpt>
      <trkpt lat="48.43733" lon="7.39832">
        <ele>698</ele>
        <time>2011-08-14T09:20:47Z</time>
      </trkpt>
      <trkpt lat="48.43728" lon="7.39832">
        <ele>699</ele>
        <time>2011-08-14T09:20:54Z</time>
      </trkpt>
      <trkpt lat="48.43723" lon="7.39831">
        <ele>699</ele>
        <time>2011-08-14T09:21:01Z</time>
      </trkpt>
      <trkpt lat="48.43718" lon="7.39833">
        <ele>699</ele>
        <time>2011-08-14T09:21:07Z</time>
      </trkpt>
      <trkpt lat="48.43715" lon="7.39833">
        <ele>699</ele>
        <time>2011-08-14T09:21:16Z</time>
      </trkpt>
      <trkpt lat="48.43711" lon="7.39834">
        <ele>698</ele>
        <time>2011-08-14T09:21:42Z</time>
      </trkpt>
      <trkpt lat="48.43708" lon="7.39843">
        <ele>698</ele>
        <time>2011-08-14T09:21:51Z</time>
      </trkpt>
      <trkpt lat="48.43708" lon="7.39844">
        <ele>698</ele>
        <time>2011-08-14T09:21:56Z</time>
      </trkpt>
      <trkpt lat="48.43706" lon="7.39851">
        <ele>698</ele>
        <time>2011-08-14T09:22:00Z</time>
      </trkpt>
      <trkpt lat="48.43704" lon="7.3987">
        <ele>698</ele>
        <time>2011-08-14T09:22:09Z</time>
      </trkpt>
      <trkpt lat="48.43701" lon="7.39888">
        <ele>697</ele>
        <time>2011-08-14T09:22:17Z</time>
      </trkpt>
      <trkpt lat="48.43694" lon="7.39912">
        <ele>697</ele>
        <time>2011-08-14T09:22:29Z</time>
      </trkpt>
      <trkpt lat="48.43687" lon="7.39932">
        <ele>698</ele>
        <time>2011-08-14T09:22:39Z</time>
      </trkpt>
      <trkpt lat="48.43681" lon="7.39949">
        <ele>698</ele>
        <time>2011-08-14T09:22:47Z</time>
      </trkpt>
      <trkpt lat="48.43675" lon="7.39964">
        <ele>699</ele>
        <time>2011-08-14T09:22:55Z</time>
      </trkpt>
      <trkpt lat="48.43669" lon="7.39982">
        <ele>699</ele>
        <time>2011-08-14T09:23:05Z</time>
      </trkpt>
      <trkpt lat="48.43664" lon="7.39995">
        <ele>700</ele>
        <time>2011-08-14T09:23:13Z</time>
      </trkpt>
      <trkpt lat="48.43655" lon="7.40015">
        <ele>708</ele>
        <time>2011-08-14T09:23:25Z</time>
      </trkpt>
      <trkpt lat="48.43647" lon="7.4003">
        <ele>712</ele>
        <time>2011-08-14T09:23:34Z</time>
      </trkpt>
      <trkpt lat="48.43638" lon="7.40049">
        <ele>715</ele>
        <time>2011-08-14T09:23:45Z</time>
      </trkpt>
      <trkpt lat="48.43633" lon="7.40067">
        <ele>717</ele>
        <time>2011-08-14T09:23:54Z</time>
      </trkpt>
      <trkpt lat="48.43629" lon="7.40082">
        <ele>718</ele>
        <time>2011-08-14T09:24:03Z</time>
      </trkpt>
      <trkpt lat="48.43628" lon="7.4009">
        <ele>729</ele>
        <time>2011-08-14T09:24:09Z</time>
      </trkpt>
      <trkpt lat="48.43628" lon="7.40097">
        <ele>729</ele>
        <time>2011-08-14T09:24:18Z</time>
      </trkpt>
      <trkpt lat="48.43624" lon="7.40106">
        <ele>730</ele>
        <time>2011-08-14T09:24:24Z</time>
      </trkpt>
      <trkpt lat="48.43625" lon="7.40116">
        <ele>731</ele>
        <time>2011-08-14T09:24:30Z</time>
      </trkpt>
      <trkpt lat="48.4363" lon="7.4013">
        <ele>732</ele>
        <time>2011-08-14T09:24:37Z</time>
      </trkpt>
      <trkpt lat="48.43631" lon="7.40132">
        <ele>732</ele>
        <time>2011-08-14T09:24:38Z</time>
      </trkpt>
      <trkpt lat="48.43635" lon="7.40146">
        <ele>733</ele>
        <time>2011-08-14T09:24:47Z</time>
      </trkpt>
      <trkpt lat="48.4364" lon="7.40158">
        <ele>734</ele>
        <time>2011-08-14T09:24:53Z</time>
      </trkpt>
      <trkpt lat="48.43646" lon="7.4017">
        <ele>741</ele>
        <time>2011-08-14T09:25:01Z</time>
      </trkpt>
      <trkpt lat="48.43651" lon="7.40184">
        <ele>742</ele>
        <time>2011-08-14T09:25:08Z</time>
      </trkpt>
      <trkpt lat="48.43652" lon="7.40187">
        <ele>742</ele>
        <time>2011-08-14T09:25:10Z</time>
      </trkpt>
      <trkpt lat="48.43656" lon="7.40194">
        <ele>743</ele>
        <time>2011-08-14T09:25:16Z</time>
      </trkpt>
      <trkpt lat="48.43657" lon="7.40196">
        <ele>743</ele>
        <time>2011-08-14T09:25:25Z</time>
      </trkpt>
      <trkpt lat="48.43653" lon="7.40196">
        <ele>744</ele>
        <time>2011-08-14T09:25:39Z</time>
      </trkpt>
      <trkpt lat="48.43653" lon="7.40192">
        <ele>743</ele>
        <time>2011-08-14T09:26:47Z</time>
      </trkpt>
      <trkpt lat="48.43653" lon="7.40194">
        <ele>743</ele>
        <time>2011-08-14T09:27:05Z</time>
      </trkpt>
      <trkpt lat="48.43656" lon="7.402">
        <ele>744</ele>
        <time>2011-08-14T09:27:10Z</time>
      </trkpt>
      <trkpt lat="48.43658" lon="7.40204">
        <ele>745</ele>
        <time>2011-08-14T09:27:16Z</time>
      </trkpt>
      <trkpt lat="48.43661" lon="7.40212">
        <ele>746</ele>
        <time>2011-08-14T09:27:23Z</time>
      </trkpt>
      <trkpt lat="48.43663" lon="7.40217">
        <ele>746</ele>
        <time>2011-08-14T09:27:29Z</time>
      </trkpt>
      <trkpt lat="48.43664" lon="7.40223">
        <ele>747</ele>
        <time>2011-08-14T09:27:35Z</time>
      </trkpt>
      <trkpt lat="48.43666" lon="7.40231">
        <ele>748</ele>
        <time>2011-08-14T09:27:45Z</time>
      </trkpt>
      <trkpt lat="48.4367" lon="7.40241">
        <ele>746</ele>
        <time>2011-08-14T09:27:53Z</time>
      </trkpt>
      <trkpt lat="48.43672" lon="7.40251">
        <ele>750</ele>
        <time>2011-08-14T09:28:01Z</time>
      </trkpt>
      <trkpt lat="48.43671" lon="7.40252">
        <ele>750</ele>
        <time>2011-08-14T09:28:09Z</time>
      </trkpt>
      <trkpt lat="48.4367" lon="7.40258">
        <ele>750</ele>
        <time>2011-08-14T09:28:16Z</time>
      </trkpt>
      <trkpt lat="48.43668" lon="7.40256">
        <ele>750</ele>
        <time>2011-08-14T09:28:24Z</time>
      </trkpt>
      <trkpt lat="48.43672" lon="7.4026">
        <ele>750</ele>
        <time>2011-08-14T09:28:35Z</time>
      </trkpt>
      <trkpt lat="48.43675" lon="7.40265">
        <ele>750</ele>
        <time>2011-08-14T09:28:41Z</time>
      </trkpt>
      <trkpt lat="48.43681" lon="7.40271">
        <ele>749</ele>
        <time>2011-08-14T09:28:48Z</time>
      </trkpt>
      <trkpt lat="48.43685" lon="7.4028">
        <ele>750</ele>
        <time>2011-08-14T09:28:55Z</time>
      </trkpt>
      <trkpt lat="48.4369" lon="7.40288">
        <ele>750</ele>
        <time>2011-08-14T09:29:03Z</time>
      </trkpt>
      <trkpt lat="48.43694" lon="7.40297">
        <ele>750</ele>
        <time>2011-08-14T09:29:08Z</time>
      </trkpt>
      <trkpt lat="48.43696" lon="7.40307">
        <ele>751</ele>
        <time>2011-08-14T09:29:16Z</time>
      </trkpt>
      <trkpt lat="48.43701" lon="7.40316">
        <ele>751</ele>
        <time>2011-08-14T09:29:23Z</time>
      </trkpt>
      <trkpt lat="48.43704" lon="7.40324">
        <ele>751</ele>
        <time>2011-08-14T09:29:30Z</time>
      </trkpt>
      <trkpt lat="48.43706" lon="7.40333">
        <ele>751</ele>
        <time>2011-08-14T09:29:38Z</time>
      </trkpt>
      <trkpt lat="48.43708" lon="7.4034">
        <ele>757</ele>
        <time>2011-08-14T09:29:44Z</time>
      </trkpt>
      <trkpt lat="48.43712" lon="7.40348">
        <ele>757</ele>
        <time>2011-08-14T09:29:51Z</time>
      </trkpt>
      <trkpt lat="48.4371" lon="7.40354">
        <ele>757</ele>
        <time>2011-08-14T09:29:58Z</time>
      </trkpt>
      <trkpt lat="48.43708" lon="7.40354">
        <ele>758</ele>
        <time>2011-08-14T09:30:05Z</time>
      </trkpt>
      <trkpt lat="48.43708" lon="7.40353">
        <ele>757</ele>
        <time>2011-08-14T09:30:12Z</time>
      </trkpt>
      <trkpt lat="48.43706" lon="7.40353">
        <ele>758</ele>
        <time>2011-08-14T09:30:23Z</time>
      </trkpt>
      <trkpt lat="48.43697" lon="7.40345">
        <ele>758</ele>
        <time>2011-08-14T09:30:31Z</time>
      </trkpt>
      <trkpt lat="48.43688" lon="7.40334">
        <ele>759</ele>
        <time>2011-08-14T09:30:38Z</time>
      </trkpt>
      <trkpt lat="48.43678" lon="7.40324">
        <ele>755</ele>
        <time>2011-08-14T09:30:46Z</time>
      </trkpt>
      <trkpt lat="48.43676" lon="7.40323">
        <ele>756</ele>
        <time>2011-08-14T09:30:47Z</time>
      </trkpt>
      <trkpt lat="48.4367" lon="7.40324">
        <ele>757</ele>
        <time>2011-08-14T09:30:51Z</time>
      </trkpt>
      <trkpt lat="48.43667" lon="7.40325">
        <ele>758</ele>
        <time>2011-08-14T09:30:53Z</time>
      </trkpt>
      <trkpt lat="48.43659" lon="7.40339">
        <ele>759</ele>
        <time>2011-08-14T09:31:01Z</time>
      </trkpt>
      <trkpt lat="48.43658" lon="7.4034">
        <ele>759</ele>
        <time>2011-08-14T09:31:07Z</time>
      </trkpt>
      <trkpt lat="48.43657" lon="7.40342">
        <ele>758</ele>
        <time>2011-08-14T09:31:41Z</time>
      </trkpt>
      <trkpt lat="48.43657" lon="7.40342">
        <ele>758</ele>
        <time>2011-08-14T09:31:53Z</time>
      </trkpt>
      <trkpt lat="48.43656" lon="7.40344">
        <ele>758</ele>
        <time>2011-08-14T09:32:00Z</time>
      </trkpt>
      <trkpt lat="48.43652" lon="7.40338">
        <ele>758</ele>
        <time>2011-08-14T09:32:04Z</time>
      </trkpt>
      <trkpt lat="48.43648" lon="7.40332">
        <ele>758</ele>
        <time>2011-08-14T09:32:10Z</time>
      </trkpt>
      <trkpt lat="48.43649" lon="7.40332">
        <ele>758</ele>
        <time>2011-08-14T09:32:24Z</time>
      </trkpt>
      <trkpt lat="48.43644" lon="7.40327">
        <ele>757</ele>
        <time>2011-08-14T09:32:29Z</time>
      </trkpt>
      <trkpt lat="48.43628" lon="7.4031">
        <ele>756</ele>
        <time>2011-08-14T09:32:37Z</time>
      </trkpt>
      <trkpt lat="48.43616" lon="7.40296">
        <ele>755</ele>
        <time>2011-08-14T09:32:44Z</time>
      </trkpt>
      <trkpt lat="48.43603" lon="7.40279">
        <ele>755</ele>
        <time>2011-08-14T09:32:50Z</time>
      </trkpt>
      <trkpt lat="48.43584" lon="7.40259">
        <ele>755</ele>
        <time>2011-08-14T09:32:58Z</time>
      </trkpt>
      <trkpt lat="48.4357" lon="7.4024">
        <ele>753</ele>
        <time>2011-08-14T09:33:05Z</time>
      </trkpt>
      <trkpt lat="48.43557" lon="7.40225">
        <ele>752</ele>
        <time>2011-08-14T09:33:11Z</time>
      </trkpt>
      <trkpt lat="48.43555" lon="7.40224">
        <ele>751</ele>
        <time>2011-08-14T09:33:15Z</time>
      </trkpt>
      <trkpt lat="48.43555" lon="7.4022">
        <ele>751</ele>
        <time>2011-08-14T09:33:40Z</time>
      </trkpt>
      <trkpt lat="48.43549" lon="7.40217">
        <ele>751</ele>
        <time>2011-08-14T09:34:11Z</time>
      </trkpt>
      <trkpt lat="48.43538" lon="7.40216">
        <ele>751</ele>
        <time>2011-08-14T09:34:18Z</time>
      </trkpt>
      <trkpt lat="48.43525" lon="7.40216">
        <ele>751</ele>
        <time>2011-08-14T09:34:25Z</time>
      </trkpt>
      <trkpt lat="48.43523" lon="7.40217">
        <ele>751</ele>
        <time>2011-08-14T09:34:29Z</time>
      </trkpt>
      <trkpt lat="48.43522" lon="7.40218">
        <ele>752</ele>
        <time>2011-08-14T09:34:36Z</time>
      </trkpt>
      <trkpt lat="48.43521" lon="7.4022">
        <ele>752</ele>
        <time>2011-08-14T09:34:55Z</time>
      </trkpt>
      <trkpt lat="48.43521" lon="7.4022">
        <ele>752</ele>
        <time>2011-08-14T09:35:01Z</time>
      </trkpt>
      <trkpt lat="48.43519" lon="7.40222">
        <ele>752</ele>
        <time>2011-08-14T09:35:07Z</time>
      </trkpt>
      <trkpt lat="48.43519" lon="7.40224">
        <ele>752</ele>
        <time>2011-08-14T09:36:02Z</time>
      </trkpt>
      <trkpt lat="48.43513" lon="7.40224">
        <ele>752</ele>
        <time>2011-08-14T09:36:09Z</time>
      </trkpt>
      <trkpt lat="48.4351" lon="7.40224">
        <ele>752</ele>
        <time>2011-08-14T09:36:15Z</time>
      </trkpt>
      <trkpt lat="48.43509" lon="7.40222">
        <ele>752</ele>
        <time>2011-08-14T09:36:22Z</time>
      </trkpt>
      <trkpt lat="48.43507" lon="7.40221">
        <ele>752</ele>
        <time>2011-08-14T09:36:29Z</time>
      </trkpt>
      <trkpt lat="48.43508" lon="7.4022">
        <ele>752</ele>
        <time>2011-08-14T09:36:33Z</time>
      </trkpt>
      <trkpt lat="48.43516" lon="7.40212">
        <ele>751</ele>
        <time>2011-08-14T09:36:40Z</time>
      </trkpt>
      <trkpt lat="48.4353" lon="7.40211">
        <ele>751</ele>
        <time>2011-08-14T09:36:46Z</time>
      </trkpt>
      <trkpt lat="48.43531" lon="7.40201">
        <ele>750</ele>
        <time>2011-08-14T09:36:50Z</time>
      </trkpt>
      <trkpt lat="48.43526" lon="7.40198">
        <ele>750</ele>
        <time>2011-08-14T09:36:52Z</time>
      </trkpt>
      <trkpt lat="48.43511" lon="7.40198">
        <ele>750</ele>
        <time>2011-08-14T09:36:56Z</time>
      </trkpt>
      <trkpt lat="48.43491" lon="7.40205">
        <ele>753</ele>
        <time>2011-08-14T09:37:00Z</time>
      </trkpt>
      <trkpt lat="48.43469" lon="7.402">
        <ele>753</ele>
        <time>2011-08-14T09:37:04Z</time>
      </trkpt>
      <trkpt lat="48.4345" lon="7.40184">
        <ele>753</ele>
        <time>2011-08-14T09:37:07Z</time>
      </trkpt>
      <trkpt lat="48.4343" lon="7.40162">
        <ele>748</ele>
        <time>2011-08-14T09:37:11Z</time>
      </trkpt>
      <trkpt lat="48.43413" lon="7.40136">
        <ele>748</ele>
        <time>2011-08-14T09:37:15Z</time>
      </trkpt>
      <trkpt lat="48.43403" lon="7.40123">
        <ele>746</ele>
        <time>2011-08-14T09:37:17Z</time>
      </trkpt>
      <trkpt lat="48.43358" lon="7.40095">
        <ele>744</ele>
        <time>2011-08-14T09:37:24Z</time>
      </trkpt>
      <trkpt lat="48.43319" lon="7.40079">
        <ele>739</ele>
        <time>2011-08-14T09:37:30Z</time>
      </trkpt>
      <trkpt lat="48.43304" lon="7.40072">
        <ele>739</ele>
        <time>2011-08-14T09:37:34Z</time>
      </trkpt>
      <trkpt lat="48.43301" lon="7.4007">
        <ele>739</ele>
        <time>2011-08-14T09:37:35Z</time>
      </trkpt>
      <trkpt lat="48.43294" lon="7.40064">
        <ele>739</ele>
        <time>2011-08-14T09:37:37Z</time>
      </trkpt>
      <trkpt lat="48.43272" lon="7.40058">
        <ele>740</ele>
        <time>2011-08-14T09:37:42Z</time>
      </trkpt>
      <trkpt lat="48.43261" lon="7.40056">
        <ele>741</ele>
        <time>2011-08-14T09:37:45Z</time>
      </trkpt>
      <trkpt lat="48.43238" lon="7.40045">
        <ele>744</ele>
        <time>2011-08-14T09:37:50Z</time>
      </trkpt>
      <trkpt lat="48.43228" lon="7.40028">
        <ele>743</ele>
        <time>2011-08-14T09:37:54Z</time>
      </trkpt>
      <trkpt lat="48.43235" lon="7.40018">
        <ele>742</ele>
        <time>2011-08-14T09:37:56Z</time>
      </trkpt>
      <trkpt lat="48.43246" lon="7.40011">
        <ele>740</ele>
        <time>2011-08-14T09:37:58Z</time>
      </trkpt>
      <trkpt lat="48.43286" lon="7.3999">
        <ele>730</ele>
        <time>2011-08-14T09:38:05Z</time>
      </trkpt>
      <trkpt lat="48.43299" lon="7.39983">
        <ele>730</ele>
        <time>2011-08-14T09:38:08Z</time>
      </trkpt>
      <trkpt lat="48.43297" lon="7.39969">
        <ele>729</ele>
        <time>2011-08-14T09:38:12Z</time>
      </trkpt>
      <trkpt lat="48.43296" lon="7.3996">
        <ele>729</ele>
        <time>2011-08-14T09:38:15Z</time>
      </trkpt>
      <trkpt lat="48.43295" lon="7.39955">
        <ele>728</ele>
        <time>2011-08-14T09:38:21Z</time>
      </trkpt>
      <trkpt lat="48.43294" lon="7.39952">
        <ele>728</ele>
        <time>2011-08-14T09:38:34Z</time>
      </trkpt>
      <trkpt lat="48.4329" lon="7.39953">
        <ele>729</ele>
        <time>2011-08-14T09:38:47Z</time>
      </trkpt>
      <trkpt lat="48.43293" lon="7.39959">
        <ele>729</ele>
        <time>2011-08-14T09:38:53Z</time>
      </trkpt>
      <trkpt lat="48.43296" lon="7.39963">
        <ele>729</ele>
        <time>2011-08-14T09:39:02Z</time>
      </trkpt>
      <trkpt lat="48.43302" lon="7.39983">
        <ele>729</ele>
        <time>2011-08-14T09:39:07Z</time>
      </trkpt>
      <trkpt lat="48.43303" lon="7.39986">
        <ele>729</ele>
        <time>2011-08-14T09:39:08Z</time>
      </trkpt>
      <trkpt lat="48.43312" lon="7.39986">
        <ele>729</ele>
        <time>2011-08-14T09:39:13Z</time>
      </trkpt>
      <trkpt lat="48.43321" lon="7.39982">
        <ele>729</ele>
        <time>2011-08-14T09:39:17Z</time>
      </trkpt>
      <trkpt lat="48.43322" lon="7.39982">
        <ele>729</ele>
        <time>2011-08-14T09:39:23Z</time>
      </trkpt>
      <trkpt lat="48.43325" lon="7.39982">
        <ele>729</ele>
        <time>2011-08-14T09:39:43Z</time>
      </trkpt>
      <trkpt lat="48.43331" lon="7.39979">
        <ele>729</ele>
        <time>2011-08-14T09:39:47Z</time>
      </trkpt>
      <trkpt lat="48.43343" lon="7.39972">
        <ele>728</ele>
        <time>2011-08-14T09:39:52Z</time>
      </trkpt>
      <trkpt lat="48.43354" lon="7.3996">
        <ele>728</ele>
        <time>2011-08-14T09:39:56Z</time>
      </trkpt>
      <trkpt lat="48.43354" lon="7.39954">
        <ele>727</ele>
        <time>2011-08-14T09:39:59Z</time>
      </trkpt>
      <trkpt lat="48.43348" lon="7.39941">
        <ele>727</ele>
        <time>2011-08-14T09:40:04Z</time>
      </trkpt>
      <trkpt lat="48.43345" lon="7.39936">
        <ele>726</ele>
        <time>2011-08-14T09:40:05Z</time>
      </trkpt>
      <trkpt lat="48.43339" lon="7.39923">
        <ele>725</ele>
        <time>2011-08-14T09:40:08Z</time>
      </trkpt>
      <trkpt lat="48.43345" lon="7.39912">
        <ele>722</ele>
        <time>2011-08-14T09:40:13Z</time>
      </trkpt>
      <trkpt lat="48.43354" lon="7.39904">
        <ele>721</ele>
        <time>2011-08-14T09:40:18Z</time>
      </trkpt>
      <trkpt lat="48.43365" lon="7.39891">
        <ele>720</ele>
        <time>2011-08-14T09:40:25Z</time>
      </trkpt>
      <trkpt lat="48.43371" lon="7.39887">
        <ele>720</ele>
        <time>2011-08-14T09:40:31Z</time>
      </trkpt>
      <trkpt lat="48.43377" lon="7.3988">
        <ele>720</ele>
        <time>2011-08-14T09:40:45Z</time>
      </trkpt>
      <trkpt lat="48.4338" lon="7.39867">
        <ele>719</ele>
        <time>2011-08-14T09:41:46Z</time>
      </trkpt>
      <trkpt lat="48.43384" lon="7.39852">
        <ele>718</ele>
        <time>2011-08-14T09:41:51Z</time>
      </trkpt>
      <trkpt lat="48.43388" lon="7.39845">
        <ele>718</ele>
        <time>2011-08-14T09:41:53Z</time>
      </trkpt>
      <trkpt lat="48.434" lon="7.3983">
        <ele>711</ele>
        <time>2011-08-14T09:41:58Z</time>
      </trkpt>
      <trkpt lat="48.43403" lon="7.39826">
        <ele>711</ele>
        <time>2011-08-14T09:42:01Z</time>
      </trkpt>
      <trkpt lat="48.43407" lon="7.3982">
        <ele>711</ele>
        <time>2011-08-14T09:42:04Z</time>
      </trkpt>
      <trkpt lat="48.43413" lon="7.39798">
        <ele>707</ele>
        <time>2011-08-14T09:42:09Z</time>
      </trkpt>
      <trkpt lat="48.43414" lon="7.39794">
        <ele>706</ele>
        <time>2011-08-14T09:42:10Z</time>
      </trkpt>
      <trkpt lat="48.43423" lon="7.39784">
        <ele>708</ele>
        <time>2011-08-14T09:42:16Z</time>
      </trkpt>
      <trkpt lat="48.43433" lon="7.39769">
        <ele>707</ele>
        <time>2011-08-14T09:42:21Z</time>
      </trkpt>
      <trkpt lat="48.43443" lon="7.39759">
        <ele>706</ele>
        <time>2011-08-14T09:42:25Z</time>
      </trkpt>
      <trkpt lat="48.43461" lon="7.39746">
        <ele>700</ele>
        <time>2011-08-14T09:42:30Z</time>
      </trkpt>
      <trkpt lat="48.43472" lon="7.39735">
        <ele>700</ele>
        <time>2011-08-14T09:42:34Z</time>
      </trkpt>
      <trkpt lat="48.43476" lon="7.39729">
        <ele>700</ele>
        <time>2011-08-14T09:42:36Z</time>
      </trkpt>
      <trkpt lat="48.43481" lon="7.39722">
        <ele>699</ele>
        <time>2011-08-14T09:42:42Z</time>
      </trkpt>
      <trkpt lat="48.43487" lon="7.39714">
        <ele>699</ele>
        <time>2011-08-14T09:42:50Z</time>
      </trkpt>
      <trkpt lat="48.43502" lon="7.39702">
        <ele>702</ele>
        <time>2011-08-14T09:42:56Z</time>
      </trkpt>
      <trkpt lat="48.43519" lon="7.39688">
        <ele>701</ele>
        <time>2011-08-14T09:43:00Z</time>
      </trkpt>
      <trkpt lat="48.43535" lon="7.39674">
        <ele>701</ele>
        <time>2011-08-14T09:43:04Z</time>
      </trkpt>
      <trkpt lat="48.43539" lon="7.3967">
        <ele>701</ele>
        <time>2011-08-14T09:43:07Z</time>
      </trkpt>
      <trkpt lat="48.43545" lon="7.39666">
        <ele>694</ele>
        <time>2011-08-14T09:43:13Z</time>
      </trkpt>
      <trkpt lat="48.43556" lon="7.39663">
        <ele>695</ele>
        <time>2011-08-14T09:43:18Z</time>
      </trkpt>
      <trkpt lat="48.4356" lon="7.39662">
        <ele>696</ele>
        <time>2011-08-14T09:43:20Z</time>
      </trkpt>
      <trkpt lat="48.43564" lon="7.39659">
        <ele>696</ele>
        <time>2011-08-14T09:43:26Z</time>
      </trkpt>
      <trkpt lat="48.43568" lon="7.39655">
        <ele>696</ele>
        <time>2011-08-14T09:43:32Z</time>
      </trkpt>
      <trkpt lat="48.43573" lon="7.39651">
        <ele>696</ele>
        <time>2011-08-14T09:43:38Z</time>
      </trkpt>
      <trkpt lat="48.43575" lon="7.39651">
        <ele>696</ele>
        <time>2011-08-14T09:43:48Z</time>
      </trkpt>
      <trkpt lat="48.43578" lon="7.3965">
        <ele>696</ele>
        <time>2011-08-14T09:43:55Z</time>
      </trkpt>
      <trkpt lat="48.4358" lon="7.39648">
        <ele>696</ele>
        <time>2011-08-14T09:43:59Z</time>
      </trkpt>
      <trkpt lat="48.43584" lon="7.39644">
        <ele>697</ele>
        <time>2011-08-14T09:44:02Z</time>
      </trkpt>
      <trkpt lat="48.43601" lon="7.39645">
        <ele>697</ele>
        <time>2011-08-14T09:44:08Z</time>
      </trkpt>
      <trkpt lat="48.43614" lon="7.39638">
        <ele>696</ele>
        <time>2011-08-14T09:44:12Z</time>
      </trkpt>
      <trkpt lat="48.43641" lon="7.39635">
        <ele>695</ele>
        <time>2011-08-14T09:44:18Z</time>
      </trkpt>
      <trkpt lat="48.43647" lon="7.39635">
        <ele>696</ele>
        <time>2011-08-14T09:44:20Z</time>
      </trkpt>
      <trkpt lat="48.4367" lon="7.39639">
        <ele>696</ele>
        <time>2011-08-14T09:44:26Z</time>
      </trkpt>
      <trkpt lat="48.43681" lon="7.39635">
        <ele>695</ele>
        <time>2011-08-14T09:44:30Z</time>
      </trkpt>
      <trkpt lat="48.43691" lon="7.39631">
        <ele>694</ele>
        <time>2011-08-14T09:44:34Z</time>
      </trkpt>
      <trkpt lat="48.43706" lon="7.39627">
        <ele>694</ele>
        <time>2011-08-14T09:44:39Z</time>
      </trkpt>
      <trkpt lat="48.43718" lon="7.39621">
        <ele>693</ele>
        <time>2011-08-14T09:44:44Z</time>
      </trkpt>
      <trkpt lat="48.43724" lon="7.39619">
        <ele>693</ele>
        <time>2011-08-14T09:44:55Z</time>
      </trkpt>
      <trkpt lat="48.4373" lon="7.39617">
        <ele>693</ele>
        <time>2011-08-14T09:45:17Z</time>
      </trkpt>
      <trkpt lat="48.43735" lon="7.39616">
        <ele>692</ele>
        <time>2011-08-14T09:45:27Z</time>
      </trkpt>
      <trkpt lat="48.43746" lon="7.39619">
        <ele>693</ele>
        <time>2011-08-14T09:45:31Z</time>
      </trkpt>
      <trkpt lat="48.4375" lon="7.39618">
        <ele>691</ele>
        <time>2011-08-14T09:45:33Z</time>
      </trkpt>
      <trkpt lat="48.43756" lon="7.39608">
        <ele>690</ele>
        <time>2011-08-14T09:45:38Z</time>
      </trkpt>
      <trkpt lat="48.43757" lon="7.39596">
        <ele>689</ele>
        <time>2011-08-14T09:45:44Z</time>
      </trkpt>
      <trkpt lat="48.43762" lon="7.39582">
        <ele>685</ele>
        <time>2011-08-14T09:45:49Z</time>
      </trkpt>
      <trkpt lat="48.43766" lon="7.39575">
        <ele>684</ele>
        <time>2011-08-14T09:45:51Z</time>
      </trkpt>
      <trkpt lat="48.43783" lon="7.39567">
        <ele>682</ele>
        <time>2011-08-14T09:45:56Z</time>
      </trkpt>
      <trkpt lat="48.43785" lon="7.39564">
        <ele>682</ele>
        <time>2011-08-14T09:45:57Z</time>
      </trkpt>
      <trkpt lat="48.43792" lon="7.39544">
        <ele>680</ele>
        <time>2011-08-14T09:46:01Z</time>
      </trkpt>
      <trkpt lat="48.43794" lon="7.3953">
        <ele>679</ele>
        <time>2011-08-14T09:46:06Z</time>
      </trkpt>
      <trkpt lat="48.43795" lon="7.39528">
        <ele>679</ele>
        <time>2011-08-14T09:46:14Z</time>
      </trkpt>
      <trkpt lat="48.43797" lon="7.39527">
        <ele>679</ele>
        <time>2011-08-14T09:46:22Z</time>
      </trkpt>
      <trkpt lat="48.43801" lon="7.39524">
        <ele>679</ele>
        <time>2011-08-14T09:46:43Z</time>
      </trkpt>
      <trkpt lat="48.43812" lon="7.39512">
        <ele>679</ele>
        <time>2011-08-14T09:46:49Z</time>
      </trkpt>
      <trkpt lat="48.43814" lon="7.3951">
        <ele>679</ele>
        <time>2011-08-14T09:46:50Z</time>
      </trkpt>
      <trkpt lat="48.43818" lon="7.39506">
        <ele>679</ele>
        <time>2011-08-14T09:46:56Z</time>
      </trkpt>
      <trkpt lat="48.43818" lon="7.39507">
        <ele>679</ele>
        <time>2011-08-14T09:47:14Z</time>
      </trkpt>
      <trkpt lat="48.43823" lon="7.39495">
        <ele>672</ele>
        <time>2011-08-14T09:47:19Z</time>
      </trkpt>
      <trkpt lat="48.43827" lon="7.39493">
        <ele>673</ele>
        <time>2011-08-14T09:47:44Z</time>
      </trkpt>
      <trkpt lat="48.43829" lon="7.39491">
        <ele>673</ele>
        <time>2011-08-14T09:47:53Z</time>
      </trkpt>
      <trkpt lat="48.43832" lon="7.3949">
        <ele>673</ele>
        <time>2011-08-14T09:48:05Z</time>
      </trkpt>
      <trkpt lat="48.43834" lon="7.39488">
        <ele>675</ele>
        <time>2011-08-14T09:48:07Z</time>
      </trkpt>
      <trkpt lat="48.43844" lon="7.39479">
        <ele>673</ele>
        <time>2011-08-14T09:48:12Z</time>
      </trkpt>
      <trkpt lat="48.43848" lon="7.39473">
        <ele>671</ele>
        <time>2011-08-14T09:48:14Z</time>
      </trkpt>
      <trkpt lat="48.43858" lon="7.39457">
        <ele>669</ele>
        <time>2011-08-14T09:48:19Z</time>
      </trkpt>
      <trkpt lat="48.43867" lon="7.39434">
        <ele>668</ele>
        <time>2011-08-14T09:48:23Z</time>
      </trkpt>
      <trkpt lat="48.43875" lon="7.3942">
        <ele>668</ele>
        <time>2011-08-14T09:48:27Z</time>
      </trkpt>
      <trkpt lat="48.4388" lon="7.39413">
        <ele>658</ele>
        <time>2011-08-14T09:48:29Z</time>
      </trkpt>
      <trkpt lat="48.43889" lon="7.39411">
        <ele>659</ele>
        <time>2011-08-14T09:48:33Z</time>
      </trkpt>
      <trkpt lat="48.43903" lon="7.39412">
        <ele>662</ele>
        <time>2011-08-14T09:48:39Z</time>
      </trkpt>
      <trkpt lat="48.43914" lon="7.39416">
        <ele>668</ele>
        <time>2011-08-14T09:48:43Z</time>
      </trkpt>
      <trkpt lat="48.43919" lon="7.39418">
        <ele>669</ele>
        <time>2011-08-14T09:48:48Z</time>
      </trkpt>
      <trkpt lat="48.43921" lon="7.39416">
        <ele>667</ele>
        <time>2011-08-14T09:49:11Z</time>
      </trkpt>
      <trkpt lat="48.43924" lon="7.39423">
        <ele>668</ele>
        <time>2011-08-14T09:49:29Z</time>
      </trkpt>
      <trkpt lat="48.43935" lon="7.3944">
        <ele>667</ele>
        <time>2011-08-14T09:49:33Z</time>
      </trkpt>
      <trkpt lat="48.43948" lon="7.39463">
        <ele>667</ele>
        <time>2011-08-14T09:49:38Z</time>
      </trkpt>
      <trkpt lat="48.43957" lon="7.39483">
        <ele>667</ele>
        <time>2011-08-14T09:49:42Z</time>
      </trkpt>
      <trkpt lat="48.4397" lon="7.39507">
        <ele>671</ele>
        <time>2011-08-14T09:49:47Z</time>
      </trkpt>
      <trkpt lat="48.43971" lon="7.3951">
        <ele>671</ele>
        <time>2011-08-14T09:49:48Z</time>
      </trkpt>
      <trkpt lat="48.43979" lon="7.39523">
        <ele>671</ele>
        <time>2011-08-14T09:49:55Z</time>
      </trkpt>
      <trkpt lat="48.43982" lon="7.39526">
        <ele>671</ele>
        <time>2011-08-14T09:50:02Z</time>
      </trkpt>
      <trkpt lat="48.43991" lon="7.39529">
        <ele>671</ele>
        <time>2011-08-14T09:50:07Z</time>
      </trkpt>
      <trkpt lat="48.43997" lon="7.3953">
        <ele>671</ele>
        <time>2011-08-14T09:50:09Z</time>
      </trkpt>
      <trkpt lat="48.44013" lon="7.39537">
        <ele>667</ele>
        <time>2011-08-14T09:50:14Z</time>
      </trkpt>
      <trkpt lat="48.4403" lon="7.39536">
        <ele>667</ele>
        <time>2011-08-14T09:50:20Z</time>
      </trkpt>
      <trkpt lat="48.44049" lon="7.39538">
        <ele>666</ele>
        <time>2011-08-14T09:50:25Z</time>
      </trkpt>
      <trkpt lat="48.44063" lon="7.39539">
        <ele>666</ele>
        <time>2011-08-14T09:50:29Z</time>
      </trkpt>
      <trkpt lat="48.44065" lon="7.39537">
        <ele>666</ele>
        <time>2011-08-14T09:50:33Z</time>
      </trkpt>
      <trkpt lat="48.44072" lon="7.39542">
        <ele>666</ele>
        <time>2011-08-14T09:50:48Z</time>
      </trkpt>
      <trkpt lat="48.44074" lon="7.39542">
        <ele>666</ele>
        <time>2011-08-14T09:50:49Z</time>
      </trkpt>
      <trkpt lat="48.44079" lon="7.39538">
        <ele>666</ele>
        <time>2011-08-14T09:50:52Z</time>
      </trkpt>
      <trkpt lat="48.44089" lon="7.3953">
        <ele>664</ele>
        <time>2011-08-14T09:50:57Z</time>
      </trkpt>
      <trkpt lat="48.441" lon="7.39518">
        <ele>664</ele>
        <time>2011-08-14T09:51:03Z</time>
      </trkpt>
      <trkpt lat="48.44103" lon="7.39511">
        <ele>664</ele>
        <time>2011-08-14T09:51:06Z</time>
      </trkpt>
      <trkpt lat="48.44106" lon="7.39503">
        <ele>663</ele>
        <time>2011-08-14T09:51:10Z</time>
      </trkpt>
      <trkpt lat="48.44105" lon="7.39477">
        <ele>659</ele>
        <time>2011-08-14T09:51:15Z</time>
      </trkpt>
      <trkpt lat="48.44105" lon="7.39459">
        <ele>658</ele>
        <time>2011-08-14T09:51:18Z</time>
      </trkpt>
      <trkpt lat="48.44108" lon="7.39445">
        <ele>657</ele>
        <time>2011-08-14T09:51:22Z</time>
      </trkpt>
      <trkpt lat="48.44103" lon="7.39425">
        <ele>655</ele>
        <time>2011-08-14T09:51:27Z</time>
      </trkpt>
      <trkpt lat="48.44103" lon="7.39416">
        <ele>650</ele>
        <time>2011-08-14T09:51:29Z</time>
      </trkpt>
      <trkpt lat="48.44107" lon="7.39392">
        <ele>649</ele>
        <time>2011-08-14T09:51:34Z</time>
      </trkpt>
      <trkpt lat="48.44106" lon="7.39376">
        <ele>648</ele>
        <time>2011-08-14T09:51:37Z</time>
      </trkpt>
      <trkpt lat="48.44115" lon="7.39351">
        <ele>647</ele>
        <time>2011-08-14T09:51:42Z</time>
      </trkpt>
      <trkpt lat="48.4412" lon="7.39346">
        <ele>647</ele>
        <time>2011-08-14T09:51:45Z</time>
      </trkpt>
      <trkpt lat="48.44122" lon="7.39341">
        <ele>647</ele>
        <time>2011-08-14T09:51:51Z</time>
      </trkpt>
      <trkpt lat="48.44131" lon="7.39327">
        <ele>639</ele>
        <time>2011-08-14T09:51:57Z</time>
      </trkpt>
      <trkpt lat="48.44134" lon="7.39322">
        <ele>639</ele>
        <time>2011-08-14T09:52:00Z</time>
      </trkpt>
      <trkpt lat="48.44133" lon="7.39313">
        <ele>639</ele>
        <time>2011-08-14T09:52:07Z</time>
      </trkpt>
      <trkpt lat="48.44135" lon="7.39309">
        <ele>638</ele>
        <time>2011-08-14T09:52:29Z</time>
      </trkpt>
      <trkpt lat="48.44136" lon="7.39309">
        <ele>638</ele>
        <time>2011-08-14T09:52:40Z</time>
      </trkpt>
      <trkpt lat="48.44136" lon="7.3931">
        <ele>638</ele>
        <time>2011-08-14T09:52:46Z</time>
      </trkpt>
      <trkpt lat="48.44131" lon="7.39306">
        <ele>638</ele>
        <time>2011-08-14T09:52:52Z</time>
      </trkpt>
      <trkpt lat="48.44128" lon="7.39304">
        <ele>638</ele>
        <time>2011-08-14T09:52:58Z</time>
      </trkpt>
      <trkpt lat="48.44127" lon="7.39301">
        <ele>638</ele>
        <time>2011-08-14T09:53:03Z</time>
      </trkpt>
      <trkpt lat="48.44121" lon="7.39297">
        <ele>637</ele>
        <time>2011-08-14T09:53:07Z</time>
      </trkpt>
      <trkpt lat="48.44121" lon="7.39298">
        <ele>637</ele>
        <time>2011-08-14T09:53:11Z</time>
      </trkpt>
      <trkpt lat="48.44128" lon="7.39299">
        <ele>637</ele>
        <time>2011-08-14T09:53:16Z</time>
      </trkpt>
      <trkpt lat="48.44132" lon="7.393">
        <ele>638</ele>
        <time>2011-08-14T09:53:22Z</time>
      </trkpt>
      <trkpt lat="48.44134" lon="7.39298">
        <ele>637</ele>
        <time>2011-08-14T09:53:27Z</time>
      </trkpt>
      <trkpt lat="48.44134" lon="7.39292">
        <ele>637</ele>
        <time>2011-08-14T09:53:31Z</time>
      </trkpt>
      <trkpt lat="48.44138" lon="7.39286">
        <ele>636</ele>
        <time>2011-08-14T09:53:35Z</time>
      </trkpt>
      <trkpt lat="48.44146" lon="7.39279">
        <ele>636</ele>
        <time>2011-08-14T09:53:40Z</time>
      </trkpt>
      <trkpt lat="48.44154" lon="7.3927">
        <ele>634</ele>
        <time>2011-08-14T09:53:45Z</time>
      </trkpt>
      <trkpt lat="48.44155" lon="7.39269">
        <ele>634</ele>
        <time>2011-08-14T09:53:46Z</time>
      </trkpt>
      <trkpt lat="48.44171" lon="7.39255">
        <ele>632</ele>
        <time>2011-08-14T09:53:52Z</time>
      </trkpt>
      <trkpt lat="48.4418" lon="7.39245">
        <ele>629</ele>
        <time>2011-08-14T09:53:57Z</time>
      </trkpt>
      <trkpt lat="48.44181" lon="7.39243">
        <ele>629</ele>
        <time>2011-08-14T09:54:02Z</time>
      </trkpt>
      <trkpt lat="48.44181" lon="7.39243">
        <ele>629</ele>
        <time>2011-08-14T09:54:10Z</time>
      </trkpt>
      <trkpt lat="48.44188" lon="7.3924">
        <ele>628</ele>
        <time>2011-08-14T09:54:47Z</time>
      </trkpt>
      <trkpt lat="48.44192" lon="7.39244">
        <ele>629</ele>
        <time>2011-08-14T09:55:01Z</time>
      </trkpt>
      <trkpt lat="48.44199" lon="7.39237">
        <ele>628</ele>
        <time>2011-08-14T09:55:06Z</time>
      </trkpt>
      <trkpt lat="48.44209" lon="7.3922">
        <ele>628</ele>
        <time>2011-08-14T09:55:11Z</time>
      </trkpt>
      <trkpt lat="48.44216" lon="7.3921">
        <ele>628</ele>
        <time>2011-08-14T09:55:15Z</time>
      </trkpt>
      <trkpt lat="48.44225" lon="7.39195">
        <ele>627</ele>
        <time>2011-08-14T09:55:19Z</time>
      </trkpt>
      <trkpt lat="48.44231" lon="7.39174">
        <ele>627</ele>
        <time>2011-08-14T09:55:23Z</time>
      </trkpt>
      <trkpt lat="48.44233" lon="7.39159">
        <ele>623</ele>
        <time>2011-08-14T09:55:27Z</time>
      </trkpt>
      <trkpt lat="48.44235" lon="7.39135">
        <ele>621</ele>
        <time>2011-08-14T09:55:33Z</time>
      </trkpt>
      <trkpt lat="48.44236" lon="7.39119">
        <ele>620</ele>
        <time>2011-08-14T09:55:36Z</time>
      </trkpt>
      <trkpt lat="48.44232" lon="7.3909">
        <ele>620</ele>
        <time>2011-08-14T09:55:42Z</time>
      </trkpt>
      <trkpt lat="48.44229" lon="7.39071">
        <ele>615</ele>
        <time>2011-08-14T09:55:47Z</time>
      </trkpt>
      <trkpt lat="48.44227" lon="7.39047">
        <ele>612</ele>
        <time>2011-08-14T09:55:51Z</time>
      </trkpt>
      <trkpt lat="48.44227" lon="7.39025">
        <ele>612</ele>
        <time>2011-08-14T09:55:55Z</time>
      </trkpt>
      <trkpt lat="48.44228" lon="7.38995">
        <ele>608</ele>
        <time>2011-08-14T09:56:00Z</time>
      </trkpt>
      <trkpt lat="48.4423" lon="7.38964">
        <ele>605</ele>
        <time>2011-08-14T09:56:05Z</time>
      </trkpt>
      <trkpt lat="48.44233" lon="7.38941">
        <ele>605</ele>
        <time>2011-08-14T09:56:09Z</time>
      </trkpt>
      <trkpt lat="48.44243" lon="7.38924">
        <ele>608</ele>
        <time>2011-08-14T09:56:13Z</time>
      </trkpt>
      <trkpt lat="48.44248" lon="7.38917">
        <ele>610</ele>
        <time>2011-08-14T09:56:17Z</time>
      </trkpt>
      <trkpt lat="48.44252" lon="7.38908">
        <ele>610</ele>
        <time>2011-08-14T09:56:22Z</time>
      </trkpt>
      <trkpt lat="48.44256" lon="7.38904">
        <ele>609</ele>
        <time>2011-08-14T09:56:26Z</time>
      </trkpt>
      <trkpt lat="48.44267" lon="7.38895">
        <ele>608</ele>
        <time>2011-08-14T09:56:31Z</time>
      </trkpt>
      <trkpt lat="48.44283" lon="7.38882">
        <ele>607</ele>
        <time>2011-08-14T09:56:36Z</time>
      </trkpt>
      <trkpt lat="48.44298" lon="7.38873">
        <ele>607</ele>
        <time>2011-08-14T09:56:40Z</time>
      </trkpt>
      <trkpt lat="48.44314" lon="7.3886">
        <ele>606</ele>
        <time>2011-08-14T09:56:45Z</time>
      </trkpt>
      <trkpt lat="48.44326" lon="7.3885">
        <ele>605</ele>
        <time>2011-08-14T09:56:49Z</time>
      </trkpt>
      <trkpt lat="48.44338" lon="7.38846">
        <ele>605</ele>
        <time>2011-08-14T09:56:52Z</time>
      </trkpt>
      <trkpt lat="48.4436" lon="7.38834">
        <ele>606</ele>
        <time>2011-08-14T09:56:57Z</time>
      </trkpt>
      <trkpt lat="48.44372" lon="7.38824">
        <ele>595</ele>
        <time>2011-08-14T09:57:01Z</time>
      </trkpt>
      <trkpt lat="48.44374" lon="7.3882">
        <ele>595</ele>
        <time>2011-08-14T09:57:05Z</time>
      </trkpt>
      <trkpt lat="48.44381" lon="7.38814">
        <ele>594</ele>
        <time>2011-08-14T09:57:10Z</time>
      </trkpt>
      <trkpt lat="48.44395" lon="7.38812">
        <ele>594</ele>
        <time>2011-08-14T09:57:14Z</time>
      </trkpt>
      <trkpt lat="48.44407" lon="7.38815">
        <ele>596</ele>
        <time>2011-08-14T09:57:17Z</time>
      </trkpt>
      <trkpt lat="48.4443" lon="7.38826">
        <ele>593</ele>
        <time>2011-08-14T09:57:22Z</time>
      </trkpt>
      <trkpt lat="48.44442" lon="7.38841">
        <ele>599</ele>
        <time>2011-08-14T09:57:26Z</time>
      </trkpt>
      <trkpt lat="48.44455" lon="7.3886">
        <ele>599</ele>
        <time>2011-08-14T09:57:31Z</time>
      </trkpt>
      <trkpt lat="48.44467" lon="7.38879">
        <ele>599</ele>
        <time>2011-08-14T09:57:35Z</time>
      </trkpt>
      <trkpt lat="48.44476" lon="7.38899">
        <ele>599</ele>
        <time>2011-08-14T09:57:39Z</time>
      </trkpt>
      <trkpt lat="48.44481" lon="7.38913">
        <ele>599</ele>
        <time>2011-08-14T09:57:42Z</time>
      </trkpt>
      <trkpt lat="48.44494" lon="7.38927">
        <ele>602</ele>
        <time>2011-08-14T09:57:48Z</time>
      </trkpt>
      <trkpt lat="48.44505" lon="7.3894">
        <ele>599</ele>
        <time>2011-08-14T09:57:52Z</time>
      </trkpt>
      <trkpt lat="48.44519" lon="7.38954">
        <ele>600</ele>
        <time>2011-08-14T09:57:57Z</time>
      </trkpt>
      <trkpt lat="48.44539" lon="7.3897">
        <ele>600</ele>
        <time>2011-08-14T09:58:02Z</time>
      </trkpt>
      <trkpt lat="48.44549" lon="7.38974">
        <ele>600</ele>
        <time>2011-08-14T09:58:06Z</time>
      </trkpt>
      <trkpt lat="48.44551" lon="7.38975">
        <ele>600</ele>
        <time>2011-08-14T09:58:07Z</time>
      </trkpt>
      <trkpt lat="48.4456" lon="7.38979">
        <ele>600</ele>
        <time>2011-08-14T09:58:11Z</time>
      </trkpt>
      <trkpt lat="48.44574" lon="7.38982">
        <ele>600</ele>
        <time>2011-08-14T09:58:16Z</time>
      </trkpt>
      <trkpt lat="48.44592" lon="7.38978">
        <ele>597</ele>
        <time>2011-08-14T09:58:20Z</time>
      </trkpt>
      <trkpt lat="48.44608" lon="7.3897">
        <ele>596</ele>
        <time>2011-08-14T09:58:24Z</time>
      </trkpt>
      <trkpt lat="48.44625" lon="7.38966">
        <ele>595</ele>
        <time>2011-08-14T09:58:29Z</time>
      </trkpt>
      <trkpt lat="48.44637" lon="7.38965">
        <ele>595</ele>
        <time>2011-08-14T09:58:34Z</time>
      </trkpt>
      <trkpt lat="48.4466" lon="7.3896">
        <ele>595</ele>
        <time>2011-08-14T09:58:40Z</time>
      </trkpt>
      <trkpt lat="48.44675" lon="7.38962">
        <ele>594</ele>
        <time>2011-08-14T09:58:44Z</time>
      </trkpt>
      <trkpt lat="48.44687" lon="7.38965">
        <ele>594</ele>
        <time>2011-08-14T09:58:48Z</time>
      </trkpt>
      <trkpt lat="48.44701" lon="7.38968">
        <ele>594</ele>
        <time>2011-08-14T09:58:52Z</time>
      </trkpt>
      <trkpt lat="48.44714" lon="7.38973">
        <ele>594</ele>
        <time>2011-08-14T09:58:56Z</time>
      </trkpt>
      <trkpt lat="48.44728" lon="7.38976">
        <ele>594</ele>
        <time>2011-08-14T09:59:01Z</time>
      </trkpt>
      <trkpt lat="48.44741" lon="7.38981">
        <ele>595</ele>
        <time>2011-08-14T09:59:05Z</time>
      </trkpt>
      <trkpt lat="48.44759" lon="7.38984">
        <ele>595</ele>
        <time>2011-08-14T09:59:10Z</time>
      </trkpt>
      <trkpt lat="48.44776" lon="7.38973">
        <ele>594</ele>
        <time>2011-08-14T09:59:14Z</time>
      </trkpt>
      <trkpt lat="48.44795" lon="7.38962">
        <ele>593</ele>
        <time>2011-08-14T09:59:19Z</time>
      </trkpt>
      <trkpt lat="48.44818" lon="7.38955">
        <ele>592</ele>
        <time>2011-08-14T09:59:24Z</time>
      </trkpt>
      <trkpt lat="48.44824" lon="7.38948">
        <ele>591</ele>
        <time>2011-08-14T09:59:27Z</time>
      </trkpt>
      <trkpt lat="48.44836" lon="7.3894">
        <ele>587</ele>
        <time>2011-08-14T09:59:32Z</time>
      </trkpt>
      <trkpt lat="48.44844" lon="7.38938">
        <ele>587</ele>
        <time>2011-08-14T09:59:36Z</time>
      </trkpt>
      <trkpt lat="48.44846" lon="7.38938">
        <ele>587</ele>
        <time>2011-08-14T09:59:38Z</time>
      </trkpt>
      <trkpt lat="48.44849" lon="7.38939">
        <ele>587</ele>
        <time>2011-08-14T09:59:41Z</time>
      </trkpt>
      <trkpt lat="48.44857" lon="7.38941">
        <ele>587</ele>
        <time>2011-08-14T09:59:49Z</time>
      </trkpt>
      <trkpt lat="48.44863" lon="7.3895">
        <ele>588</ele>
        <time>2011-08-14T09:59:56Z</time>
      </trkpt>
      <trkpt lat="48.44864" lon="7.38953">
        <ele>588</ele>
        <time>2011-08-14T10:00:02Z</time>
      </trkpt>
      <trkpt lat="48.44866" lon="7.38952">
        <ele>587</ele>
        <time>2011-08-14T10:00:07Z</time>
      </trkpt>
      <trkpt lat="48.44871" lon="7.38961">
        <ele>588</ele>
        <time>2011-08-14T10:00:12Z</time>
      </trkpt>
      <trkpt lat="48.44873" lon="7.38965">
        <ele>588</ele>
        <time>2011-08-14T10:00:17Z</time>
      </trkpt>
      <trkpt lat="48.44874" lon="7.38964">
        <ele>588</ele>
        <time>2011-08-14T10:00:22Z</time>
      </trkpt>
      <trkpt lat="48.44869" lon="7.38952">
        <ele>587</ele>
        <time>2011-08-14T10:00:27Z</time>
      </trkpt>
      <trkpt lat="48.44868" lon="7.38951">
        <ele>587</ele>
        <time>2011-08-14T10:00:35Z</time>
      </trkpt>
      <trkpt lat="48.44868" lon="7.38948">
        <ele>587</ele>
        <time>2011-08-14T10:00:58Z</time>
      </trkpt>
      <trkpt lat="48.4486" lon="7.38955">
        <ele>588</ele>
        <time>2011-08-14T10:01:03Z</time>
      </trkpt>
      <trkpt lat="48.44858" lon="7.3896">
        <ele>588</ele>
        <time>2011-08-14T10:01:05Z</time>
      </trkpt>
      <trkpt lat="48.44857" lon="7.38977">
        <ele>590</ele>
        <time>2011-08-14T10:01:10Z</time>
      </trkpt>
      <trkpt lat="48.44853" lon="7.38994">
        <ele>592</ele>
        <time>2011-08-14T10:01:16Z</time>
      </trkpt>
      <trkpt lat="48.4485" lon="7.38999">
        <ele>594</ele>
        <time>2011-08-14T10:01:20Z</time>
      </trkpt>
      <trkpt lat="48.44843" lon="7.39011">
        <ele>593</ele>
        <time>2011-08-14T10:01:25Z</time>
      </trkpt>
      <trkpt lat="48.4484" lon="7.39018">
        <ele>592</ele>
        <time>2011-08-14T10:01:29Z</time>
      </trkpt>
      <trkpt lat="48.44836" lon="7.39021">
        <ele>592</ele>
        <time>2011-08-14T10:01:40Z</time>
      </trkpt>
      <trkpt lat="48.44836" lon="7.3902">
        <ele>592</ele>
        <time>2011-08-14T10:01:45Z</time>
      </trkpt>
      <trkpt lat="48.4484" lon="7.39012">
        <ele>593</ele>
        <time>2011-08-14T10:01:50Z</time>
      </trkpt>
      <trkpt lat="48.44842" lon="7.3901">
        <ele>593</ele>
        <time>2011-08-14T10:01:52Z</time>
      </trkpt>
      <trkpt lat="48.44848" lon="7.38996">
        <ele>594</ele>
        <time>2011-08-14T10:01:57Z</time>
      </trkpt>
      <trkpt lat="48.44849" lon="7.38991">
        <ele>593</ele>
        <time>2011-08-14T10:01:58Z</time>
      </trkpt>
      <trkpt lat="48.44856" lon="7.38963">
        <ele>589</ele>
        <time>2011-08-14T10:02:03Z</time>
      </trkpt>
      <trkpt lat="48.44869" lon="7.38952">
        <ele>587</ele>
        <time>2011-08-14T10:02:08Z</time>
      </trkpt>
      <trkpt lat="48.44877" lon="7.38956">
        <ele>587</ele>
        <time>2011-08-14T10:02:11Z</time>
      </trkpt>
      <trkpt lat="48.4488" lon="7.38964">
        <ele>587</ele>
        <time>2011-08-14T10:02:17Z</time>
      </trkpt>
      <trkpt lat="48.44885" lon="7.3897">
        <ele>587</ele>
        <time>2011-08-14T10:02:31Z</time>
      </trkpt>
      <trkpt lat="48.44893" lon="7.38979">
        <ele>586</ele>
        <time>2011-08-14T10:02:36Z</time>
      </trkpt>
      <trkpt lat="48.44898" lon="7.38984">
        <ele>585</ele>
        <time>2011-08-14T10:02:39Z</time>
      </trkpt>
      <trkpt lat="48.44912" lon="7.38989">
        <ele>584</ele>
        <time>2011-08-14T10:02:45Z</time>
      </trkpt>
      <trkpt lat="48.44929" lon="7.38982">
        <ele>576</ele>
        <time>2011-08-14T10:02:50Z</time>
      </trkpt>
      <trkpt lat="48.4494" lon="7.3898">
        <ele>574</ele>
        <time>2011-08-14T10:02:55Z</time>
      </trkpt>
      <trkpt lat="48.4495" lon="7.3898">
        <ele>573</ele>
        <time>2011-08-14T10:03:16Z</time>
      </trkpt>
      <trkpt lat="48.44954" lon="7.38976">
        <ele>572</ele>
        <time>2011-08-14T10:03:25Z</time>
      </trkpt>
      <trkpt lat="48.44959" lon="7.38974">
        <ele>572</ele>
        <time>2011-08-14T10:03:27Z</time>
      </trkpt>
      <trkpt lat="48.44968" lon="7.38965">
        <ele>571</ele>
        <time>2011-08-14T10:03:33Z</time>
      </trkpt>
      <trkpt lat="48.44974" lon="7.38961">
        <ele>570</ele>
        <time>2011-08-14T10:03:38Z</time>
      </trkpt>
      <trkpt lat="48.44977" lon="7.38961">
        <ele>570</ele>
        <time>2011-08-14T10:03:45Z</time>
      </trkpt>
      <trkpt lat="48.44981" lon="7.38959">
        <ele>570</ele>
        <time>2011-08-14T10:03:55Z</time>
      </trkpt>
      <trkpt lat="48.44987" lon="7.3896">
        <ele>569</ele>
        <time>2011-08-14T10:04:04Z</time>
      </trkpt>
      <trkpt lat="48.44993" lon="7.38963">
        <ele>568</ele>
        <time>2011-08-14T10:04:12Z</time>
      </trkpt>
      <trkpt lat="48.44994" lon="7.38965">
        <ele>568</ele>
        <time>2011-08-14T10:04:17Z</time>
      </trkpt>
      <trkpt lat="48.44995" lon="7.3898">
        <ele>565</ele>
        <time>2011-08-14T10:04:22Z</time>
      </trkpt>
      <trkpt lat="48.44995" lon="7.38992">
        <ele>562</ele>
        <time>2011-08-14T10:04:26Z</time>
      </trkpt>
      <trkpt lat="48.44992" lon="7.39013">
        <ele>557</ele>
        <time>2011-08-14T10:04:32Z</time>
      </trkpt>
      <trkpt lat="48.44992" lon="7.39019">
        <ele>557</ele>
        <time>2011-08-14T10:04:34Z</time>
      </trkpt>
      <trkpt lat="48.44992" lon="7.39027">
        <ele>556</ele>
        <time>2011-08-14T10:04:37Z</time>
      </trkpt>
      <trkpt lat="48.44988" lon="7.39039">
        <ele>555</ele>
        <time>2011-08-14T10:04:41Z</time>
      </trkpt>
      <trkpt lat="48.44983" lon="7.39047">
        <ele>554</ele>
        <time>2011-08-14T10:04:45Z</time>
      </trkpt>
      <trkpt lat="48.44974" lon="7.39062">
        <ele>553</ele>
        <time>2011-08-14T10:04:51Z</time>
      </trkpt>
      <trkpt lat="48.44973" lon="7.39064">
        <ele>553</ele>
        <time>2011-08-14T10:05:01Z</time>
      </trkpt>
      <trkpt lat="48.44968" lon="7.39071">
        <ele>553</ele>
        <time>2011-08-14T10:05:17Z</time>
      </trkpt>
      <trkpt lat="48.44967" lon="7.39075">
        <ele>553</ele>
        <time>2011-08-14T10:05:21Z</time>
      </trkpt>
      <trkpt lat="48.44963" lon="7.39086">
        <ele>540</ele>
        <time>2011-08-14T10:05:26Z</time>
      </trkpt>
      <trkpt lat="48.44951" lon="7.391">
        <ele>542</ele>
        <time>2011-08-14T10:05:30Z</time>
      </trkpt>
      <trkpt lat="48.44935" lon="7.39125">
        <ele>541</ele>
        <time>2011-08-14T10:05:35Z</time>
      </trkpt>
      <trkpt lat="48.44928" lon="7.39147">
        <ele>539</ele>
        <time>2011-08-14T10:05:40Z</time>
      </trkpt>
      <trkpt lat="48.4492" lon="7.39167">
        <ele>537</ele>
        <time>2011-08-14T10:05:45Z</time>
      </trkpt>
      <trkpt lat="48.44905" lon="7.39194">
        <ele>545</ele>
        <time>2011-08-14T10:05:51Z</time>
      </trkpt>
      <trkpt lat="48.44894" lon="7.39211">
        <ele>546</ele>
        <time>2011-08-14T10:05:56Z</time>
      </trkpt>
      <trkpt lat="48.44885" lon="7.39232">
        <ele>545</ele>
        <time>2011-08-14T10:06:01Z</time>
      </trkpt>
      <trkpt lat="48.44884" lon="7.39243">
        <ele>545</ele>
        <time>2011-08-14T10:06:05Z</time>
      </trkpt>
      <trkpt lat="48.44879" lon="7.39253">
        <ele>539</ele>
        <time>2011-08-14T10:06:10Z</time>
      </trkpt>
      <trkpt lat="48.44881" lon="7.39254">
        <ele>539</ele>
        <time>2011-08-14T10:06:17Z</time>
      </trkpt>
      <trkpt lat="48.44878" lon="7.3925">
        <ele>539</ele>
        <time>2011-08-14T10:06:34Z</time>
      </trkpt>
      <trkpt lat="48.44879" lon="7.39254">
        <ele>539</ele>
        <time>2011-08-14T10:06:36Z</time>
      </trkpt>
      <trkpt lat="48.44878" lon="7.39268">
        <ele>539</ele>
        <time>2011-08-14T10:06:43Z</time>
      </trkpt>
      <trkpt lat="48.44875" lon="7.39277">
        <ele>539</ele>
        <time>2011-08-14T10:06:47Z</time>
      </trkpt>
      <trkpt lat="48.44871" lon="7.39294">
        <ele>539</ele>
        <time>2011-08-14T10:06:53Z</time>
      </trkpt>
      <trkpt lat="48.4487" lon="7.39298">
        <ele>539</ele>
        <time>2011-08-14T10:06:54Z</time>
      </trkpt>
      <trkpt lat="48.44867" lon="7.39313">
        <ele>540</ele>
        <time>2011-08-14T10:06:58Z</time>
      </trkpt>
      <trkpt lat="48.44867" lon="7.39332">
        <ele>539</ele>
        <time>2011-08-14T10:07:03Z</time>
      </trkpt>
      <trkpt lat="48.44871" lon="7.39352">
        <ele>536</ele>
        <time>2011-08-14T10:07:07Z</time>
      </trkpt>
      <trkpt lat="48.44871" lon="7.39378">
        <ele>535</ele>
        <time>2011-08-14T10:07:11Z</time>
      </trkpt>
      <trkpt lat="48.4487" lon="7.39409">
        <ele>536</ele>
        <time>2011-08-14T10:07:16Z</time>
      </trkpt>
      <trkpt lat="48.44866" lon="7.39436">
        <ele>540</ele>
        <time>2011-08-14T10:07:21Z</time>
      </trkpt>
      <trkpt lat="48.44868" lon="7.39463">
        <ele>541</ele>
        <time>2011-08-14T10:07:27Z</time>
      </trkpt>
      <trkpt lat="48.4487" lon="7.3948">
        <ele>541</ele>
        <time>2011-08-14T10:07:30Z</time>
      </trkpt>
      <trkpt lat="48.44876" lon="7.39495">
        <ele>541</ele>
        <time>2011-08-14T10:07:34Z</time>
      </trkpt>
      <trkpt lat="48.44885" lon="7.39494">
        <ele>540</ele>
        <time>2011-08-14T10:07:47Z</time>
      </trkpt>
      <trkpt lat="48.44885" lon="7.39497">
        <ele>540</ele>
        <time>2011-08-14T10:07:50Z</time>
      </trkpt>
      <trkpt lat="48.44888" lon="7.39505">
        <ele>548</ele>
        <time>2011-08-14T10:07:54Z</time>
      </trkpt>
      <trkpt lat="48.449" lon="7.39516">
        <ele>547</ele>
        <time>2011-08-14T10:07:59Z</time>
      </trkpt>
      <trkpt lat="48.44912" lon="7.39518">
        <ele>546</ele>
        <time>2011-08-14T10:08:03Z</time>
      </trkpt>
      <trkpt lat="48.44922" lon="7.39512">
        <ele>545</ele>
        <time>2011-08-14T10:08:07Z</time>
      </trkpt>
      <trkpt lat="48.44932" lon="7.39504">
        <ele>546</ele>
        <time>2011-08-14T10:08:11Z</time>
      </trkpt>
      <trkpt lat="48.44951" lon="7.3949">
        <ele>534</ele>
        <time>2011-08-14T10:08:17Z</time>
      </trkpt>
      <trkpt lat="48.44969" lon="7.39476">
        <ele>533</ele>
        <time>2011-08-14T10:08:23Z</time>
      </trkpt>
      <trkpt lat="48.44978" lon="7.3947">
        <ele>533</ele>
        <time>2011-08-14T10:08:27Z</time>
      </trkpt>
      <trkpt lat="48.44993" lon="7.39464">
        <ele>532</ele>
        <time>2011-08-14T10:08:31Z</time>
      </trkpt>
      <trkpt lat="48.45009" lon="7.39457">
        <ele>528</ele>
        <time>2011-08-14T10:08:35Z</time>
      </trkpt>
      <trkpt lat="48.45025" lon="7.39455">
        <ele>527</ele>
        <time>2011-08-14T10:08:39Z</time>
      </trkpt>
      <trkpt lat="48.45044" lon="7.39454">
        <ele>526</ele>
        <time>2011-08-14T10:08:44Z</time>
      </trkpt>
      <trkpt lat="48.45066" lon="7.39463">
        <ele>526</ele>
        <time>2011-08-14T10:08:50Z</time>
      </trkpt>
      <trkpt lat="48.45078" lon="7.39468">
        <ele>527</ele>
        <time>2011-08-14T10:08:54Z</time>
      </trkpt>
      <trkpt lat="48.45084" lon="7.3947">
        <ele>525</ele>
        <time>2011-08-14T10:08:56Z</time>
      </trkpt>
      <trkpt lat="48.45092" lon="7.3947">
        <ele>526</ele>
        <time>2011-08-14T10:09:02Z</time>
      </trkpt>
      <trkpt lat="48.45093" lon="7.39472">
        <ele>526</ele>
        <time>2011-08-14T10:09:17Z</time>
      </trkpt>
      <trkpt lat="48.451" lon="7.39473">
        <ele>526</ele>
        <time>2011-08-14T10:09:21Z</time>
      </trkpt>
      <trkpt lat="48.45106" lon="7.39473">
        <ele>526</ele>
        <time>2011-08-14T10:09:25Z</time>
      </trkpt>
      <trkpt lat="48.45112" lon="7.39476">
        <ele>526</ele>
        <time>2011-08-14T10:09:39Z</time>
      </trkpt>
      <trkpt lat="48.45115" lon="7.39474">
        <ele>526</ele>
        <time>2011-08-14T10:09:44Z</time>
      </trkpt>
      <trkpt lat="48.45116" lon="7.39473">
        <ele>525</ele>
        <time>2011-08-14T10:09:52Z</time>
      </trkpt>
      <trkpt lat="48.45118" lon="7.39471">
        <ele>525</ele>
        <time>2011-08-14T10:09:58Z</time>
      </trkpt>
      <trkpt lat="48.45122" lon="7.39466">
        <ele>524</ele>
        <time>2011-08-14T10:10:04Z</time>
      </trkpt>
      <trkpt lat="48.45124" lon="7.39464">
        <ele>524</ele>
        <time>2011-08-14T10:10:13Z</time>
      </trkpt>
      <trkpt lat="48.45129" lon="7.39457">
        <ele>523</ele>
        <time>2011-08-14T10:10:28Z</time>
      </trkpt>
      <trkpt lat="48.45131" lon="7.39457">
        <ele>523</ele>
        <time>2011-08-14T10:10:38Z</time>
      </trkpt>
      <trkpt lat="48.45135" lon="7.39459">
        <ele>524</ele>
        <time>2011-08-14T10:10:42Z</time>
      </trkpt>
      <trkpt lat="48.45144" lon="7.39458">
        <ele>524</ele>
        <time>2011-08-14T10:10:50Z</time>
      </trkpt>
      <trkpt lat="48.4515" lon="7.39457">
        <ele>523</ele>
        <time>2011-08-14T10:10:56Z</time>
      </trkpt>
      <trkpt lat="48.45148" lon="7.39458">
        <ele>524</ele>
        <time>2011-08-14T10:11:01Z</time>
      </trkpt>
      <trkpt lat="48.45147" lon="7.39458">
        <ele>524</ele>
        <time>2011-08-14T10:11:05Z</time>
      </trkpt>
      <trkpt lat="48.45136" lon="7.39458">
        <ele>523</ele>
        <time>2011-08-14T10:11:11Z</time>
      </trkpt>
      <trkpt lat="48.45133" lon="7.39458">
        <ele>523</ele>
        <time>2011-08-14T10:11:12Z</time>
      </trkpt>
      <trkpt lat="48.4513" lon="7.39458">
        <ele>523</ele>
        <time>2011-08-14T10:11:17Z</time>
      </trkpt>
      <trkpt lat="48.4513" lon="7.39458">
        <ele>523</ele>
        <time>2011-08-14T10:11:20Z</time>
      </trkpt>
      <trkpt lat="48.4513" lon="7.39458">
        <ele>523</ele>
        <time>2011-08-14T10:11:21Z</time>
      </trkpt>
      <trkpt lat="48.45128" lon="7.39461">
        <ele>524</ele>
        <time>2011-08-14T10:11:29Z</time>
      </trkpt>
      <trkpt lat="48.45132" lon="7.39458">
        <ele>523</ele>
        <time>2011-08-14T10:11:48Z</time>
      </trkpt>
      <trkpt lat="48.45136" lon="7.39459">
        <ele>523</ele>
        <time>2011-08-14T10:11:59Z</time>
      </trkpt>
      <trkpt lat="48.45146" lon="7.39458">
        <ele>523</ele>
        <time>2011-08-14T10:12:04Z</time>
      </trkpt>
      <trkpt lat="48.45158" lon="7.39454">
        <ele>523</ele>
        <time>2011-08-14T10:12:09Z</time>
      </trkpt>
      <trkpt lat="48.45166" lon="7.39447">
        <ele>521</ele>
        <time>2011-08-14T10:12:13Z</time>
      </trkpt>
      <trkpt lat="48.45175" lon="7.39438">
        <ele>528</ele>
        <time>2011-08-14T10:12:18Z</time>
      </trkpt>
      <trkpt lat="48.45188" lon="7.39426">
        <ele>529</ele>
        <time>2011-08-14T10:12:24Z</time>
      </trkpt>
      <trkpt lat="48.45201" lon="7.39414">
        <ele>519</ele>
        <time>2011-08-14T10:12:30Z</time>
      </trkpt>
      <trkpt lat="48.45211" lon="7.39403">
        <ele>521</ele>
        <time>2011-08-14T10:12:35Z</time>
      </trkpt>
      <trkpt lat="48.45223" lon="7.39383">
        <ele>521</ele>
        <time>2011-08-14T10:12:42Z</time>
      </trkpt>
      <trkpt lat="48.45233" lon="7.39365">
        <ele>520</ele>
        <time>2011-08-14T10:12:48Z</time>
      </trkpt>
      <trkpt lat="48.4525" lon="7.39333">
        <ele>522</ele>
        <time>2011-08-14T10:12:58Z</time>
      </trkpt>
      <trkpt lat="48.45265" lon="7.39314">
        <ele>525</ele>
        <time>2011-08-14T10:13:05Z</time>
      </trkpt>
      <trkpt lat="48.45277" lon="7.39301">
        <ele>526</ele>
        <time>2011-08-14T10:13:11Z</time>
      </trkpt>
      <trkpt lat="48.45287" lon="7.3929">
        <ele>527</ele>
        <time>2011-08-14T10:13:17Z</time>
      </trkpt>
      <trkpt lat="48.453" lon="7.39274">
        <ele>527</ele>
        <time>2011-08-14T10:13:26Z</time>
      </trkpt>
      <trkpt lat="48.4531" lon="7.39264">
        <ele>528</ele>
        <time>2011-08-14T10:13:33Z</time>
      </trkpt>
      <trkpt lat="48.45319" lon="7.39253">
        <ele>530</ele>
        <time>2011-08-14T10:13:40Z</time>
      </trkpt>
      <trkpt lat="48.45332" lon="7.39238">
        <ele>521</ele>
        <time>2011-08-14T10:13:48Z</time>
      </trkpt>
      <trkpt lat="48.45343" lon="7.39227">
        <ele>530</ele>
        <time>2011-08-14T10:13:55Z</time>
      </trkpt>
      <trkpt lat="48.45358" lon="7.39213">
        <ele>528</ele>
        <time>2011-08-14T10:14:03Z</time>
      </trkpt>
      <trkpt lat="48.45374" lon="7.39197">
        <ele>528</ele>
        <time>2011-08-14T10:14:11Z</time>
      </trkpt>
      <trkpt lat="48.45391" lon="7.39181">
        <ele>528</ele>
        <time>2011-08-14T10:14:19Z</time>
      </trkpt>
      <trkpt lat="48.45403" lon="7.39172">
        <ele>527</ele>
        <time>2011-08-14T10:14:26Z</time>
      </trkpt>
      <trkpt lat="48.45411" lon="7.39166">
        <ele>520</ele>
        <time>2011-08-14T10:14:31Z</time>
      </trkpt>
      <trkpt lat="48.45421" lon="7.39161">
        <ele>523</ele>
        <time>2011-08-14T10:14:37Z</time>
      </trkpt>
      <trkpt lat="48.45441" lon="7.39152">
        <ele>519</ele>
        <time>2011-08-14T10:14:46Z</time>
      </trkpt>
      <trkpt lat="48.45457" lon="7.39149">
        <ele>519</ele>
        <time>2011-08-14T10:14:53Z</time>
      </trkpt>
      <trkpt lat="48.45472" lon="7.39147">
        <ele>520</ele>
        <time>2011-08-14T10:15:00Z</time>
      </trkpt>
      <trkpt lat="48.45479" lon="7.39148">
        <ele>521</ele>
        <time>2011-08-14T10:15:05Z</time>
      </trkpt>
      <trkpt lat="48.45491" lon="7.39149">
        <ele>523</ele>
        <time>2011-08-14T10:15:12Z</time>
      </trkpt>
      <trkpt lat="48.45505" lon="7.39157">
        <ele>525</ele>
        <time>2011-08-14T10:15:19Z</time>
      </trkpt>
      <trkpt lat="48.45525" lon="7.39174">
        <ele>535</ele>
        <time>2011-08-14T10:15:27Z</time>
      </trkpt>
      <trkpt lat="48.45542" lon="7.39188">
        <ele>535</ele>
        <time>2011-08-14T10:15:34Z</time>
      </trkpt>
      <trkpt lat="48.45554" lon="7.39196">
        <ele>535</ele>
        <time>2011-08-14T10:15:39Z</time>
      </trkpt>
      <trkpt lat="48.45559" lon="7.39196">
        <ele>535</ele>
        <time>2011-08-14T10:15:48Z</time>
      </trkpt>
      <trkpt lat="48.45568" lon="7.39207">
        <ele>536</ele>
        <time>2011-08-14T10:15:53Z</time>
      </trkpt>
      <trkpt lat="48.45586" lon="7.39217">
        <ele>531</ele>
        <time>2011-08-14T10:15:59Z</time>
      </trkpt>
      <trkpt lat="48.45602" lon="7.39229">
        <ele>532</ele>
        <time>2011-08-14T10:16:05Z</time>
      </trkpt>
      <trkpt lat="48.45617" lon="7.3924">
        <ele>531</ele>
        <time>2011-08-14T10:16:11Z</time>
      </trkpt>
      <trkpt lat="48.45639" lon="7.39258">
        <ele>541</ele>
        <time>2011-08-14T10:16:19Z</time>
      </trkpt>
      <trkpt lat="48.45657" lon="7.39273">
        <ele>541</ele>
        <time>2011-08-14T10:16:26Z</time>
      </trkpt>
      <trkpt lat="48.45673" lon="7.39287">
        <ele>534</ele>
        <time>2011-08-14T10:16:33Z</time>
      </trkpt>
      <trkpt lat="48.45698" lon="7.39309">
        <ele>535</ele>
        <time>2011-08-14T10:16:43Z</time>
      </trkpt>
      <trkpt lat="48.45719" lon="7.39332">
        <ele>534</ele>
        <time>2011-08-14T10:16:52Z</time>
      </trkpt>
      <trkpt lat="48.45734" lon="7.39349">
        <ele>544</ele>
        <time>2011-08-14T10:16:59Z</time>
      </trkpt>
      <trkpt lat="48.45743" lon="7.3936">
        <ele>545</ele>
        <time>2011-08-14T10:17:04Z</time>
      </trkpt>
      <trkpt lat="48.45758" lon="7.3938">
        <ele>538</ele>
        <time>2011-08-14T10:17:11Z</time>
      </trkpt>
      <trkpt lat="48.45774" lon="7.39405">
        <ele>541</ele>
        <time>2011-08-14T10:17:19Z</time>
      </trkpt>
      <trkpt lat="48.45786" lon="7.39428">
        <ele>548</ele>
        <time>2011-08-14T10:17:26Z</time>
      </trkpt>
      <trkpt lat="48.45795" lon="7.39441">
        <ele>547</ele>
        <time>2011-08-14T10:17:32Z</time>
      </trkpt>
      <trkpt lat="48.45802" lon="7.39454">
        <ele>547</ele>
        <time>2011-08-14T10:17:37Z</time>
      </trkpt>
      <trkpt lat="48.45809" lon="7.3947">
        <ele>547</ele>
        <time>2011-08-14T10:17:43Z</time>
      </trkpt>
      <trkpt lat="48.45815" lon="7.39484">
        <ele>546</ele>
        <time>2011-08-14T10:17:49Z</time>
      </trkpt>
      <trkpt lat="48.45819" lon="7.39492">
        <ele>546</ele>
        <time>2011-08-14T10:17:54Z</time>
      </trkpt>
      <trkpt lat="48.45825" lon="7.39503">
        <ele>548</ele>
        <time>2011-08-14T10:18:01Z</time>
      </trkpt>
      <trkpt lat="48.45831" lon="7.39514">
        <ele>551</ele>
        <time>2011-08-14T10:18:07Z</time>
      </trkpt>
      <trkpt lat="48.45838" lon="7.39529">
        <ele>537</ele>
        <time>2011-08-14T10:18:13Z</time>
      </trkpt>
      <trkpt lat="48.45842" lon="7.39535">
        <ele>537</ele>
        <time>2011-08-14T10:18:18Z</time>
      </trkpt>
      <trkpt lat="48.45841" lon="7.39537">
        <ele>538</ele>
        <time>2011-08-14T10:18:26Z</time>
      </trkpt>
      <trkpt lat="48.45849" lon="7.39556">
        <ele>540</ele>
        <time>2011-08-14T10:18:33Z</time>
      </trkpt>
      <trkpt lat="48.45858" lon="7.3958">
        <ele>541</ele>
        <time>2011-08-14T10:18:38Z</time>
      </trkpt>
      <trkpt lat="48.45865" lon="7.39599">
        <ele>547</ele>
        <time>2011-08-14T10:18:41Z</time>
      </trkpt>
      <trkpt lat="48.4588" lon="7.3964">
        <ele>547</ele>
        <time>2011-08-14T10:18:47Z</time>
      </trkpt>
      <trkpt lat="48.45899" lon="7.39689">
        <ele>552</ele>
        <time>2011-08-14T10:18:53Z</time>
      </trkpt>
      <trkpt lat="48.45909" lon="7.39705">
        <ele>553</ele>
        <time>2011-08-14T10:18:56Z</time>
      </trkpt>
      <trkpt lat="48.45944" lon="7.39749">
        <ele>533</ele>
        <time>2011-08-14T10:19:03Z</time>
      </trkpt>
      <trkpt lat="48.45966" lon="7.39784">
        <ele>532</ele>
        <time>2011-08-14T10:19:07Z</time>
      </trkpt>
      <trkpt lat="48.45983" lon="7.39812">
        <ele>530</ele>
        <time>2011-08-14T10:19:11Z</time>
      </trkpt>
      <trkpt lat="48.45986" lon="7.39817">
        <ele>529</ele>
        <time>2011-08-14T10:19:12Z</time>
      </trkpt>
      <trkpt lat="48.45987" lon="7.39839">
        <ele>525</ele>
        <time>2011-08-14T10:19:16Z</time>
      </trkpt>
      <trkpt lat="48.45982" lon="7.39845">
        <ele>526</ele>
        <time>2011-08-14T10:19:19Z</time>
      </trkpt>
      <trkpt lat="48.4598" lon="7.39848">
        <ele>526</ele>
        <time>2011-08-14T10:19:25Z</time>
      </trkpt>
      <trkpt lat="48.45981" lon="7.39848">
        <ele>526</ele>
        <time>2011-08-14T10:19:27Z</time>
      </trkpt>
      <trkpt lat="48.45989" lon="7.39837">
        <ele>524</ele>
        <time>2011-08-14T10:19:32Z</time>
      </trkpt>
      <trkpt lat="48.45991" lon="7.39833">
        <ele>526</ele>
        <time>2011-08-14T10:19:33Z</time>
      </trkpt>
      <trkpt lat="48.45995" lon="7.39822">
        <ele>527</ele>
        <time>2011-08-14T10:19:35Z</time>
      </trkpt>
      <trkpt lat="48.46007" lon="7.39808">
        <ele>518</ele>
        <time>2011-08-14T10:19:39Z</time>
      </trkpt>
      <trkpt lat="48.46017" lon="7.39806">
        <ele>517</ele>
        <time>2011-08-14T10:19:41Z</time>
      </trkpt>
      <trkpt lat="48.46034" lon="7.39806">
        <ele>517</ele>
        <time>2011-08-14T10:19:45Z</time>
      </trkpt>
      <trkpt lat="48.46057" lon="7.39819">
        <ele>517</ele>
        <time>2011-08-14T10:19:51Z</time>
      </trkpt>
      <trkpt lat="48.4606" lon="7.39823">
        <ele>517</ele>
        <time>2011-08-14T10:19:52Z</time>
      </trkpt>
      <trkpt lat="48.46072" lon="7.39843">
        <ele>515</ele>
        <time>2011-08-14T10:19:58Z</time>
      </trkpt>
      <trkpt lat="48.46075" lon="7.39843">
        <ele>515</ele>
        <time>2011-08-14T10:20:04Z</time>
      </trkpt>
      <trkpt lat="48.46083" lon="7.39842">
        <ele>516</ele>
        <time>2011-08-14T10:20:21Z</time>
      </trkpt>
      <trkpt lat="48.46077" lon="7.39849">
        <ele>514</ele>
        <time>2011-08-14T10:20:25Z</time>
      </trkpt>
      <trkpt lat="48.46052" lon="7.39863">
        <ele>511</ele>
        <time>2011-08-14T10:20:28Z</time>
      </trkpt>
      <trkpt lat="48.46015" lon="7.39876">
        <ele>511</ele>
        <time>2011-08-14T10:20:34Z</time>
      </trkpt>
      <trkpt lat="48.45998" lon="7.39884">
        <ele>521</ele>
        <time>2011-08-14T10:20:37Z</time>
      </trkpt>
      <trkpt lat="48.45964" lon="7.39919">
        <ele>513</ele>
        <time>2011-08-14T10:20:42Z</time>
      </trkpt>
      <trkpt lat="48.45933" lon="7.39968">
        <ele>515</ele>
        <time>2011-08-14T10:20:47Z</time>
      </trkpt>
      <trkpt lat="48.45913" lon="7.40011">
        <ele>527</ele>
        <time>2011-08-14T10:20:51Z</time>
      </trkpt>
      <trkpt lat="48.45909" lon="7.40057">
        <ele>529</ele>
        <time>2011-08-14T10:20:56Z</time>
      </trkpt>
      <trkpt lat="48.45917" lon="7.40094">
        <ele>511</ele>
        <time>2011-08-14T10:21:00Z</time>
      </trkpt>
      <trkpt lat="48.45929" lon="7.40129">
        <ele>509</ele>
        <time>2011-08-14T10:21:04Z</time>
      </trkpt>
      <trkpt lat="48.45937" lon="7.4015">
        <ele>510</ele>
        <time>2011-08-14T10:21:07Z</time>
      </trkpt>
      <trkpt lat="48.45964" lon="7.40191">
        <ele>515</ele>
        <time>2011-08-14T10:21:14Z</time>
      </trkpt>
      <trkpt lat="48.45982" lon="7.4022">
        <ele>515</ele>
        <time>2011-08-14T10:21:19Z</time>
      </trkpt>
      <trkpt lat="48.45998" lon="7.40259">
        <ele>516</ele>
        <time>2011-08-14T10:21:25Z</time>
      </trkpt>
      <trkpt lat="48.46008" lon="7.40287">
        <ele>502</ele>
        <time>2011-08-14T10:21:30Z</time>
      </trkpt>
      <trkpt lat="48.46021" lon="7.40318">
        <ele>505</ele>
        <time>2011-08-14T10:21:36Z</time>
      </trkpt>
      <trkpt lat="48.46023" lon="7.40323">
        <ele>505</ele>
        <time>2011-08-14T10:21:37Z</time>
      </trkpt>
      <trkpt lat="48.46033" lon="7.40355">
        <ele>506</ele>
        <time>2011-08-14T10:21:42Z</time>
      </trkpt>
      <trkpt lat="48.4604" lon="7.40399">
        <ele>505</ele>
        <time>2011-08-14T10:21:47Z</time>
      </trkpt>
      <trkpt lat="48.46039" lon="7.40425">
        <ele>508</ele>
        <time>2011-08-14T10:21:51Z</time>
      </trkpt>
      <trkpt lat="48.46041" lon="7.40435">
        <ele>507</ele>
        <time>2011-08-14T10:21:56Z</time>
      </trkpt>
      <trkpt lat="48.46042" lon="7.40449">
        <ele>507</ele>
        <time>2011-08-14T10:22:02Z</time>
      </trkpt>
      <trkpt lat="48.46044" lon="7.40468">
        <ele>507</ele>
        <time>2011-08-14T10:22:06Z</time>
      </trkpt>
      <trkpt lat="48.46047" lon="7.40509">
        <ele>503</ele>
        <time>2011-08-14T10:22:11Z</time>
      </trkpt>
      <trkpt lat="48.46046" lon="7.40561">
        <ele>501</ele>
        <time>2011-08-14T10:22:17Z</time>
      </trkpt>
      <trkpt lat="48.4605" lon="7.40582">
        <ele>500</ele>
        <time>2011-08-14T10:22:21Z</time>
      </trkpt>
      <trkpt lat="48.4605" lon="7.40603">
        <ele>492</ele>
        <time>2011-08-14T10:22:25Z</time>
      </trkpt>
      <trkpt lat="48.46052" lon="7.40627">
        <ele>491</ele>
        <time>2011-08-14T10:22:31Z</time>
      </trkpt>
      <trkpt lat="48.46051" lon="7.40628">
        <ele>491</ele>
        <time>2011-08-14T10:22:36Z</time>
      </trkpt>
      <trkpt lat="48.46048" lon="7.40637">
        <ele>490</ele>
        <time>2011-08-14T10:22:44Z</time>
      </trkpt>
      <trkpt lat="48.46048" lon="7.40638">
        <ele>490</ele>
        <time>2011-08-14T10:22:49Z</time>
      </trkpt>
      <trkpt lat="48.46046" lon="7.40641">
        <ele>490</ele>
        <time>2011-08-14T10:23:03Z</time>
      </trkpt>
      <trkpt lat="48.46044" lon="7.40648">
        <ele>489</ele>
        <time>2011-08-14T10:23:16Z</time>
      </trkpt>
      <trkpt lat="48.46049" lon="7.40656">
        <ele>489</ele>
        <time>2011-08-14T10:23:21Z</time>
      </trkpt>
      <trkpt lat="48.46048" lon="7.40662">
        <ele>489</ele>
        <time>2011-08-14T10:23:26Z</time>
      </trkpt>
      <trkpt lat="48.46047" lon="7.40663">
        <ele>489</ele>
        <time>2011-08-14T10:23:32Z</time>
      </trkpt>
      <trkpt lat="48.46045" lon="7.40669">
        <ele>482</ele>
        <time>2011-08-14T10:23:40Z</time>
      </trkpt>
      <trkpt lat="48.46046" lon="7.40686">
        <ele>481</ele>
        <time>2011-08-14T10:23:44Z</time>
      </trkpt>
      <trkpt lat="48.46049" lon="7.40716">
        <ele>480</ele>
        <time>2011-08-14T10:23:49Z</time>
      </trkpt>
      <trkpt lat="48.46049" lon="7.40729">
        <ele>480</ele>
        <time>2011-08-14T10:23:51Z</time>
      </trkpt>
      <trkpt lat="48.46056" lon="7.40773">
        <ele>476</ele>
        <time>2011-08-14T10:23:57Z</time>
      </trkpt>
      <trkpt lat="48.46058" lon="7.40813">
        <ele>475</ele>
        <time>2011-08-14T10:24:01Z</time>
      </trkpt>
      <trkpt lat="48.46059" lon="7.40847">
        <ele>470</ele>
        <time>2011-08-14T10:24:04Z</time>
      </trkpt>
      <trkpt lat="48.46062" lon="7.40888">
        <ele>467</ele>
        <time>2011-08-14T10:24:08Z</time>
      </trkpt>
      <trkpt lat="48.46071" lon="7.40936">
        <ele>461</ele>
        <time>2011-08-14T10:24:13Z</time>
      </trkpt>
      <trkpt lat="48.46073" lon="7.40946">
        <ele>459</ele>
        <time>2011-08-14T10:24:14Z</time>
      </trkpt>
      <trkpt lat="48.46087" lon="7.40989">
        <ele>464</ele>
        <time>2011-08-14T10:24:19Z</time>
      </trkpt>
      <trkpt lat="48.4609" lon="7.41">
        <ele>463</ele>
        <time>2011-08-14T10:24:20Z</time>
      </trkpt>
      <trkpt lat="48.46097" lon="7.41026">
        <ele>457</ele>
        <time>2011-08-14T10:24:23Z</time>
      </trkpt>
      <trkpt lat="48.46114" lon="7.41047">
        <ele>455</ele>
        <time>2011-08-14T10:24:28Z</time>
      </trkpt>
      <trkpt lat="48.46128" lon="7.41049">
        <ele>455</ele>
        <time>2011-08-14T10:24:32Z</time>
      </trkpt>
      <trkpt lat="48.46142" lon="7.41046">
        <ele>455</ele>
        <time>2011-08-14T10:24:36Z</time>
      </trkpt>
      <trkpt lat="48.46155" lon="7.41038">
        <ele>456</ele>
        <time>2011-08-14T10:24:41Z</time>
      </trkpt>
      <trkpt lat="48.4616" lon="7.41032">
        <ele>458</ele>
        <time>2011-08-14T10:24:44Z</time>
      </trkpt>
      <trkpt lat="48.46185" lon="7.41014">
        <ele>453</ele>
        <time>2011-08-14T10:24:49Z</time>
      </trkpt>
      <trkpt lat="48.46196" lon="7.41005">
        <ele>451</ele>
        <time>2011-08-14T10:24:51Z</time>
      </trkpt>
      <trkpt lat="48.46228" lon="7.4098">
        <ele>458</ele>
        <time>2011-08-14T10:24:56Z</time>
      </trkpt>
      <trkpt lat="48.46262" lon="7.40953">
        <ele>444</ele>
        <time>2011-08-14T10:25:01Z</time>
      </trkpt>
      <trkpt lat="48.46294" lon="7.40922">
        <ele>441</ele>
        <time>2011-08-14T10:25:06Z</time>
      </trkpt>
      <trkpt lat="48.46342" lon="7.40876">
        <ele>431</ele>
        <time>2011-08-14T10:25:12Z</time>
      </trkpt>
      <trkpt lat="48.46368" lon="7.40845">
        <ele>429</ele>
        <time>2011-08-14T10:25:16Z</time>
      </trkpt>
      <trkpt lat="48.46374" lon="7.40837">
        <ele>428</ele>
        <time>2011-08-14T10:25:17Z</time>
      </trkpt>
      <trkpt lat="48.46389" lon="7.40807">
        <ele>427</ele>
        <time>2011-08-14T10:25:21Z</time>
      </trkpt>
      <trkpt lat="48.46395" lon="7.40774">
        <ele>425</ele>
        <time>2011-08-14T10:25:25Z</time>
      </trkpt>
      <trkpt lat="48.46396" lon="7.40744">
        <ele>418</ele>
        <time>2011-08-14T10:25:30Z</time>
      </trkpt>
      <trkpt lat="48.46403" lon="7.40751">
        <ele>420</ele>
        <time>2011-08-14T10:25:33Z</time>
      </trkpt>
      <trkpt lat="48.46408" lon="7.40769">
        <ele>422</ele>
        <time>2011-08-14T10:25:36Z</time>
      </trkpt>
      <trkpt lat="48.46423" lon="7.408">
        <ele>409</ele>
        <time>2011-08-14T10:25:40Z</time>
      </trkpt>
      <trkpt lat="48.46431" lon="7.40819">
        <ele>411</ele>
        <time>2011-08-14T10:25:42Z</time>
      </trkpt>
      <trkpt lat="48.46431" lon="7.40862">
        <ele>409</ele>
        <time>2011-08-14T10:25:46Z</time>
      </trkpt>
      <trkpt lat="48.46428" lon="7.40883">
        <ele>408</ele>
        <time>2011-08-14T10:25:50Z</time>
      </trkpt>
      <trkpt lat="48.46431" lon="7.40885">
        <ele>407</ele>
        <time>2011-08-14T10:25:53Z</time>
      </trkpt>
      <trkpt lat="48.46445" lon="7.4087">
        <ele>406</ele>
        <time>2011-08-14T10:25:58Z</time>
      </trkpt>
      <trkpt lat="48.46459" lon="7.40835">
        <ele>405</ele>
        <time>2011-08-14T10:26:03Z</time>
      </trkpt>
      <trkpt lat="48.46461" lon="7.40826">
        <ele>404</ele>
        <time>2011-08-14T10:26:04Z</time>
      </trkpt>
      <trkpt lat="48.46465" lon="7.40785">
        <ele>403</ele>
        <time>2011-08-14T10:26:08Z</time>
      </trkpt>
      <trkpt lat="48.46457" lon="7.40744">
        <ele>397</ele>
        <time>2011-08-14T10:26:12Z</time>
      </trkpt>
      <trkpt lat="48.46449" lon="7.40724">
        <ele>397</ele>
        <time>2011-08-14T10:26:14Z</time>
      </trkpt>
      <trkpt lat="48.46429" lon="7.40669">
        <ele>397</ele>
        <time>2011-08-14T10:26:20Z</time>
      </trkpt>
      <trkpt lat="48.46415" lon="7.40644">
        <ele>404</ele>
        <time>2011-08-14T10:26:24Z</time>
      </trkpt>
      <trkpt lat="48.46413" lon="7.40638">
        <ele>404</ele>
        <time>2011-08-14T10:26:25Z</time>
      </trkpt>
      <trkpt lat="48.46412" lon="7.4063">
        <ele>404</ele>
        <time>2011-08-14T10:26:27Z</time>
      </trkpt>
      <trkpt lat="48.4643" lon="7.40642">
        <ele>386</ele>
        <time>2011-08-14T10:26:33Z</time>
      </trkpt>
      <trkpt lat="48.46432" lon="7.40647">
        <ele>387</ele>
        <time>2011-08-14T10:26:34Z</time>
      </trkpt>
      <trkpt lat="48.4645" lon="7.40676">
        <ele>393</ele>
        <time>2011-08-14T10:26:39Z</time>
      </trkpt>
      <trkpt lat="48.4648" lon="7.40707">
        <ele>390</ele>
        <time>2011-08-14T10:26:44Z</time>
      </trkpt>
      <trkpt lat="48.46508" lon="7.40729">
        <ele>376</ele>
        <time>2011-08-14T10:26:48Z</time>
      </trkpt>
      <trkpt lat="48.46515" lon="7.40735">
        <ele>376</ele>
        <time>2011-08-14T10:26:49Z</time>
      </trkpt>
      <trkpt lat="48.46533" lon="7.40752">
        <ele>378</ele>
        <time>2011-08-14T10:26:52Z</time>
      </trkpt>
      <trkpt lat="48.46543" lon="7.40762">
        <ele>376</ele>
        <time>2011-08-14T10:26:54Z</time>
      </trkpt>
      <trkpt lat="48.46565" lon="7.40788">
        <ele>374</ele>
        <time>2011-08-14T10:26:58Z</time>
      </trkpt>
      <trkpt lat="48.46582" lon="7.40817">
        <ele>372</ele>
        <time>2011-08-14T10:27:02Z</time>
      </trkpt>
      <trkpt lat="48.46602" lon="7.40841">
        <ele>363</ele>
        <time>2011-08-14T10:27:06Z</time>
      </trkpt>
      <trkpt lat="48.46623" lon="7.40858">
        <ele>360</ele>
        <time>2011-08-14T10:27:10Z</time>
      </trkpt>
      <trkpt lat="48.46655" lon="7.40864">
        <ele>357</ele>
        <time>2011-08-14T10:27:15Z</time>
      </trkpt>
      <trkpt lat="48.46685" lon="7.40862">
        <ele>346</ele>
        <time>2011-08-14T10:27:19Z</time>
      </trkpt>
      <trkpt lat="48.46704" lon="7.40872">
        <ele>344</ele>
        <time>2011-08-14T10:27:22Z</time>
      </trkpt>
      <trkpt lat="48.46719" lon="7.409">
        <ele>343</ele>
        <time>2011-08-14T10:27:26Z</time>
      </trkpt>
      <trkpt lat="48.46736" lon="7.40933">
        <ele>336</ele>
        <time>2011-08-14T10:27:30Z</time>
      </trkpt>
      <trkpt lat="48.46736" lon="7.40958">
        <ele>333</ele>
        <time>2011-08-14T10:27:33Z</time>
      </trkpt>
      <trkpt lat="48.46734" lon="7.40966">
        <ele>333</ele>
        <time>2011-08-14T10:27:36Z</time>
      </trkpt>
      <trkpt lat="48.46732" lon="7.40966">
        <ele>333</ele>
        <time>2011-08-14T10:27:41Z</time>
      </trkpt>
      <trkpt lat="48.46736" lon="7.40964">
        <ele>333</ele>
        <time>2011-08-14T10:27:50Z</time>
      </trkpt>
      <trkpt lat="48.46741" lon="7.40961">
        <ele>333</ele>
        <time>2011-08-14T10:27:59Z</time>
      </trkpt>
      <trkpt lat="48.46742" lon="7.40956">
        <ele>333</ele>
        <time>2011-08-14T10:28:17Z</time>
      </trkpt>
      <trkpt lat="48.46747" lon="7.40951">
        <ele>334</ele>
        <time>2011-08-14T10:28:21Z</time>
      </trkpt>
      <trkpt lat="48.46749" lon="7.40947">
        <ele>334</ele>
        <time>2011-08-14T10:28:23Z</time>
      </trkpt>
      <trkpt lat="48.46754" lon="7.40931">
        <ele>324</ele>
        <time>2011-08-14T10:28:28Z</time>
      </trkpt>
      <trkpt lat="48.46768" lon="7.40898">
        <ele>322</ele>
        <time>2011-08-14T10:28:34Z</time>
      </trkpt>
      <trkpt lat="48.46776" lon="7.4088">
        <ele>319</ele>
        <time>2011-08-14T10:28:38Z</time>
      </trkpt>
      <trkpt lat="48.46782" lon="7.40852">
        <ele>318</ele>
        <time>2011-08-14T10:28:42Z</time>
      </trkpt>
      <trkpt lat="48.46779" lon="7.40838">
        <ele>320</ele>
        <time>2011-08-14T10:28:44Z</time>
      </trkpt>
      <trkpt lat="48.46771" lon="7.40797">
        <ele>317</ele>
        <time>2011-08-14T10:28:49Z</time>
      </trkpt>
      <trkpt lat="48.4677" lon="7.40781">
        <ele>317</ele>
        <time>2011-08-14T10:28:51Z</time>
      </trkpt>
      <trkpt lat="48.46767" lon="7.40758">
        <ele>318</ele>
        <time>2011-08-14T10:28:54Z</time>
      </trkpt>
      <trkpt lat="48.46756" lon="7.40722">
        <ele>312</ele>
        <time>2011-08-14T10:29:00Z</time>
      </trkpt>
      <trkpt lat="48.46746" lon="7.40693">
        <ele>321</ele>
        <time>2011-08-14T10:29:04Z</time>
      </trkpt>
      <trkpt lat="48.46741" lon="7.4066">
        <ele>313</ele>
        <time>2011-08-14T10:29:09Z</time>
      </trkpt>
      <trkpt lat="48.4674" lon="7.40654">
        <ele>313</ele>
        <time>2011-08-14T10:29:10Z</time>
      </trkpt>
      <trkpt lat="48.4673" lon="7.40634">
        <ele>315</ele>
        <time>2011-08-14T10:29:15Z</time>
      </trkpt>
      <trkpt lat="48.46725" lon="7.40629">
        <ele>315</ele>
        <time>2011-08-14T10:29:18Z</time>
      </trkpt>
      <trkpt lat="48.46724" lon="7.40616">
        <ele>315</ele>
        <time>2011-08-14T10:29:24Z</time>
      </trkpt>
      <trkpt lat="48.46728" lon="7.40606">
        <ele>313</ele>
        <time>2011-08-14T10:29:28Z</time>
      </trkpt>
      <trkpt lat="48.46734" lon="7.40609">
        <ele>312</ele>
        <time>2011-08-14T10:29:32Z</time>
      </trkpt>
      <trkpt lat="48.46742" lon="7.40617">
        <ele>312</ele>
        <time>2011-08-14T10:29:38Z</time>
      </trkpt>
      <trkpt lat="48.46748" lon="7.40622">
        <ele>313</ele>
        <time>2011-08-14T10:29:42Z</time>
      </trkpt>
      <trkpt lat="48.46761" lon="7.40632">
        <ele>301</ele>
        <time>2011-08-14T10:29:48Z</time>
      </trkpt>
      <trkpt lat="48.46779" lon="7.40654">
        <ele>301</ele>
        <time>2011-08-14T10:29:54Z</time>
      </trkpt>
      <trkpt lat="48.46793" lon="7.40677">
        <ele>303</ele>
        <time>2011-08-14T10:29:58Z</time>
      </trkpt>
      <trkpt lat="48.46815" lon="7.40739">
        <ele>301</ele>
        <time>2011-08-14T10:30:05Z</time>
      </trkpt>
      <trkpt lat="48.46819" lon="7.40751">
        <ele>302</ele>
        <time>2011-08-14T10:30:06Z</time>
      </trkpt>
      <trkpt lat="48.46834" lon="7.40829">
        <ele>294</ele>
        <time>2011-08-14T10:30:12Z</time>
      </trkpt>
      <trkpt lat="48.46856" lon="7.40916">
        <ele>290</ele>
        <time>2011-08-14T10:30:18Z</time>
      </trkpt>
      <trkpt lat="48.46861" lon="7.40978">
        <ele>287</ele>
        <time>2011-08-14T10:30:22Z</time>
      </trkpt>
      <trkpt lat="48.46874" lon="7.41033">
        <ele>284</ele>
        <time>2011-08-14T10:30:26Z</time>
      </trkpt>
      <trkpt lat="48.46889" lon="7.41084">
        <ele>282</ele>
        <time>2011-08-14T10:30:30Z</time>
      </trkpt>
      <trkpt lat="48.46896" lon="7.41112">
        <ele>282</ele>
        <time>2011-08-14T10:30:34Z</time>
      </trkpt>
      <trkpt lat="48.46896" lon="7.41119">
        <ele>282</ele>
        <time>2011-08-14T10:30:37Z</time>
      </trkpt>
      <trkpt lat="48.46899" lon="7.41116">
        <ele>282</ele>
        <time>2011-08-14T10:31:37Z</time>
      </trkpt>
      <trkpt lat="48.46898" lon="7.41113">
        <ele>282</ele>
        <time>2011-08-14T10:32:03Z</time>
      </trkpt>
      <trkpt lat="48.46897" lon="7.41127">
        <ele>281</ele>
        <time>2011-08-14T10:32:08Z</time>
      </trkpt>
      <trkpt lat="48.4689" lon="7.41158">
        <ele>281</ele>
        <time>2011-08-14T10:32:14Z</time>
      </trkpt>
      <trkpt lat="48.46881" lon="7.41204">
        <ele>282</ele>
        <time>2011-08-14T10:32:21Z</time>
      </trkpt>
      <trkpt lat="48.46866" lon="7.41269">
        <ele>284</ele>
        <time>2011-08-14T10:32:30Z</time>
      </trkpt>
      <trkpt lat="48.46853" lon="7.41314">
        <ele>283</ele>
        <time>2011-08-14T10:32:36Z</time>
      </trkpt>
      <trkpt lat="48.46839" lon="7.41361">
        <ele>284</ele>
        <time>2011-08-14T10:32:42Z</time>
      </trkpt>
      <trkpt lat="48.46834" lon="7.41376">
        <ele>284</ele>
        <time>2011-08-14T10:32:44Z</time>
      </trkpt>
      <trkpt lat="48.46808" lon="7.41421">
        <ele>278</ele>
        <time>2011-08-14T10:32:51Z</time>
      </trkpt>
      <trkpt lat="48.46782" lon="7.41461">
        <ele>278</ele>
        <time>2011-08-14T10:32:57Z</time>
      </trkpt>
      <trkpt lat="48.46759" lon="7.41512">
        <ele>278</ele>
        <time>2011-08-14T10:33:03Z</time>
      </trkpt>
      <trkpt lat="48.46732" lon="7.41558">
        <ele>280</ele>
        <time>2011-08-14T10:33:09Z</time>
      </trkpt>
      <trkpt lat="48.46707" lon="7.4161">
        <ele>283</ele>
        <time>2011-08-14T10:33:17Z</time>
      </trkpt>
      <trkpt lat="48.46703" lon="7.41628">
        <ele>283</ele>
        <time>2011-08-14T10:33:20Z</time>
      </trkpt>
      <trkpt lat="48.46698" lon="7.41657">
        <ele>283</ele>
        <time>2011-08-14T10:33:24Z</time>
      </trkpt>
      <trkpt lat="48.46691" lon="7.41681">
        <ele>284</ele>
        <time>2011-08-14T10:33:27Z</time>
      </trkpt>
      <trkpt lat="48.4668" lon="7.41714">
        <ele>284</ele>
        <time>2011-08-14T10:33:31Z</time>
      </trkpt>
      <trkpt lat="48.46665" lon="7.41759">
        <ele>279</ele>
        <time>2011-08-14T10:33:36Z</time>
      </trkpt>
      <trkpt lat="48.46655" lon="7.41783">
        <ele>281</ele>
        <time>2011-08-14T10:33:39Z</time>
      </trkpt>
      <trkpt lat="48.46637" lon="7.41826">
        <ele>281</ele>
        <time>2011-08-14T10:33:44Z</time>
      </trkpt>
      <trkpt lat="48.46618" lon="7.41882">
        <ele>281</ele>
        <time>2011-08-14T10:33:50Z</time>
      </trkpt>
      <trkpt lat="48.46609" lon="7.41922">
        <ele>281</ele>
        <time>2011-08-14T10:33:54Z</time>
      </trkpt>
      <trkpt lat="48.46599" lon="7.41972">
        <ele>280</ele>
        <time>2011-08-14T10:33:59Z</time>
      </trkpt>
      <trkpt lat="48.46592" lon="7.42013">
        <ele>279</ele>
        <time>2011-08-14T10:34:03Z</time>
      </trkpt>
      <trkpt lat="48.46592" lon="7.42043">
        <ele>282</ele>
        <time>2011-08-14T10:34:06Z</time>
      </trkpt>
      <trkpt lat="48.4659" lon="7.42077">
        <ele>279</ele>
        <time>2011-08-14T10:34:09Z</time>
      </trkpt>
      <trkpt lat="48.46587" lon="7.42099">
        <ele>281</ele>
        <time>2011-08-14T10:34:11Z</time>
      </trkpt>
      <trkpt lat="48.46583" lon="7.4212">
        <ele>279</ele>
        <time>2011-08-14T10:34:13Z</time>
      </trkpt>
      <trkpt lat="48.46562" lon="7.42161">
        <ele>278</ele>
        <time>2011-08-14T10:34:18Z</time>
      </trkpt>
      <trkpt lat="48.46532" lon="7.42191">
        <ele>276</ele>
        <time>2011-08-14T10:34:23Z</time>
      </trkpt>
      <trkpt lat="48.46473" lon="7.4224">
        <ele>271</ele>
        <time>2011-08-14T10:34:30Z</time>
      </trkpt>
      <trkpt lat="48.46444" lon="7.42275">
        <ele>266</ele>
        <time>2011-08-14T10:34:35Z</time>
      </trkpt>
      <trkpt lat="48.46392" lon="7.42328">
        <ele>273</ele>
        <time>2011-08-14T10:34:43Z</time>
      </trkpt>
      <trkpt lat="48.46355" lon="7.42377">
        <ele>273</ele>
        <time>2011-08-14T10:34:51Z</time>
      </trkpt>
      <trkpt lat="48.46333" lon="7.42411">
        <ele>276</ele>
        <time>2011-08-14T10:34:57Z</time>
      </trkpt>
      <trkpt lat="48.46324" lon="7.42421">
        <ele>275</ele>
        <time>2011-08-14T10:34:59Z</time>
      </trkpt>
      <trkpt lat="48.46311" lon="7.42448">
        <ele>279</ele>
        <time>2011-08-14T10:35:03Z</time>
      </trkpt>
      <trkpt lat="48.46307" lon="7.42464">
        <ele>279</ele>
        <time>2011-08-14T10:35:05Z</time>
      </trkpt>
      <trkpt lat="48.46301" lon="7.42531">
        <ele>272</ele>
        <time>2011-08-14T10:35:11Z</time>
      </trkpt>
      <trkpt lat="48.46288" lon="7.42633">
        <ele>267</ele>
        <time>2011-08-14T10:35:19Z</time>
      </trkpt>
      <trkpt lat="48.46273" lon="7.42728">
        <ele>262</ele>
        <time>2011-08-14T10:35:27Z</time>
      </trkpt>
      <trkpt lat="48.46252" lon="7.42802">
        <ele>258</ele>
        <time>2011-08-14T10:35:34Z</time>
      </trkpt>
      <trkpt lat="48.46233" lon="7.4286">
        <ele>259</ele>
        <time>2011-08-14T10:35:41Z</time>
      </trkpt>
      <trkpt lat="48.4623" lon="7.42868">
        <ele>259</ele>
        <time>2011-08-14T10:35:42Z</time>
      </trkpt>
      <trkpt lat="48.46214" lon="7.42905">
        <ele>258</ele>
        <time>2011-08-14T10:35:48Z</time>
      </trkpt>
      <trkpt lat="48.4618" lon="7.42956">
        <ele>253</ele>
        <time>2011-08-14T10:35:58Z</time>
      </trkpt>
      <trkpt lat="48.46161" lon="7.4298">
        <ele>255</ele>
        <time>2011-08-14T10:36:03Z</time>
      </trkpt>
      <trkpt lat="48.46132" lon="7.43">
        <ele>256</ele>
        <time>2011-08-14T10:36:09Z</time>
      </trkpt>
      <trkpt lat="48.46108" lon="7.42999">
        <ele>256</ele>
        <time>2011-08-14T10:36:13Z</time>
      </trkpt>
      <trkpt lat="48.46089" lon="7.42994">
        <ele>256</ele>
        <time>2011-08-14T10:36:16Z</time>
      </trkpt>
      <trkpt lat="48.46072" lon="7.42981">
        <ele>258</ele>
        <time>2011-08-14T10:36:20Z</time>
      </trkpt>
      <trkpt lat="48.46065" lon="7.42988">
        <ele>257</ele>
        <time>2011-08-14T10:36:22Z</time>
      </trkpt>
      <trkpt lat="48.46046" lon="7.43039">
        <ele>253</ele>
        <time>2011-08-14T10:36:28Z</time>
      </trkpt>
      <trkpt lat="48.46043" lon="7.4306">
        <ele>252</ele>
        <time>2011-08-14T10:36:30Z</time>
      </trkpt>
      <trkpt lat="48.46048" lon="7.43095">
        <ele>249</ele>
        <time>2011-08-14T10:36:33Z</time>
      </trkpt>
      <trkpt lat="48.46047" lon="7.43175">
        <ele>248</ele>
        <time>2011-08-14T10:36:40Z</time>
      </trkpt>
      <trkpt lat="48.46056" lon="7.43247">
        <ele>247</ele>
        <time>2011-08-14T10:36:46Z</time>
      </trkpt>
      <trkpt lat="48.46057" lon="7.43259">
        <ele>247</ele>
        <time>2011-08-14T10:36:47Z</time>
      </trkpt>
      <trkpt lat="48.46059" lon="7.43332">
        <ele>247</ele>
        <time>2011-08-14T10:36:53Z</time>
      </trkpt>
      <trkpt lat="48.46071" lon="7.43422">
        <ele>243</ele>
        <time>2011-08-14T10:37:01Z</time>
      </trkpt>
      <trkpt lat="48.46085" lon="7.43509">
        <ele>241</ele>
        <time>2011-08-14T10:37:09Z</time>
      </trkpt>
      <trkpt lat="48.46096" lon="7.43614">
        <ele>240</ele>
        <time>2011-08-14T10:37:18Z</time>
      </trkpt>
      <trkpt lat="48.46106" lon="7.43698">
        <ele>239</ele>
        <time>2011-08-14T10:37:25Z</time>
      </trkpt>
      <trkpt lat="48.46115" lon="7.43806">
        <ele>239</ele>
        <time>2011-08-14T10:37:34Z</time>
      </trkpt>
      <trkpt lat="48.46126" lon="7.43879">
        <ele>237</ele>
        <time>2011-08-14T10:37:40Z</time>
      </trkpt>
      <trkpt lat="48.46145" lon="7.43956">
        <ele>235</ele>
        <time>2011-08-14T10:37:46Z</time>
      </trkpt>
      <trkpt lat="48.46162" lon="7.44044">
        <ele>234</ele>
        <time>2011-08-14T10:37:53Z</time>
      </trkpt>
      <trkpt lat="48.46164" lon="7.44108">
        <ele>233</ele>
        <time>2011-08-14T10:37:58Z</time>
      </trkpt>
      <trkpt lat="48.46157" lon="7.44193">
        <ele>233</ele>
        <time>2011-08-14T10:38:05Z</time>
      </trkpt>
      <trkpt lat="48.46138" lon="7.44313">
        <ele>233</ele>
        <time>2011-08-14T10:38:15Z</time>
      </trkpt>
      <trkpt lat="48.4612" lon="7.44413">
        <ele>231</ele>
        <time>2011-08-14T10:38:24Z</time>
      </trkpt>
      <trkpt lat="48.46101" lon="7.44518">
        <ele>234</ele>
        <time>2011-08-14T10:38:34Z</time>
      </trkpt>
      <trkpt lat="48.4608" lon="7.44634">
        <ele>235</ele>
        <time>2011-08-14T10:38:45Z</time>
      </trkpt>
      <trkpt lat="48.46068" lon="7.44742">
        <ele>237</ele>
        <time>2011-08-14T10:38:55Z</time>
      </trkpt>
      <trkpt lat="48.46068" lon="7.44753">
        <ele>237</ele>
        <time>2011-08-14T10:38:56Z</time>
      </trkpt>
      <trkpt lat="48.46077" lon="7.44796">
        <ele>236</ele>
        <time>2011-08-14T10:39:00Z</time>
      </trkpt>
      <trkpt lat="48.46088" lon="7.44826">
        <ele>237</ele>
        <time>2011-08-14T10:39:03Z</time>
      </trkpt>
      <trkpt lat="48.46101" lon="7.44868">
        <ele>236</ele>
        <time>2011-08-14T10:39:07Z</time>
      </trkpt>
      <trkpt lat="48.46128" lon="7.44944">
        <ele>235</ele>
        <time>2011-08-14T10:39:15Z</time>
      </trkpt>
      <trkpt lat="48.46154" lon="7.45011">
        <ele>235</ele>
        <time>2011-08-14T10:39:23Z</time>
      </trkpt>
      <trkpt lat="48.46174" lon="7.45074">
        <ele>234</ele>
        <time>2011-08-14T10:39:29Z</time>
      </trkpt>
      <trkpt lat="48.46199" lon="7.45162">
        <ele>233</ele>
        <time>2011-08-14T10:39:36Z</time>
      </trkpt>
      <trkpt lat="48.46224" lon="7.45223">
        <ele>231</ele>
        <time>2011-08-14T10:39:41Z</time>
      </trkpt>
      <trkpt lat="48.46265" lon="7.45303">
        <ele>230</ele>
        <time>2011-08-14T10:39:48Z</time>
      </trkpt>
      <trkpt lat="48.46289" lon="7.45376">
        <ele>226</ele>
        <time>2011-08-14T10:39:54Z</time>
      </trkpt>
      <trkpt lat="48.46317" lon="7.45486">
        <ele>222</ele>
        <time>2011-08-14T10:40:03Z</time>
      </trkpt>
      <trkpt lat="48.46339" lon="7.45584">
        <ele>218</ele>
        <time>2011-08-14T10:40:11Z</time>
      </trkpt>
      <trkpt lat="48.4635" lon="7.45656">
        <ele>217</ele>
        <time>2011-08-14T10:40:17Z</time>
      </trkpt>
      <trkpt lat="48.46354" lon="7.45735">
        <ele>216</ele>
        <time>2011-08-14T10:40:24Z</time>
      </trkpt>
      <trkpt lat="48.46354" lon="7.45809">
        <ele>215</ele>
        <time>2011-08-14T10:40:31Z</time>
      </trkpt>
      <trkpt lat="48.46352" lon="7.4592">
        <ele>213</ele>
        <time>2011-08-14T10:40:41Z</time>
      </trkpt>
      <trkpt lat="48.46349" lon="7.46005">
        <ele>211</ele>
        <time>2011-08-14T10:40:49Z</time>
      </trkpt>
      <trkpt lat="48.46345" lon="7.46095">
        <ele>211</ele>
        <time>2011-08-14T10:40:58Z</time>
      </trkpt>
      <trkpt lat="48.46342" lon="7.46187">
        <ele>212</ele>
        <time>2011-08-14T10:41:07Z</time>
      </trkpt>
      <trkpt lat="48.46339" lon="7.46261">
        <ele>210</ele>
        <time>2011-08-14T10:41:14Z</time>
      </trkpt>
      <trkpt lat="48.46334" lon="7.46325">
        <ele>211</ele>
        <time>2011-08-14T10:41:20Z</time>
      </trkpt>
      <trkpt lat="48.46326" lon="7.46407">
        <ele>209</ele>
        <time>2011-08-14T10:41:28Z</time>
      </trkpt>
      <trkpt lat="48.46324" lon="7.46495">
        <ele>208</ele>
        <time>2011-08-14T10:41:36Z</time>
      </trkpt>
      <trkpt lat="48.46324" lon="7.46582">
        <ele>207</ele>
        <time>2011-08-14T10:41:44Z</time>
      </trkpt>
      <trkpt lat="48.46324" lon="7.46654">
        <ele>206</ele>
        <time>2011-08-14T10:41:51Z</time>
      </trkpt>
      <trkpt lat="48.4632" lon="7.46707">
        <ele>205</ele>
        <time>2011-08-14T10:41:56Z</time>
      </trkpt>
      <trkpt lat="48.4631" lon="7.46735">
        <ele>205</ele>
        <time>2011-08-14T10:41:59Z</time>
      </trkpt>
      <trkpt lat="48.46307" lon="7.46762">
        <ele>205</ele>
        <time>2011-08-14T10:42:02Z</time>
      </trkpt>
      <trkpt lat="48.46311" lon="7.46786">
        <ele>205</ele>
        <time>2011-08-14T10:42:05Z</time>
      </trkpt>
      <trkpt lat="48.46309" lon="7.46794">
        <ele>205</ele>
        <time>2011-08-14T10:42:06Z</time>
      </trkpt>
      <trkpt lat="48.46306" lon="7.46817">
        <ele>205</ele>
        <time>2011-08-14T10:42:09Z</time>
      </trkpt>
      <trkpt lat="48.463" lon="7.46848">
        <ele>205</ele>
        <time>2011-08-14T10:42:13Z</time>
      </trkpt>
      <trkpt lat="48.46297" lon="7.46912">
        <ele>204</ele>
        <time>2011-08-14T10:42:21Z</time>
      </trkpt>
      <trkpt lat="48.46297" lon="7.4698">
        <ele>204</ele>
        <time>2011-08-14T10:42:29Z</time>
      </trkpt>
      <trkpt lat="48.46293" lon="7.47054">
        <ele>203</ele>
        <time>2011-08-14T10:42:37Z</time>
      </trkpt>
      <trkpt lat="48.4628" lon="7.47114">
        <ele>202</ele>
        <time>2011-08-14T10:42:44Z</time>
      </trkpt>
      <trkpt lat="48.46261" lon="7.47163">
        <ele>201</ele>
        <time>2011-08-14T10:42:51Z</time>
      </trkpt>
      <trkpt lat="48.46233" lon="7.47227">
        <ele>201</ele>
        <time>2011-08-14T10:43:01Z</time>
      </trkpt>
      <trkpt lat="48.46216" lon="7.47283">
        <ele>200</ele>
        <time>2011-08-14T10:43:09Z</time>
      </trkpt>
      <trkpt lat="48.46202" lon="7.47347">
        <ele>199</ele>
        <time>2011-08-14T10:43:17Z</time>
      </trkpt>
      <trkpt lat="48.462" lon="7.47363">
        <ele>199</ele>
        <time>2011-08-14T10:43:19Z</time>
      </trkpt>
      <trkpt lat="48.46191" lon="7.47405">
        <ele>199</ele>
        <time>2011-08-14T10:43:24Z</time>
      </trkpt>
      <trkpt lat="48.46186" lon="7.4742">
        <ele>199</ele>
        <time>2011-08-14T10:43:26Z</time>
      </trkpt>
      <trkpt lat="48.46181" lon="7.47444">
        <ele>199</ele>
        <time>2011-08-14T10:43:29Z</time>
      </trkpt>
      <trkpt lat="48.46173" lon="7.47518">
        <ele>197</ele>
        <time>2011-08-14T10:43:38Z</time>
      </trkpt>
      <trkpt lat="48.46173" lon="7.47569">
        <ele>196</ele>
        <time>2011-08-14T10:43:44Z</time>
      </trkpt>
      <trkpt lat="48.46168" lon="7.47629">
        <ele>195</ele>
        <time>2011-08-14T10:43:50Z</time>
      </trkpt>
      <trkpt lat="48.46163" lon="7.47697">
        <ele>194</ele>
        <time>2011-08-14T10:43:56Z</time>
      </trkpt>
      <trkpt lat="48.46162" lon="7.4772">
        <ele>194</ele>
        <time>2011-08-14T10:43:58Z</time>
      </trkpt>
      <trkpt lat="48.46163" lon="7.47765">
        <ele>192</ele>
        <time>2011-08-14T10:44:02Z</time>
      </trkpt>
      <trkpt lat="48.46176" lon="7.47824">
        <ele>191</ele>
        <time>2011-08-14T10:44:08Z</time>
      </trkpt>
      <trkpt lat="48.46184" lon="7.47852">
        <ele>191</ele>
        <time>2011-08-14T10:44:12Z</time>
      </trkpt>
      <trkpt lat="48.46193" lon="7.47855">
        <ele>191</ele>
        <time>2011-08-14T10:44:16Z</time>
      </trkpt>
      <trkpt lat="48.46202" lon="7.47849">
        <ele>191</ele>
        <time>2011-08-14T10:44:19Z</time>
      </trkpt>
      <trkpt lat="48.46214" lon="7.47841">
        <ele>190</ele>
        <time>2011-08-14T10:44:22Z</time>
      </trkpt>
      <trkpt lat="48.46233" lon="7.47831">
        <ele>190</ele>
        <time>2011-08-14T10:44:26Z</time>
      </trkpt>
      <trkpt lat="48.46248" lon="7.47828">
        <ele>190</ele>
        <time>2011-08-14T10:44:31Z</time>
      </trkpt>
      <trkpt lat="48.46256" lon="7.47825">
        <ele>190</ele>
        <time>2011-08-14T10:44:33Z</time>
      </trkpt>
      <trkpt lat="48.46288" lon="7.47834">
        <ele>189</ele>
        <time>2011-08-14T10:44:40Z</time>
      </trkpt>
      <trkpt lat="48.46291" lon="7.47837">
        <ele>189</ele>
        <time>2011-08-14T10:44:41Z</time>
      </trkpt>
      <trkpt lat="48.46305" lon="7.4786">
        <ele>189</ele>
        <time>2011-08-14T10:44:46Z</time>
      </trkpt>
      <trkpt lat="48.463" lon="7.47875">
        <ele>189</ele>
        <time>2011-08-14T10:44:51Z</time>
      </trkpt>
      <trkpt lat="48.46299" lon="7.47883">
        <ele>189</ele>
        <time>2011-08-14T10:44:53Z</time>
      </trkpt>
      <trkpt lat="48.463" lon="7.47888">
        <ele>189</ele>
        <time>2011-08-14T10:44:54Z</time>
      </trkpt>
    </trkseg>
  </trk>
</gpx>